Provisional Data: Little Chiques Creek near Mount Joy, PA


Please select a monitoring station.
Please select start date.
Please select start date.

Toggle Unit: C/F Toggle Unit: C/F
Sample Time Temperature (C) Temperature (F) Specific Conductivity (mS/cm) pH   Turbidity (NTU+) DO (mg/L)
12/11/2021 12:00:00 AM 6.47 43.646 0.414 7.82 2.84 10.99
12/11/2021 12:15:00 AM 6.47 43.646 0.414 7.81 3.32 10.95
12/11/2021 12:30:00 AM 6.48 43.664 0.414 7.81 2.93 10.92
12/11/2021 12:45:00 AM 6.48 43.664 0.415 7.8 2.92 10.88
12/11/2021 1:00:00 AM 6.49 43.682 0.415 7.8 2.6 10.84
12/11/2021 1:15:00 AM 6.5 43.7 0.415 7.79 5.49 10.81
12/11/2021 1:30:00 AM 6.52 43.736 0.415 7.79 3.55 10.78
12/11/2021 1:45:00 AM 6.53 43.754 0.415 7.79 2.81 10.75
12/11/2021 2:00:00 AM 6.54 43.772 0.415 7.78 2.95 10.73
12/11/2021 2:15:00 AM 6.55 43.79 0.415 7.78 3.72 10.7
12/11/2021 2:30:00 AM 6.56 43.808 0.415 7.78 3.5 10.68
12/11/2021 2:45:00 AM 6.57 43.826 0.415 7.78 3.62 10.65
12/11/2021 3:00:00 AM 6.59 43.862 0.415 7.77 3.17 10.64
12/11/2021 3:15:00 AM 6.6 43.88 0.415 7.77 2.86 10.61
12/11/2021 3:30:00 AM 6.62 43.916 0.415 7.77 2.95 10.59
12/11/2021 3:45:00 AM 6.63 43.934 0.415 7.77 3.44 10.57
12/11/2021 4:00:00 AM 6.64 43.952 0.416 7.76 3.76 10.56
12/11/2021 4:15:00 AM 6.65 43.97 0.416 7.76 4.27 10.53
12/11/2021 4:30:00 AM 6.67 44.006 0.416 7.76 3.35 10.52
12/11/2021 4:45:00 AM 6.68 44.024 0.416 7.76 3.84 10.5
12/11/2021 5:00:00 AM 6.69 44.042 0.415 7.75 3.25 10.48
12/11/2021 5:15:00 AM 6.7 44.06 0.416 7.75 3.5 10.47
12/11/2021 5:30:00 AM 6.72 44.096 0.415 7.75 2.62 10.45
12/11/2021 5:45:00 AM 6.73 44.114 0.416 7.75 2.96 10.43
12/11/2021 6:00:00 AM 6.74 44.132 0.416 7.75 2.88 10.42
12/11/2021 6:15:00 AM 6.76 44.168 0.415 7.75 2.96 10.41
12/11/2021 6:30:00 AM 6.77 44.186 0.416 7.75 3.99 10.4
12/11/2021 6:45:00 AM 6.78 44.204 0.415 7.75 2.96 10.38
12/11/2021 7:00:00 AM 6.8 44.24 0.414 7.74 3.63 10.37
12/11/2021 7:15:00 AM 6.81 44.258 0.415 7.74 3.13 10.35
12/11/2021 7:30:00 AM 6.82 44.276 0.414 7.74 2.62 10.34
12/11/2021 7:45:00 AM 6.84 44.312 0.415 7.74 2.78 10.34
12/11/2021 8:00:00 AM 6.86 44.348 0.415 7.74 3.44 10.32
12/11/2021 8:15:00 AM 6.88 44.384 0.415 7.73 3.07 10.34
12/11/2021 8:30:00 AM 6.9 44.42 0.415 7.74 3.38 10.37
12/11/2021 8:45:00 AM 6.92 44.456 0.415 7.74 3.06 10.41
12/11/2021 9:00:00 AM 6.94 44.492 0.414 7.75 2.5 10.51
12/11/2021 9:15:00 AM 6.96 44.528 0.415 7.76 2.47 10.58
12/11/2021 9:30:00 AM 6.99 44.582 0.415 7.77 2.69 10.67
12/11/2021 9:45:00 AM 7.02 44.636 0.414 7.78 2.7 10.79
12/11/2021 10:00:00 AM 7.05 44.69 0.414 7.8 2.5 10.92
12/11/2021 10:15:00 AM 7.09 44.762 0.414 7.81 2.54 11.07
12/11/2021 10:30:00 AM 7.13 44.834 0.414 7.83 2.33 11.23
12/11/2021 10:45:00 AM 7.17 44.906 0.414 7.84 2.7 11.41
12/11/2021 11:00:00 AM 7.22 44.996 0.414 7.87 3.56 11.58
12/11/2021 11:15:00 AM 7.27 45.086 0.413 7.89 3.15 11.79
12/11/2021 11:30:00 AM 7.34 45.212 0.412 7.92 9.27 12.03
12/11/2021 11:45:00 AM 7.43 45.374 0.412 7.95 2.48 12.18
12/11/2021 12:00:00 PM 7.52 45.536 0.412 7.98 3.06 12.45
12/11/2021 12:15:00 PM 7.62 45.716 0.411 8.02 2.82 12.72
12/11/2021 12:30:00 PM 7.71 45.878 0.412 8.06 2.34 12.91
12/11/2021 12:45:00 PM 7.8 46.04 0.411 8.09 2.58 13.06
12/11/2021 1:00:00 PM 7.88 46.184 0.41 8.12 2.55 13.22
12/11/2021 1:15:00 PM 7.95 46.31 0.41 8.13 2.55 13.27
12/11/2021 1:30:00 PM 8.02 46.436 0.41 8.14 2.92 13.26
12/11/2021 1:45:00 PM 8.08 46.544 0.41 8.14 2.85 13.22
12/11/2021 2:00:00 PM 8.14 46.652 0.41 8.14 2.52 13.13
12/11/2021 2:15:00 PM 8.2 46.76 0.41 8.12 2.83 12.98
12/11/2021 2:30:00 PM 8.25 46.85 0.411 8.1 2.83 12.77
12/11/2021 2:45:00 PM 8.28 46.904 0.411 8.07 2.94 12.56
12/11/2021 3:00:00 PM 8.32 46.976 0.411 8.04 3.32 12.35
12/11/2021 3:15:00 PM 8.36 47.048 0.411 8.02 2.53 12.17
12/11/2021 3:30:00 PM 8.4 47.12 0.411 7.99 7.55 12.01
12/11/2021 3:45:00 PM 8.46 47.228 0.411 7.98 9.33 11.92
12/11/2021 4:00:00 PM 8.51 47.318 0.411 7.97 5.24 11.82
12/11/2021 4:15:00 PM 8.57 47.426 0.411 7.95 3.5 11.7
12/11/2021 4:30:00 PM 8.62 47.516 0.411 7.94 3.19 11.58
12/11/2021 4:45:00 PM 8.68 47.624 0.405 7.93 4.01 11.44
12/11/2021 5:00:00 PM 8.74 47.732 0.411 7.91 3.71 11.31
12/11/2021 5:15:00 PM 8.8 47.84 0.337 7.89 6.5 11.19
12/11/2021 5:30:00 PM 8.87 47.966 0.41 7.89 5.77 11.07
12/11/2021 5:45:00 PM 8.93 48.074 0.402 7.88 6.81 10.98
12/11/2021 6:00:00 PM 8.98 48.164 0.412 7.87 8.35 10.88
12/11/2021 6:15:00 PM 9.03 48.254 0.411 7.86 57.35 10.81
12/11/2021 6:30:00 PM 9.07 48.326 0.405 7.86 4.34 10.76
12/11/2021 6:45:00 PM 9.11 48.398 0.411 7.86 4.5 10.69
12/11/2021 7:00:00 PM 9.16 48.488 0.411 7.85 4.4 10.65
12/11/2021 7:15:00 PM 9.18 48.524 0.411 7.85 4.5 10.59
12/11/2021 7:30:00 PM 9.21 48.578 0.411 7.85 4.56 10.55
12/11/2021 7:45:00 PM 9.25 48.65 0.41 7.84 5.54 10.49
12/11/2021 8:00:00 PM 9.29 48.722 0.411 7.83 5.21 10.43
12/11/2021 8:15:00 PM 9.34 48.812 0.379 7.82 4.39 10.39
12/11/2021 8:30:00 PM 9.36 48.848 0.41 7.82 5.1 10.33
12/11/2021 8:45:00 PM 9.37 48.866 0.41 7.82 4.36 10.28
12/11/2021 9:00:00 PM 9.35 48.83 0.41 7.82 4.17 10.23
12/11/2021 9:15:00 PM 9.33 48.794 0.41 7.82 4 10.18
12/11/2021 9:30:00 PM 9.29 48.722 0.41 7.81 6.23 10.14
12/11/2021 9:45:00 PM 9.24 48.632 0.41 7.81 4.1 10.09
12/11/2021 10:00:00 PM 9.17 48.506 0.411 7.81 4.33 10.05
12/11/2021 10:15:00 PM 9.08 48.344 0.411 7.8 4.21 10.01
12/11/2021 10:30:00 PM 8.98 48.164 0.411 7.8 3.77 10
12/11/2021 10:45:00 PM 8.88 47.984 0.412 7.8 4.16 9.98
12/11/2021 11:00:00 PM 8.79 47.822 0.411 7.8 3.88 9.97
12/11/2021 11:15:00 PM 8.69 47.642 0.411 7.8 3.87 9.96
12/11/2021 11:30:00 PM 8.6 47.48 0.412 7.8 3.94 9.96
12/11/2021 11:45:00 PM 8.52 47.336 0.413 7.79 4.06 9.94
12/12/2021 12:00:00 AM 8.44 47.192 0.412 7.79 3.75 9.95
12/12/2021 12:15:00 AM 8.38 47.084 0.413 7.79 3.97 9.94
12/12/2021 12:30:00 AM 8.33 46.994 0.413 7.79 3.88 9.93
12/12/2021 12:45:00 AM 8.29 46.922 0.413 7.79 3.81 9.93
12/12/2021 1:00:00 AM 8.28 46.904 0.413 7.78 4.55 9.91
12/12/2021 1:15:00 AM 8.27 46.886 0.413 7.78 4.04 9.89
12/12/2021 1:30:00 AM 8.25 46.85 0.413 7.77 4.05 9.87
12/12/2021 1:45:00 AM 8.23 46.814 0.413 7.77 3.78 9.86
12/12/2021 2:00:00 AM 8.2 46.76 0.414 7.77 3.8 9.85
12/12/2021 2:15:00 AM 8.16 46.688 0.415 7.76 4.5 9.85
12/12/2021 2:30:00 AM 8.12 46.616 0.414 7.77 3.76 9.84
12/12/2021 2:45:00 AM 8.07 46.526 0.414 7.76 3.81 9.85
12/12/2021 3:00:00 AM 8.01 46.418 0.414 7.76 3.71 9.86
12/12/2021 3:15:00 AM 7.95 46.31 0.415 7.76 3.59 9.87
12/12/2021 3:30:00 AM 7.88 46.184 0.415 7.77 4.63 9.88
12/12/2021 3:45:00 AM 7.8 46.04 0.415 7.77 4.79 9.91
12/12/2021 4:00:00 AM 7.74 45.932 0.415 7.76 3.6 9.92
12/12/2021 4:15:00 AM 7.68 45.824 0.415 7.76 4.38 9.92
12/12/2021 4:30:00 AM 7.62 45.716 0.415 7.76 4.48 9.92
12/12/2021 4:45:00 AM 7.57 45.626 0.415 7.76 3.93 9.93
12/12/2021 5:00:00 AM 7.52 45.536 0.415 7.76 5.32 9.93
12/12/2021 5:15:00 AM 7.46 45.428 0.415 7.75 3.98 9.94
12/12/2021 5:30:00 AM 7.4 45.32 0.416 7.75 4.16 9.96
12/12/2021 5:45:00 AM 7.35 45.23 0.416 7.75 4.38 9.98
12/12/2021 6:00:00 AM 7.29 45.122 0.416 7.75 4.72 9.98
12/12/2021 6:15:00 AM 7.25 45.05 0.415 7.75 4.64 9.99
12/12/2021 6:30:00 AM 7.21 44.978 0.416 7.75 3.76 10
12/12/2021 6:45:00 AM 7.17 44.906 0.416 7.75 4.02 10.01
12/12/2021 7:00:00 AM 7.14 44.852 0.416 7.75 3.67 10.02
12/12/2021 7:15:00 AM 7.1 44.78 0.416 7.75 3.47 10.03
12/12/2021 7:30:00 AM 7.06 44.708 0.416 7.75 3.51 10.06
12/12/2021 7:45:00 AM 7.04 44.672 0.416 7.75 3.61 10.1
12/12/2021 8:00:00 AM 7.01 44.618 0.416 7.75 8.51 10.18
12/12/2021 8:15:00 AM 6.98 44.564 0.417 7.76 4.47 10.3
12/12/2021 8:30:00 AM 6.96 44.528 0.416 7.78 3.92 10.44
12/12/2021 8:45:00 AM 6.96 44.528 0.416 7.8 3.87 10.63
12/12/2021 9:00:00 AM 6.96 44.528 0.416 7.82 3.67 10.89
12/12/2021 9:15:00 AM 6.95 44.51 0.415 7.84 3.49 11.13
12/12/2021 9:30:00 AM 6.96 44.528 0.415 7.87 3.93 11.38
12/12/2021 9:45:00 AM 6.98 44.564 0.415 7.9 3.73 11.65
12/12/2021 10:00:00 AM 7.01 44.618 0.415 7.93 3.62 11.92
12/12/2021 10:15:00 AM 7.06 44.708 0.414 7.97 3.44 12.17
12/12/2021 10:30:00 AM 7.1 44.78 0.414 8 3.48 12.41
12/12/2021 10:45:00 AM 7.17 44.906 0.414 8.03 3.58 12.63
12/12/2021 11:00:00 AM 7.24 45.032 0.414 8.06 3.61 12.84
12/12/2021 11:15:00 AM 7.31 45.158 0.413 8.09 3.93 13.04
12/12/2021 11:30:00 AM 7.4 45.32 0.413 8.13 3.73 13.21
12/12/2021 11:45:00 AM 7.49 45.482 0.414 8.15 3.92 13.38
12/12/2021 12:00:00 PM 7.55 45.59 0.413 8.18 4.45 13.51
12/12/2021 12:15:00 PM 7.62 45.716 0.412 8.2 3.7 13.63
12/12/2021 12:30:00 PM 7.67 45.806 0.412 8.22 4.02 13.72
12/12/2021 12:45:00 PM 7.71 45.878 0.412 8.24 3.78 13.79
12/12/2021 1:00:00 PM 7.73 45.914 0.412 8.26 3.66 13.87
12/12/2021 1:15:00 PM 7.76 45.968 0.412 8.27 4.27 13.91
12/12/2021 1:30:00 PM 7.76 45.968 0.412 8.28 3.86 13.94
12/12/2021 1:45:00 PM 7.74 45.932 0.412 8.29 4.03 13.97
12/12/2021 2:00:00 PM 7.73 45.914 0.412 8.29 4.09 13.96
12/12/2021 2:15:00 PM 7.69 45.842 0.412 8.3 4.37 13.97
12/12/2021 2:30:00 PM 7.65 45.77 0.412 8.29 4 13.94
12/12/2021 2:45:00 PM 7.61 45.698 0.412 8.29 4.27 13.9
12/12/2021 3:00:00 PM 7.55 45.59 0.412 8.29 4.05 13.84
12/12/2021 3:15:00 PM 7.5 45.5 0.412 8.27 3.93 13.76
12/12/2021 3:30:00 PM 7.44 45.392 0.413 8.26 4.17 13.65
12/12/2021 3:45:00 PM 7.4 45.32 0.413 8.24 5.45 13.52
12/12/2021 4:00:00 PM 7.35 45.23 0.413 8.21 6 13.38
12/12/2021 4:15:00 PM 7.31 45.158 0.413 8.19 4.14 13.21
12/12/2021 4:30:00 PM 7.26 45.068 0.414 8.16 3.86 13.03
12/12/2021 4:45:00 PM 7.21 44.978 0.414 8.13 3.79 12.83
12/12/2021 5:00:00 PM 7.17 44.906 0.414 8.1 3.83 12.62
12/12/2021 5:15:00 PM 7.12 44.816 0.415 8.07 3.76 12.41
12/12/2021 5:30:00 PM 7.07 44.726 0.415 8.04 3.77 12.23
12/12/2021 5:45:00 PM 7.03 44.654 0.415 8.01 9.75 12.05
12/12/2021 6:00:00 PM 6.98 44.564 0.415 7.99 4.47 11.9
12/12/2021 6:15:00 PM 6.93 44.474 0.415 7.97 3.9 11.79
12/12/2021 6:30:00 PM 6.88 44.384 0.415 7.96 3.91 11.7
12/12/2021 6:45:00 PM 6.82 44.276 0.415 7.95 3.85 11.65
12/12/2021 7:00:00 PM 6.77 44.186 0.415 7.94 4.04 11.59
12/12/2021 7:15:00 PM 6.72 44.096 0.415 7.94 4.28 11.56
12/12/2021 7:30:00 PM 6.67 44.006 0.415 7.93 4.54 11.53
12/12/2021 7:45:00 PM 6.63 43.934 0.415 7.93 4.36 11.5
12/12/2021 8:00:00 PM 6.58 43.844 0.415 7.92 4.36 11.47
12/12/2021 8:15:00 PM 6.54 43.772 0.415 7.92 4.06 11.44
12/12/2021 8:30:00 PM 6.49 43.682 0.415 7.91 4.14 11.41
12/12/2021 8:45:00 PM 6.43 43.574 0.416 7.9 4.31 11.38
12/12/2021 9:00:00 PM 6.38 43.484 0.416 7.9 4.14 11.34
12/12/2021 9:15:00 PM 6.33 43.394 0.416 7.89 4.15 11.3
12/12/2021 9:30:00 PM 6.28 43.304 0.416 7.88 3.97 11.26
12/12/2021 9:45:00 PM 6.22 43.196 0.417 7.87 3.93 11.23
12/12/2021 10:00:00 PM 6.16 43.088 0.417 7.87 3.91 11.19
12/12/2021 10:15:00 PM 6.1 42.98 0.417 7.86 3.68 11.16
12/12/2021 10:30:00 PM 6.04 42.872 0.417 7.85 3.8 11.13
12/12/2021 10:45:00 PM 5.97 42.746 0.417 7.84 3.79 11.09
12/12/2021 11:00:00 PM 5.91 42.638 0.417 7.84 3.75 11.07
12/12/2021 11:15:00 PM 5.85 42.53 0.418 7.83 3.76 11.05
12/12/2021 11:30:00 PM 5.79 42.422 0.418 7.83 3.83 11.03
12/12/2021 11:45:00 PM 5.72 42.296 0.418 7.82 3.77 11.02
12/13/2021 12:00:00 AM 5.66 42.188 0.418 7.82 3.84 11.01
12/13/2021 12:15:00 AM 5.6 42.08 0.418 7.81 4.05 10.99
12/13/2021 12:30:00 AM 5.54 41.972 0.419 7.81 3.95 10.97
12/13/2021 12:45:00 AM 5.48 41.864 0.418 7.8 3.93 10.97
12/13/2021 1:00:00 AM 5.43 41.774 0.419 7.8 3.94 10.96
12/13/2021 1:15:00 AM 5.38 41.684 0.419 7.79 3.86 10.95
12/13/2021 1:30:00 AM 5.32 41.576 0.419 7.79 4.04 10.95
12/13/2021 1:45:00 AM 5.27 41.486 0.42 7.79 3.91 10.95
12/13/2021 2:00:00 AM 5.23 41.414 0.419 7.78 4.05 10.95
12/13/2021 2:15:00 AM 5.18 41.324 0.42 7.78 4.05 10.95
12/13/2021 2:30:00 AM 5.14 41.252 0.42 7.78 3.89 10.95
12/13/2021 2:45:00 AM 5.1 41.18 0.42 7.78 4.39 10.96
12/13/2021 3:00:00 AM 5.06 41.108 0.42 7.78 4.06 10.96
12/13/2021 3:15:00 AM 5.02 41.036 0.42 7.77 4.14 10.97
12/13/2021 3:30:00 AM 4.98 40.964 0.42 7.77 3.93 10.98
12/13/2021 3:45:00 AM 4.95 40.91 0.42 7.77 3.89 10.99
12/13/2021 4:00:00 AM 4.91 40.838 0.42 7.77 3.9 10.98
12/13/2021 4:15:00 AM 4.88 40.784 0.42 7.77 3.92 11
12/13/2021 4:30:00 AM 4.86 40.748 0.421 7.77 4.22 11
12/13/2021 4:45:00 AM 4.83 40.694 0.42 7.77 4.02 10.97
12/13/2021 5:00:00 AM 4.8 40.64 0.421 7.76 4.04 11
12/13/2021 5:15:00 AM 4.76 40.568 0.421 7.76 4.05 11
12/13/2021 5:30:00 AM 4.72 40.496 0.421 7.76 3.97 11.01
12/13/2021 5:45:00 AM 4.68 40.424 0.42 7.76 3.99 11.02
12/13/2021 6:00:00 AM 4.63 40.334 0.421 7.76 4.25 11.02
12/13/2021 6:15:00 AM 4.59 40.262 0.421 7.76 4.14 11.04
12/13/2021 6:30:00 AM 4.54 40.172 0.421 7.76 3.98 11.05
12/13/2021 6:45:00 AM 4.5 40.1 0.421 7.76 4.2 11.05
12/13/2021 7:00:00 AM 4.46 40.028 0.421 7.76 4.27 11.07
12/13/2021 7:15:00 AM 4.42 39.956 0.421 7.75 4.03 11.09
12/13/2021 7:30:00 AM 4.38 39.884 0.422 7.75 3.71 11.12
12/13/2021 7:45:00 AM 4.34 39.812 0.422 7.76 3.7 11.17
12/13/2021 8:00:00 AM 4.31 39.758 0.422 7.76 3.88 11.23
12/13/2021 8:15:00 AM 4.29 39.722 0.421 7.77 4 11.34
12/13/2021 8:30:00 AM 4.27 39.686 0.421 7.78 4.08 11.49
12/13/2021 8:45:00 AM 4.28 39.704 0.422 7.8 4.14 11.68
12/13/2021 9:00:00 AM 4.3 39.74 0.421 7.82 3.71 11.89
12/13/2021 9:15:00 AM 4.34 39.812 0.42 7.84 4.03 12.15
12/13/2021 9:30:00 AM 4.39 39.902 0.42 7.87 7.03 12.38
12/13/2021 9:45:00 AM 4.46 40.028 0.42 7.9 3.85 12.64
12/13/2021 10:00:00 AM 4.54 40.172 0.42 7.93 3.74 12.89
12/13/2021 10:15:00 AM 4.65 40.37 0.419 7.96 3.62 13.14
12/13/2021 10:30:00 AM 4.76 40.568 0.418 7.99 4.91 13.39
12/13/2021 10:45:00 AM 4.87 40.766 0.418 8.02 3.85 13.56
12/13/2021 11:00:00 AM 5 41 0.418 8.05 3.78 13.74
12/13/2021 11:15:00 AM 5.13 41.234 0.418 8.07 4.03 13.93
12/13/2021 11:30:00 AM 5.26 41.468 0.417 8.1 4.4 14.07
12/13/2021 11:45:00 AM 5.38 41.684 0.416 8.13 3.98 14.21
12/13/2021 12:00:00 PM 5.49 41.882 0.416 8.15 3.9 14.32
12/13/2021 12:15:00 PM 5.59 42.062 0.416 8.16 3.81 14.41
12/13/2021 12:30:00 PM 5.68 42.224 0.416 8.18 3.71 14.49
12/13/2021 12:45:00 PM 5.76 42.368 0.416 8.2 3.74 14.55
12/13/2021 1:00:00 PM 5.82 42.476 0.416 8.21 3.73 14.59
12/13/2021 1:15:00 PM 5.87 42.566 0.415 8.23 3.67 14.64
12/13/2021 1:30:00 PM 5.91 42.638 0.415 8.24 3.51 14.67
12/13/2021 1:45:00 PM 5.93 42.674 0.416 8.24 3.6 14.69
12/13/2021 2:00:00 PM 5.94 42.692 0.415 8.25 4.2 14.7
12/13/2021 2:15:00 PM 5.94 42.692 0.415 8.26 3.58 14.69
12/13/2021 2:30:00 PM 5.92 42.656 0.415 8.25 3.62 14.66
12/13/2021 2:45:00 PM 5.91 42.638 0.415 8.25 3.7 14.63
12/13/2021 3:00:00 PM 5.88 42.584 0.415 8.25 3.97 14.58
12/13/2021 3:15:00 PM 5.86 42.548 0.415 8.24 3.87 14.5
12/13/2021 3:30:00 PM 5.84 42.512 0.416 8.23 3.86 14.39
12/13/2021 3:45:00 PM 5.81 42.458 0.416 8.21 4.13 14.26
12/13/2021 4:00:00 PM 5.79 42.422 0.416 8.19 4.29 14.13
12/13/2021 4:15:00 PM 5.77 42.386 0.416 8.17 4.56 13.97
12/13/2021 4:30:00 PM 5.74 42.332 0.416 8.14 3.75 13.78
12/13/2021 4:45:00 PM 5.72 42.296 0.416 8.12 3.91 13.58
12/13/2021 5:00:00 PM 5.69 42.242 0.417 8.09 3.8 13.37
12/13/2021 5:15:00 PM 5.65 42.17 0.417 8.06 4.03 13.16
12/13/2021 5:30:00 PM 5.62 42.116 0.417 8.03 4.22 12.95
12/13/2021 5:45:00 PM 5.59 42.062 0.417 8 4.76 12.77
12/13/2021 6:00:00 PM 5.56 42.008 0.417 7.98 4.43 12.62
12/13/2021 6:15:00 PM 5.54 41.972 0.417 7.96 4.94 12.48
12/13/2021 6:30:00 PM 5.51 41.918 0.418 7.95 4.47 12.38
12/13/2021 6:45:00 PM 5.48 41.864 0.418 7.94 4.33 12.3
12/13/2021 7:00:00 PM 5.45 41.81 0.418 7.93 4.06 12.25
12/13/2021 7:15:00 PM 5.42 41.756 0.418 7.93 4.36 12.2
12/13/2021 7:30:00 PM 5.39 41.702 0.418 7.92 4.16 12.17
12/13/2021 7:45:00 PM 5.35 41.63 0.418 7.92 4.4 12.13
12/13/2021 8:00:00 PM 5.32 41.576 0.417 7.91 4.02 12.1
12/13/2021 8:15:00 PM 5.29 41.522 0.418 7.91 4 12.06
12/13/2021 8:30:00 PM 5.26 41.468 0.418 7.9 4.43 12.02
12/13/2021 8:45:00 PM 5.22 41.396 0.418 7.9 3.94 11.99
12/13/2021 9:00:00 PM 5.19 41.342 0.418 7.89 3.96 11.95
12/13/2021 9:15:00 PM 5.16 41.288 0.418 7.89 4.13 11.9
12/13/2021 9:30:00 PM 5.12 41.216 0.418 7.88 3.93 11.85
12/13/2021 9:45:00 PM 5.08 41.144 0.418 7.87 4.02 11.81
12/13/2021 10:00:00 PM 5.03 41.054 0.419 7.87 4.03 11.77
12/13/2021 10:15:00 PM 4.98 40.964 0.419 7.86 4.11 11.73
12/13/2021 10:30:00 PM 4.94 40.892 0.419 7.85 4.33 11.69
12/13/2021 10:45:00 PM 4.89 40.802 0.419 7.85 4.03 11.66
12/13/2021 11:00:00 PM 4.84 40.712 0.419 7.84 4.07 11.63
12/13/2021 11:15:00 PM 4.8 40.64 0.419 7.83 3.95 11.6
12/13/2021 11:30:00 PM 4.75 40.55 0.419 7.83 4.32 11.59
12/13/2021 11:45:00 PM 4.71 40.478 0.419 7.82 3.88 11.56
12/14/2021 12:00:00 AM 4.66 40.388 0.419 7.82 4.05 11.54
12/14/2021 12:15:00 AM 4.62 40.316 0.419 7.81 4.13 11.52
12/14/2021 12:30:00 AM 4.57 40.226 0.42 7.81 4.02 11.5
12/14/2021 12:45:00 AM 4.53 40.154 0.421 7.81 3.85 11.49
12/14/2021 1:00:00 AM 4.49 40.082 0.42 7.8 3.88 11.48
12/14/2021 1:15:00 AM 4.45 40.01 0.42 7.8 3.77 11.46
12/14/2021 1:30:00 AM 4.41 39.938 0.42 7.79 3.88 11.46
12/14/2021 1:45:00 AM 4.37 39.866 0.42 7.79 3.78 11.45
12/14/2021 2:00:00 AM 4.34 39.812 0.42 7.79 4.41 11.44
12/14/2021 2:15:00 AM 4.3 39.74 0.42 7.78 3.82 11.45
12/14/2021 2:30:00 AM 4.27 39.686 0.421 7.78 3.8 11.43
12/14/2021 2:45:00 AM 4.24 39.632 0.421 7.78 3.93 11.43
12/14/2021 3:00:00 AM 4.21 39.578 0.421 7.78 3.87 11.42
12/14/2021 3:15:00 AM 4.19 39.542 0.421 7.78 4.08 11.42
12/14/2021 3:30:00 AM 4.16 39.488 0.421 7.78 3.71 11.43
12/14/2021 3:45:00 AM 4.13 39.434 0.421 7.77 3.67 11.42
12/14/2021 4:00:00 AM 4.11 39.398 0.421 7.77 3.75 11.42
12/14/2021 4:15:00 AM 4.08 39.344 0.421 7.77 3.96 11.41
12/14/2021 4:30:00 AM 4.06 39.308 0.421 7.77 3.82 11.42
12/14/2021 4:45:00 AM 4.03 39.254 0.422 7.77 3.81 11.42
12/14/2021 5:00:00 AM 4 39.2 0.421 7.77 3.87 11.42
12/14/2021 5:15:00 AM 3.98 39.164 0.421 7.77 3.83 11.42
12/14/2021 5:30:00 AM 3.95 39.11 0.421 7.77 3.87 11.43
12/14/2021 5:45:00 AM 3.93 39.074 0.421 7.77 4.13 11.43
12/14/2021 6:00:00 AM 3.9 39.02 0.422 7.76 3.75 11.43
12/14/2021 6:15:00 AM 3.87 38.966 0.423 7.76 4.32 11.44
12/14/2021 6:30:00 AM 3.84 38.912 0.421 7.76 4.42 11.44
12/14/2021 6:45:00 AM 3.81 38.858 0.422 7.76 4.12 11.46
12/14/2021 7:00:00 AM 3.78 38.804 0.423 7.76 4.42 11.44
12/14/2021 7:15:00 AM 3.75 38.75 0.422 7.76 4.18 11.46
12/14/2021 7:30:00 AM 3.72 38.696 0.422 7.76 4.03 11.5
12/14/2021 7:45:00 AM 3.7 38.66 0.422 7.76 3.72 11.54
12/14/2021 8:00:00 AM 3.68 38.624 0.422 7.77 3.93 11.63
12/14/2021 8:15:00 AM 3.67 38.606 0.422 7.78 3.83 11.74
12/14/2021 8:30:00 AM 3.66 38.588 0.422 7.79 3.85 11.89
12/14/2021 8:45:00 AM 3.68 38.624 0.422 7.81 3.8 12.12
12/14/2021 9:00:00 AM 3.71 38.678 0.422 7.83 3.91 12.32
12/14/2021 9:15:00 AM 3.75 38.75 0.421 7.85 4.04 12.58
12/14/2021 9:30:00 AM 3.82 38.876 0.421 7.88 3.97 12.83
12/14/2021 9:45:00 AM 3.9 39.02 0.42 7.91 3.92 13.06
12/14/2021 10:00:00 AM 3.99 39.182 0.42 7.94 3.85 13.32
12/14/2021 10:15:00 AM 4.12 39.416 0.419 7.97 4.91 13.54
12/14/2021 10:30:00 AM 4.24 39.632 0.419 8 4.36 13.74
12/14/2021 10:45:00 AM 4.37 39.866 0.419 8.03 4.05 14
12/14/2021 11:00:00 AM 4.51 40.118 0.418 8.06 3.9 14.16
12/14/2021 11:15:00 AM 4.65 40.37 0.418 8.09 4.06 14.31
12/14/2021 11:30:00 AM 4.78 40.604 0.418 8.12 3.91 14.46
12/14/2021 11:45:00 AM 4.92 40.856 0.417 8.14 4.16 14.6
12/14/2021 12:00:00 PM 5.04 41.072 0.417 8.16 3.84 14.71
12/14/2021 12:15:00 PM 5.15 41.27 0.417 8.18 4.4 14.79
12/14/2021 12:30:00 PM 5.26 41.468 0.417 8.2 3.9 14.86
12/14/2021 12:45:00 PM 5.34 41.612 0.415 8.22 3.86 14.92
12/14/2021 1:00:00 PM 5.41 41.738 0.416 8.23 3.88 14.99
12/14/2021 1:15:00 PM 5.47 41.846 0.416 8.24 4 15.03
12/14/2021 1:30:00 PM 5.52 41.936 0.416 8.25 3.75 15.05
12/14/2021 1:45:00 PM 5.54 41.972 0.415 8.26 3.92 15.07
12/14/2021 2:00:00 PM 5.56 42.008 0.415 8.27 3.84 15.09
12/14/2021 2:15:00 PM 5.56 42.008 0.415 8.27 4.05 15.05
12/14/2021 2:30:00 PM 5.55 41.99 0.416 8.27 3.88 15.03
12/14/2021 2:45:00 PM 5.54 41.972 0.415 8.27 4.21 14.99
12/14/2021 3:00:00 PM 5.52 41.936 0.415 8.26 4.03 14.91
12/14/2021 3:15:00 PM 5.5 41.9 0.416 8.26 3.91 14.85
12/14/2021 3:30:00 PM 5.48 41.864 0.416 8.24 3.89 14.74
12/14/2021 3:45:00 PM 5.45 41.81 0.416 8.23 3.86 14.62
12/14/2021 4:00:00 PM 5.43 41.774 0.416 8.21 3.81 14.46
12/14/2021 4:15:00 PM 5.41 41.738 0.416 8.19 4.18 14.3
12/14/2021 4:30:00 PM 5.38 41.684 0.417 8.16 3.77 14.1
12/14/2021 4:45:00 PM 5.35 41.63 0.416 8.13 5.21 13.9
12/14/2021 5:00:00 PM 5.32 41.576 0.417 8.1 4.01 13.69
12/14/2021 5:15:00 PM 5.28 41.504 0.417 8.07 3.97 13.47
12/14/2021 5:30:00 PM 5.25 41.45 0.417 8.04 4.36 13.27
12/14/2021 5:45:00 PM 5.21 41.378 0.417 8.02 4.05 13.09
12/14/2021 6:00:00 PM 5.18 41.324 0.417 7.99 4.19 12.92
12/14/2021 6:15:00 PM 5.15 41.27 0.418 7.97 8.46 12.79
12/14/2021 6:30:00 PM 5.12 41.216 0.417 7.96 4.47 12.68
12/14/2021 6:45:00 PM 5.09 41.162 0.417 7.95 4 12.61
12/14/2021 7:00:00 PM 5.07 41.126 0.418 7.94 4.3 12.53
12/14/2021 7:15:00 PM 5.04 41.072 0.417 7.94 4.09 12.5
12/14/2021 7:30:00 PM 5.02 41.036 0.418 7.93 4.06 12.46
12/14/2021 7:45:00 PM 4.99 40.982 0.418 7.93 4.43 12.41
12/14/2021 8:00:00 PM 4.96 40.928 0.418 7.93 4.3 12.39
12/14/2021 8:15:00 PM 4.93 40.874 0.418 7.92 4.17 12.35
12/14/2021 8:30:00 PM 4.91 40.838 0.419 7.92 4.01 12.31
12/14/2021 8:45:00 PM 4.88 40.784 0.418 7.91 4.73 12.26
12/14/2021 9:00:00 PM 4.85 40.73 0.418 7.91 4.18 12.22
12/14/2021 9:15:00 PM 4.81 40.658 0.419 7.9 4.09 12.18
12/14/2021 9:30:00 PM 4.77 40.586 0.418 7.89 4.22 12.12
12/14/2021 9:45:00 PM 4.73 40.514 0.419 7.89 4.05 12.08
12/14/2021 10:00:00 PM 4.7 40.46 0.419 7.88 3.9 12.04
12/14/2021 10:15:00 PM 4.65 40.37 0.419 7.87 3.94 11.98
12/14/2021 10:30:00 PM 4.61 40.298 0.419 7.86 3.94 11.96
12/14/2021 10:45:00 PM 4.57 40.226 0.419 7.86 4.11 11.93
12/14/2021 11:00:00 PM 4.52 40.136 0.42 7.85 4.08 11.89
12/14/2021 11:15:00 PM 4.47 40.046 0.42 7.84 3.99 11.86
12/14/2021 11:30:00 PM 4.43 39.974 0.42 7.84 4.06 11.84
12/14/2021 11:45:00 PM 4.38 39.884 0.42 7.83 3.98 11.8
12/15/2021 12:00:00 AM 4.34 39.812 0.42 7.83 4.19 11.79
12/15/2021 12:15:00 AM 4.29 39.722 0.42 7.82 4.07 11.76
12/15/2021 12:30:00 AM 4.24 39.632 0.42 7.82 3.94 11.74
12/15/2021 12:45:00 AM 4.2 39.56 0.42 7.81 4.25 11.73
12/15/2021 1:00:00 AM 4.15 39.47 0.42 7.81 3.97 11.71
12/15/2021 1:15:00 AM 4.11 39.398 0.421 7.8 3.99 11.7
12/15/2021 1:30:00 AM 4.07 39.326 0.421 7.8 4.05 11.7
12/15/2021 1:45:00 AM 4.03 39.254 0.421 7.8 3.96 11.69
12/15/2021 2:00:00 AM 3.99 39.182 0.421 7.79 4.01 11.68
12/15/2021 2:15:00 AM 3.94 39.092 0.421 7.79 4.09 11.67
12/15/2021 2:30:00 AM 3.9 39.02 0.421 7.79 4.09 11.67
12/15/2021 2:45:00 AM 3.86 38.948 0.421 7.79 4.03 11.66
12/15/2021 3:00:00 AM 3.83 38.894 0.421 7.78 4.3 11.66
12/15/2021 3:15:00 AM 3.8 38.84 0.422 7.78 8.69 11.66
12/15/2021 3:30:00 AM 3.76 38.768 0.422 7.78 18.07 11.65
12/15/2021 3:45:00 AM 3.73 38.714 0.422 7.78 4.58 11.66
12/15/2021 4:00:00 AM 3.7 38.66 0.422 7.78 4.13 11.65
12/15/2021 4:15:00 AM 3.67 38.606 0.422 7.78 4.52 11.65
12/15/2021 4:30:00 AM 3.64 38.552 0.422 7.77 4.27 11.67
12/15/2021 4:45:00 AM 3.61 38.498 0.422 7.77 4.25 11.64
12/15/2021 5:00:00 AM 3.58 38.444 0.422 7.77 4.04 11.66
12/15/2021 5:15:00 AM 3.55 38.39 0.423 7.77 3.9 11.65
12/15/2021 5:30:00 AM 3.53 38.354 0.422 7.76 4.28 11.66
12/15/2021 5:45:00 AM 3.51 38.318 0.423 7.76 3.93 11.66
12/15/2021 6:00:00 AM 3.5 38.3 0.423 7.76 4.05 11.66
12/15/2021 6:15:00 AM 3.49 38.282 0.423 7.76 4.19 11.66
12/15/2021 6:30:00 AM 3.5 38.3 0.423 7.76 4.09 11.65
12/15/2021 6:45:00 AM 3.51 38.318 0.423 7.76 4.17 11.64
12/15/2021 7:00:00 AM 3.53 38.354 0.423 7.76 4.31 11.64
12/15/2021 7:15:00 AM 3.55 38.39 0.423 7.76 3.99 11.63
12/15/2021 7:30:00 AM 3.57 38.426 0.423 7.76 4.1 11.63
12/15/2021 7:45:00 AM 3.58 38.444 0.423 7.76 7.51 11.69
12/15/2021 8:00:00 AM 3.61 38.498 0.423 7.77 3.79 11.77
12/15/2021 8:15:00 AM 3.63 38.534 0.423 7.78 3.69 11.9
12/15/2021 8:30:00 AM 3.66 38.588 0.423 7.8 3.65 12.1
12/15/2021 8:45:00 AM 3.69 38.642 0.423 7.82 6.36 12.39
12/15/2021 9:00:00 AM 3.75 38.75 0.422 7.85 5.14 12.68
12/15/2021 9:15:00 AM 3.8 38.84 0.422 7.88 4.21 13.01
12/15/2021 9:30:00 AM 3.87 38.966 0.421 7.92 3.71 13.34
12/15/2021 9:45:00 AM 3.95 39.11 0.421 7.95 5.46 13.64
12/15/2021 10:00:00 AM 4.03 39.254 0.42 7.99 3.86 13.88
12/15/2021 10:15:00 AM 4.11 39.398 0.42 8.03 3.48 14.15
12/15/2021 10:30:00 AM 4.2 39.56 0.42 8.06 3.55 14.37
12/15/2021 10:45:00 AM 4.28 39.704 0.419 8.09 3.69 14.53
12/15/2021 11:00:00 AM 4.37 39.866 0.419 8.12 4.64 14.68
12/15/2021 11:15:00 AM 4.46 40.028 0.418 8.14 3.86 14.79
12/15/2021 11:30:00 AM 4.55 40.19 0.418 8.17 3.66 14.96
12/15/2021 11:45:00 AM 4.67 40.406 0.418 8.2 4.57 15.08
12/15/2021 12:00:00 PM 4.78 40.604 0.417 8.22 3.57 15.19
12/15/2021 12:15:00 PM 4.89 40.802 0.417 8.25 4.86 15.31
12/15/2021 12:30:00 PM 5.02 41.036 0.417 8.27 3.7 15.43
12/15/2021 12:45:00 PM 5.13 41.234 0.416 8.3 3.63 15.5
12/15/2021 1:00:00 PM 5.27 41.486 0.416 8.32 3.54 15.6
12/15/2021 1:15:00 PM 5.37 41.666 0.415 8.34 3.7 15.68
12/15/2021 1:30:00 PM 5.47 41.846 0.415 8.35 3.5 15.73
12/15/2021 1:45:00 PM 5.55 41.99 0.415 8.37 5.05 15.79
12/15/2021 2:00:00 PM 5.62 42.116 0.414 8.38 3.53 15.81
12/15/2021 2:15:00 PM 5.69 42.242 0.414 8.4 4.39 15.82
12/15/2021 2:30:00 PM 5.73 42.314 0.414 8.4 3.5 15.81
12/15/2021 2:45:00 PM 5.78 42.404 0.414 8.4 3.75 15.76
12/15/2021 3:00:00 PM 5.81 42.458 0.414 8.4 3.89 15.72
12/15/2021 3:15:00 PM 5.83 42.494 0.414 8.4 4.11 15.63
12/15/2021 3:30:00 PM 5.84 42.512 0.414 8.39 5.47 15.54
12/15/2021 3:45:00 PM 5.86 42.548 0.414 8.37 3.71 15.39
12/15/2021 4:00:00 PM 5.87 42.566 0.415 8.35 3.89 15.21
12/15/2021 4:15:00 PM 5.88 42.584 0.415 8.32 3.82 15
12/15/2021 4:30:00 PM 5.89 42.602 0.415 8.28 4.09 14.74
12/15/2021 4:45:00 PM 5.9 42.62 0.416 8.23 7.07 14.44
12/15/2021 5:00:00 PM 5.91 42.638 0.416 8.19 4.15 14.13
12/15/2021 5:15:00 PM 5.93 42.674 0.416 8.15 3.92 13.82
12/15/2021 5:30:00 PM 5.96 42.728 0.416 8.11 4.81 13.53
12/15/2021 5:45:00 PM 5.99 42.782 0.416 8.07 4.01 13.28
12/15/2021 6:00:00 PM 6.02 42.836 0.417 8.04 3.84 13.05
12/15/2021 6:15:00 PM 6.06 42.908 0.417 8.02 3.98 12.87
12/15/2021 6:30:00 PM 6.1 42.98 0.417 8 4.2 12.72
12/15/2021 6:45:00 PM 6.14 43.052 0.417 7.99 3.62 12.62
12/15/2021 7:00:00 PM 6.17 43.106 0.417 7.98 3.82 12.51
12/15/2021 7:15:00 PM 6.2 43.16 0.417 7.97 3.73 12.43
12/15/2021 7:30:00 PM 6.24 43.232 0.417 7.97 3.77 12.37
12/15/2021 7:45:00 PM 6.27 43.286 0.417 7.96 3.85 12.31
12/15/2021 8:00:00 PM 6.3 43.34 0.417 7.96 3.84 12.26
12/15/2021 8:15:00 PM 6.32 43.376 0.416 7.96 3.68 12.21
12/15/2021 8:30:00 PM 6.34 43.412 0.417 7.95 4.06 12.15
12/15/2021 8:45:00 PM 6.36 43.448 0.417 7.95 3.64 12.06
12/15/2021 9:00:00 PM 6.38 43.484 0.417 7.94 3.88 12.01
12/15/2021 9:15:00 PM 6.4 43.52 0.416 7.93 3.9 11.95
12/15/2021 9:30:00 PM 6.41 43.538 0.417 7.93 3.83 11.86
12/15/2021 9:45:00 PM 6.42 43.556 0.417 7.92 3.63 11.79
12/15/2021 10:00:00 PM 6.44 43.592 0.417 7.91 3.93 11.73
12/15/2021 10:15:00 PM 6.45 43.61 0.417 7.9 3.71 11.66
12/15/2021 10:30:00 PM 6.46 43.628 0.417 7.89 3.79 11.59
12/15/2021 10:45:00 PM 6.46 43.628 0.417 7.88 3.85 11.53
12/15/2021 11:00:00 PM 6.47 43.646 0.417 7.87 3.79 11.47
12/15/2021 11:15:00 PM 6.48 43.664 0.418 7.86 3.59 11.4
12/15/2021 11:30:00 PM 6.48 43.664 0.417 7.85 3.63 11.34
12/15/2021 11:45:00 PM 6.49 43.682 0.417 7.85 3.86 11.27
12/16/2021 12:00:00 AM 6.48 43.664 0.417 7.84 3.62 11.22
12/16/2021 12:15:00 AM 6.48 43.664 0.418 7.83 3.64 11.17
12/16/2021 12:30:00 AM 6.48 43.664 0.418 7.83 3.73 11.12
12/16/2021 12:45:00 AM 6.46 43.628 0.417 7.82 3.52 11.06
12/16/2021 1:00:00 AM 6.44 43.592 0.418 7.81 3.59 11.03
12/16/2021 1:15:00 AM 6.42 43.556 0.418 7.81 3.8 10.97
12/16/2021 1:30:00 AM 6.39 43.502 0.418 7.8 3.98 10.94
12/16/2021 1:45:00 AM 6.37 43.466 0.418 7.8 3.63 10.91
12/16/2021 2:00:00 AM 6.35 43.43 0.419 7.79 3.55 10.9
12/16/2021 2:15:00 AM 6.34 43.412 0.418 7.79 3.7 10.87
12/16/2021 2:30:00 AM 6.34 43.412 0.418 7.79 4.37 10.82
12/16/2021 2:45:00 AM 6.34 43.412 0.418 7.78 3.71 10.81
12/16/2021 3:00:00 AM 6.34 43.412 0.419 7.78 3.56 10.8
12/16/2021 3:15:00 AM 6.34 43.412 0.418 7.78 3.69 10.77
12/16/2021 3:30:00 AM 6.35 43.43 0.418 7.78 3.75 10.76
12/16/2021 3:45:00 AM 6.35 43.43 0.419 7.77 4.12 10.75
12/16/2021 4:00:00 AM 6.35 43.43 0.418 7.77 3.55 10.71
12/16/2021 4:15:00 AM 6.35 43.43 0.419 7.77 3.74 10.7
12/16/2021 4:30:00 AM 6.35 43.43 0.418 7.76 3.61 10.66
12/16/2021 4:45:00 AM 6.34 43.412 0.419 7.76 4.58 10.68
12/16/2021 5:00:00 AM 6.33 43.394 0.419 7.76 3.93 10.65
12/16/2021 5:15:00 AM 6.33 43.394 0.419 7.76 3.76 10.64
12/16/2021 5:30:00 AM 6.32 43.376 0.419 7.75 4.51 10.62
12/16/2021 5:45:00 AM 6.3 43.34 0.419 7.75 9.53 10.61
12/16/2021 6:00:00 AM 6.28 43.304 0.419 7.75 3.93 10.57
12/16/2021 6:15:00 AM 6.27 43.286 0.419 7.75 3.82 10.58
12/16/2021 6:30:00 AM 6.25 43.25 0.419 7.75 3.77 10.59
12/16/2021 6:45:00 AM 6.23 43.214 0.419 7.75 4.11 10.57
12/16/2021 7:00:00 AM 6.22 43.196 0.419 7.75 5.18 10.54
12/16/2021 7:15:00 AM 6.21 43.178 0.419 7.74 4.17 10.56
12/16/2021 7:30:00 AM 6.19 43.142 0.419 7.74 3.9 10.54
12/16/2021 7:45:00 AM 6.19 43.142 0.419 7.75 3.57 10.62
12/16/2021 8:00:00 AM 6.19 43.142 0.419 7.76 3.62 10.7
12/16/2021 8:15:00 AM 6.2 43.16 0.418 7.77 3.76 10.82
12/16/2021 8:30:00 AM 6.23 43.214 0.418 7.79 3.8 11.08
12/16/2021 8:45:00 AM 6.27 43.286 0.419 7.81 3.67 11.24
12/16/2021 9:00:00 AM 6.32 43.376 0.418 7.83 3.79 11.55
12/16/2021 9:15:00 AM 6.38 43.484 0.417 7.86 3.75 11.83
12/16/2021 9:30:00 AM 6.44 43.592 0.417 7.9 4.28 12.13
12/16/2021 9:45:00 AM 6.49 43.682 0.417 7.93 3.53 12.36
12/16/2021 10:00:00 AM 6.57 43.826 0.416 7.97 3.5 12.68
12/16/2021 10:15:00 AM 6.64 43.952 0.416 8.01 3.78 12.96
12/16/2021 10:30:00 AM 6.75 44.15 0.416 8.05 5.01 13.21
12/16/2021 10:45:00 AM 6.85 44.33 0.415 8.09 5.11 13.49
12/16/2021 11:00:00 AM 6.95 44.51 0.415 8.13 3.92 13.66
12/16/2021 11:15:00 AM 7.06 44.708 0.414 8.16 43.32 13.87
12/16/2021 11:30:00 AM 7.17 44.906 0.414 8.2 3.79 13.97
12/16/2021 11:45:00 AM 7.27 45.086 0.413 8.23 3.66 14.14
12/16/2021 12:00:00 PM 7.38 45.284 0.413 8.25 3.87 14.25
12/16/2021 12:15:00 PM 7.48 45.464 0.413 8.28 3.65 14.32
12/16/2021 12:30:00 PM 7.58 45.644 0.413 8.29 3.65 14.39
12/16/2021 12:45:00 PM 7.66 45.788 0.412 8.31 4.03 14.46
12/16/2021 1:00:00 PM 7.74 45.932 0.412 8.33 3.97 14.51
12/16/2021 1:15:00 PM 7.81 46.058 0.412 8.34 4.01 14.53
12/16/2021 1:30:00 PM 7.87 46.166 0.411 8.34 4.02 14.57
12/16/2021 1:45:00 PM 7.9 46.22 0.411 8.36 4.03 14.53
12/16/2021 2:00:00 PM 7.93 46.274 0.411 8.36 3.88 14.58
12/16/2021 2:15:00 PM 7.95 46.31 0.412 8.37 3.87 14.56
12/16/2021 2:30:00 PM 7.96 46.328 0.411 8.37 4.16 14.51
12/16/2021 2:45:00 PM 7.96 46.328 0.411 8.37 3.96 14.49
12/16/2021 3:00:00 PM 7.96 46.328 0.411 8.37 3.81 14.44
12/16/2021 3:15:00 PM 7.95 46.31 0.411 8.36 4.21 14.32
12/16/2021 3:30:00 PM 7.94 46.292 0.412 8.35 4.06 14.24
12/16/2021 3:45:00 PM 7.93 46.274 0.412 8.33 3.91 14.13
12/16/2021 4:00:00 PM 7.92 46.256 0.412 8.32 4.11 13.97
12/16/2021 4:15:00 PM 7.91 46.238 0.412 8.29 3.82 13.79
12/16/2021 4:30:00 PM 7.9 46.22 0.413 8.25 4.49 13.53
12/16/2021 4:45:00 PM 7.88 46.184 0.413 8.21 3.87 13.3
12/16/2021 5:00:00 PM 7.87 46.166 0.413 8.17 3.75 13.02
12/16/2021 5:15:00 PM 7.86 46.148 0.414 8.13 8.91 12.74
12/16/2021 5:30:00 PM 7.84 46.112 0.414 8.09 4.53 12.47
12/16/2021 5:45:00 PM 7.83 46.094 0.415 8.06 3.88 12.24
12/16/2021 6:00:00 PM 7.83 46.094 0.415 8.03 4.06 12.04
12/16/2021 6:15:00 PM 7.82 46.076 0.415 8.01 3.96 11.88
12/16/2021 6:30:00 PM 7.83 46.094 0.415 7.99 3.87 11.76
12/16/2021 6:45:00 PM 7.83 46.094 0.415 7.98 3.84 11.65
12/16/2021 7:00:00 PM 7.84 46.112 0.414 7.98 3.69 11.57
12/16/2021 7:15:00 PM 7.85 46.13 0.414 7.97 5.24 11.51
12/16/2021 7:30:00 PM 7.85 46.13 0.414 7.96 3.77 11.44
12/16/2021 7:45:00 PM 7.86 46.148 0.414 7.96 3.72 11.4
12/16/2021 8:00:00 PM 7.86 46.148 0.414 7.95 3.77 11.35
12/16/2021 8:15:00 PM 7.86 46.148 0.415 7.95 3.77 11.27
12/16/2021 8:30:00 PM 7.88 46.184 0.415 7.94 3.8 11.24
12/16/2021 8:45:00 PM 7.89 46.202 0.415 7.93 3.61 11.16
12/16/2021 9:00:00 PM 7.9 46.22 0.415 7.93 3.86 11.08
12/16/2021 9:15:00 PM 7.91 46.238 0.415 7.92 3.86 11.03
12/16/2021 9:30:00 PM 7.92 46.256 0.415 7.91 3.7 10.95
12/16/2021 9:45:00 PM 7.94 46.292 0.415 7.9 3.86 10.89
12/16/2021 10:00:00 PM 7.95 46.31 0.416 7.88 3.88 10.83
12/16/2021 10:15:00 PM 7.97 46.346 0.416 7.87 4.11 10.76
12/16/2021 10:30:00 PM 7.98 46.364 0.416 7.86 4.55 10.69
12/16/2021 10:45:00 PM 7.98 46.364 0.416 7.85 4.38 10.64
12/16/2021 11:00:00 PM 7.98 46.364 0.416 7.85 3.68 10.57
12/16/2021 11:15:00 PM 7.97 46.346 0.417 7.84 3.86 10.52
12/16/2021 11:30:00 PM 7.96 46.328 0.417 7.83 3.72 10.45
12/16/2021 11:45:00 PM 7.95 46.31 0.416 7.82 3.68 10.41
12/17/2021 12:00:00 AM 7.93 46.274 0.417 7.81 3.7 10.36
12/17/2021 12:15:00 AM 7.93 46.274 0.417 7.81 3.83 10.29
12/17/2021 12:30:00 AM 7.93 46.274 0.417 7.8 3.96 10.26
12/17/2021 12:45:00 AM 7.93 46.274 0.418 7.8 4.41 10.27
12/17/2021 1:00:00 AM 7.93 46.274 0.418 7.79 4.38 10.2
12/17/2021 1:15:00 AM 7.93 46.274 0.418 7.79 3.87 10.18
12/17/2021 1:30:00 AM 7.93 46.274 0.418 7.78 3.62 10.14
12/17/2021 1:45:00 AM 7.93 46.274 0.419 7.78 3.45 10.12
12/17/2021 2:00:00 AM 7.92 46.256 0.418 7.77 5.01 10.1
12/17/2021 2:15:00 AM 7.91 46.238 0.419 7.77 3.33 10.07
12/17/2021 2:30:00 AM 7.89 46.202 0.419 7.77 3.31 10.02
12/17/2021 2:45:00 AM 7.88 46.184 0.419 7.76 3.42 10.03
12/17/2021 3:00:00 AM 7.87 46.166 0.419 7.76 3.7 10
12/17/2021 3:15:00 AM 7.86 46.148 0.419 7.76 3.82 9.99
12/17/2021 3:30:00 AM 7.84 46.112 0.419 7.76 3.43 9.98
12/17/2021 3:45:00 AM 7.82 46.076 0.418 7.75 3.47 9.97
12/17/2021 4:00:00 AM 7.8 46.04 0.419 7.75 3.44 9.97
12/17/2021 4:15:00 AM 7.78 46.004 0.418 7.75 3.69 9.91
12/17/2021 4:30:00 AM 7.76 45.968 0.418 7.75 3.38 9.94
12/17/2021 4:45:00 AM 7.74 45.932 0.419 7.75 3.61 9.92
12/17/2021 5:00:00 AM 7.73 45.914 0.419 7.75 3.5 9.91
12/17/2021 5:15:00 AM 7.72 45.896 0.419 7.75 3.74 9.91
12/17/2021 5:30:00 AM 7.7 45.86 0.419 7.74 3.63 9.85
12/17/2021 5:45:00 AM 7.69 45.842 0.419 7.74 3.66 9.92
12/17/2021 6:00:00 AM 7.69 45.842 0.42 7.74 3.57 9.89
12/17/2021 6:15:00 AM 7.69 45.842 0.419 7.74 3.65 9.9
12/17/2021 6:30:00 AM 7.68 45.824 0.42 7.74 3.45 9.86
12/17/2021 6:45:00 AM 7.67 45.806 0.42 7.74 7.46 9.88
12/17/2021 7:00:00 AM 7.65 45.77 0.42 7.74 3.77 9.84
12/17/2021 7:15:00 AM 7.63 45.734 0.42 7.74 3.81 9.86
12/17/2021 7:30:00 AM 7.61 45.698 0.42 7.74 3.54 9.88
12/17/2021 7:45:00 AM 7.59 45.662 0.42 7.74 3.49 9.95
12/17/2021 8:00:00 AM 7.58 45.644 0.42 7.75 3.48 10.02
12/17/2021 8:15:00 AM 7.57 45.626 0.419 7.76 3.43 10.13
12/17/2021 8:30:00 AM 7.58 45.644 0.419 7.77 3.49 10.33
12/17/2021 8:45:00 AM 7.6 45.68 0.419 7.8 3.55 10.61
12/17/2021 9:00:00 AM 7.62 45.716 0.418 7.83 4.41 10.89
12/17/2021 9:15:00 AM 7.65 45.77 0.418 7.86 3.47 11.24
12/17/2021 9:30:00 AM 7.7 45.86 0.418 7.9 3.5 11.63
12/17/2021 9:45:00 AM 7.75 45.95 0.417 7.95 3.47 12.04
12/17/2021 10:00:00 AM 7.8 46.04 0.417 8 3.43 12.41
12/17/2021 10:15:00 AM 7.87 46.166 0.416 8.05 3.46 12.75
12/17/2021 10:30:00 AM 7.93 46.274 0.415 8.1 3.59 13.05
12/17/2021 10:45:00 AM 7.97 46.346 0.415 8.14 3.54 13.32
12/17/2021 11:00:00 AM 8.04 46.472 0.415 8.19 6.79 13.55
12/17/2021 11:15:00 AM 8.11 46.598 0.414 8.23 3.42 13.76
12/17/2021 11:30:00 AM 8.2 46.76 0.413 8.27 3.51 13.98
12/17/2021 11:45:00 AM 8.25 46.85 0.412 8.31 3.44 14.16
12/17/2021 12:00:00 PM 8.33 46.994 0.412 8.34 3.51 14.2
12/17/2021 12:15:00 PM 8.43 47.174 0.412 8.37 3.42 14.44
12/17/2021 12:30:00 PM 8.52 47.336 0.411 8.4 3.95 14.57
12/17/2021 12:45:00 PM 8.57 47.426 0.412 8.42 3.58 14.7
12/17/2021 1:00:00 PM 8.64 47.552 0.411 8.45 3.36 14.75
12/17/2021 1:15:00 PM 8.67 47.606 0.41 8.46 3.51 14.79
12/17/2021 1:30:00 PM 8.71 47.678 0.41 8.49 3.19 14.9
12/17/2021 1:45:00 PM 8.72 47.696 0.41 8.49 14.04 14.89
12/17/2021 2:00:00 PM 8.71 47.678 0.409 8.5 3.89 14.92
12/17/2021 2:15:00 PM 8.71 47.678 0.41 8.51 3.51 14.96
12/17/2021 2:30:00 PM 8.7 47.66 0.409 8.52 3.44 14.92
12/17/2021 2:45:00 PM 8.66 47.588 0.409 8.51 3.52 14.9
12/17/2021 3:00:00 PM 8.63 47.534 0.409 8.51 3.43 14.78
12/17/2021 3:15:00 PM 8.59 47.462 0.409 8.5 3.31 14.68
12/17/2021 3:30:00 PM 8.56 47.408 0.41 8.48 5.19 14.55
12/17/2021 3:45:00 PM 8.53 47.354 0.411 8.46 3.51 14.38
12/17/2021 4:00:00 PM 8.5 47.3 0.411 8.43 3.6 14.12
12/17/2021 4:15:00 PM 8.48 47.264 0.411 8.4 3.47 13.91
12/17/2021 4:30:00 PM 8.45 47.21 0.411 8.36 3.57 13.67
12/17/2021 4:45:00 PM 8.42 47.156 0.413 8.3 3.46 13.33
12/17/2021 5:00:00 PM 8.39 47.102 0.412 8.26 3.56 13.03
12/17/2021 5:15:00 PM 8.36 47.048 0.413 8.21 3.56 12.73
12/17/2021 5:30:00 PM 8.34 47.012 0.413 8.17 3.63 12.45
12/17/2021 5:45:00 PM 8.32 46.976 0.414 8.13 3.53 12.2
12/17/2021 6:00:00 PM 8.31 46.958 0.414 8.1 3.5 11.99
12/17/2021 6:15:00 PM 8.29 46.922 0.414 8.07 3.43 11.84
12/17/2021 6:30:00 PM 8.28 46.904 0.414 8.06 3.31 11.73
12/17/2021 6:45:00 PM 8.26 46.868 0.414 8.05 3.45 11.6
12/17/2021 7:00:00 PM 8.25 46.85 0.414 8.03 3.55 11.55
12/17/2021 7:15:00 PM 8.23 46.814 0.414 8.03 3.44 11.47
12/17/2021 7:30:00 PM 8.21 46.778 0.414 8.02 3.42 11.43
12/17/2021 7:45:00 PM 8.19 46.742 0.414 8.02 3.62 11.39
12/17/2021 8:00:00 PM 8.16 46.688 0.414 8.01 3.33 11.35
12/17/2021 8:15:00 PM 8.13 46.634 0.414 8.01 3.51 11.27
12/17/2021 8:30:00 PM 8.1 46.58 0.415 8 3.5 11.22
12/17/2021 8:45:00 PM 8.07 46.526 0.415 7.99 3.5 11.15
12/17/2021 9:00:00 PM 8.04 46.472 0.414 7.98 9.43 11.12
12/17/2021 9:15:00 PM 8.02 46.436 0.415 7.97 6.91 11.03
12/17/2021 9:30:00 PM 8 46.4 0.415 7.96 5.64 10.97
12/17/2021 9:45:00 PM 7.98 46.364 0.415 7.95 5.61 10.92
12/17/2021 10:00:00 PM 7.96 46.328 0.415 7.93 5.71 10.85
12/17/2021 10:15:00 PM 7.94 46.292 0.415 7.92 5.73 10.75
12/17/2021 10:30:00 PM 7.92 46.256 0.416 7.91 5.59 10.74
12/17/2021 10:45:00 PM 7.92 46.256 0.416 7.9 5.7 10.65
12/17/2021 11:00:00 PM 7.91 46.238 0.416 7.89 6.01 10.62
12/17/2021 11:15:00 PM 7.91 46.238 0.416 7.88 5.69 10.49
12/17/2021 11:30:00 PM 7.91 46.238 0.416 7.87 5.74 10.46
12/17/2021 11:45:00 PM 7.9 46.22 0.416 7.86 5.66 10.45
12/18/2021 12:00:00 AM 7.9 46.22 0.416 7.85 3.39 10.41
12/18/2021 12:15:00 AM 7.89 46.202 0.417 7.84 3.3 10.35
12/18/2021 12:30:00 AM 7.88 46.184 0.416 7.83 3.73 10.31
12/18/2021 12:45:00 AM 7.88 46.184 0.417 7.82 3.56 10.26
12/18/2021 1:00:00 AM 7.87 46.166 0.417 7.81 3.37 10.23
12/18/2021 1:15:00 AM 7.85 46.13 0.418 7.81 3.55 10.21
12/18/2021 1:30:00 AM 7.84 46.112 0.417 7.8 3.63 10.16
12/18/2021 1:45:00 AM 7.83 46.094 0.418 7.79 3.39 10.16
12/18/2021 2:00:00 AM 7.81 46.058 0.417 7.79 3.44 10.13
12/18/2021 2:15:00 AM 7.79 46.022 0.417 7.78 3.37 10.09
12/18/2021 2:30:00 AM 7.77 45.986 0.417 7.78 3.29 10.09
12/18/2021 2:45:00 AM 7.74 45.932 0.416 7.78 3.77 10.07
12/18/2021 3:00:00 AM 7.72 45.896 0.416 7.77 3.9 10.06
12/18/2021 3:15:00 AM 7.71 45.878 0.416 7.77 3.56 10.03
12/18/2021 3:30:00 AM 7.69 45.842 0.416 7.77 3.46 10.04
12/18/2021 3:45:00 AM 7.68 45.824 0.416 7.76 3.71 10.02
12/18/2021 4:00:00 AM 7.66 45.788 0.416 7.76 3.46 9.98
12/18/2021 4:15:00 AM 7.65 45.77 0.416 7.76 4.6 9.99
12/18/2021 4:30:00 AM 7.64 45.752 0.416 7.75 3.55 9.98
12/18/2021 4:45:00 AM 7.63 45.734 0.416 7.75 3.93 9.91
12/18/2021 5:00:00 AM 7.63 45.734 0.417 7.74 4.72 9.93
12/18/2021 5:15:00 AM 7.61 45.698 0.417 7.75 4.26 9.92
12/18/2021 5:30:00 AM 7.61 45.698 0.417 7.74 3.5 9.83
12/18/2021 5:45:00 AM 7.6 45.68 0.417 7.74 3.57 9.87
12/18/2021 6:00:00 AM 7.59 45.662 0.417 7.74 3.84 9.88
12/18/2021 6:15:00 AM 7.58 45.644 0.417 7.74 3.9 9.86
12/18/2021 6:30:00 AM 7.57 45.626 0.417 7.74 3.69 9.89
12/18/2021 6:45:00 AM 7.54 45.572 0.417 7.74 3.72 9.86
12/18/2021 7:00:00 AM 7.52 45.536 0.416 7.74 3.64 9.87
12/18/2021 7:15:00 AM 7.5 45.5 0.416 7.74 3.59 9.85
12/18/2021 7:30:00 AM 7.49 45.482 0.416 7.74 4.01 9.88
12/18/2021 7:45:00 AM 7.47 45.446 0.416 7.74 3.72 9.88
12/18/2021 8:00:00 AM 7.46 45.428 0.416 7.74 3.69 9.9
12/18/2021 8:15:00 AM 7.44 45.392 0.415 7.74 3.51 9.97
12/18/2021 8:30:00 AM 7.43 45.374 0.416 7.75 3.57 10.03
12/18/2021 8:45:00 AM 7.43 45.374 0.415 7.76 3.63 10.12
12/18/2021 9:00:00 AM 7.42 45.356 0.415 7.77 3.54 10.25
12/18/2021 9:15:00 AM 7.42 45.356 0.415 7.78 3.41 10.42
12/18/2021 9:30:00 AM 7.43 45.374 0.415 7.8 3.32 10.58
12/18/2021 9:45:00 AM 7.43 45.374 0.414 7.81 3.51 10.75
12/18/2021 10:00:00 AM 7.43 45.374 0.414 7.83 3.6 10.91
12/18/2021 10:15:00 AM 7.44 45.392 0.414 7.85 3.47 11.08
12/18/2021 10:30:00 AM 7.45 45.41 0.413 7.87 3.5 11.26
12/18/2021 10:45:00 AM 7.47 45.446 0.413 7.89 7.76 11.44
12/18/2021 11:00:00 AM 7.48 45.464 0.413 7.91 3.63 11.65
12/18/2021 11:15:00 AM 7.49 45.482 0.412 7.94 7.41 11.82
12/18/2021 11:30:00 AM 7.51 45.518 0.413 7.96 3.64 12.02
12/18/2021 11:45:00 AM 7.52 45.536 0.412 7.99 3.47 12.13
12/18/2021 12:00:00 PM 7.56 45.608 0.412 8.02 3.58 12.38
12/18/2021 12:15:00 PM 7.59 45.662 0.411 8.05 3.49 12.58
12/18/2021 12:30:00 PM 7.63 45.734 0.41 8.09 3.53 12.83
12/18/2021 12:45:00 PM 7.67 45.806 0.41 8.12 3.54 13.03
12/18/2021 1:00:00 PM 7.72 45.896 0.409 8.16 3.51 13.21
12/18/2021 1:15:00 PM 7.75 45.95 0.409 8.19 3.35 13.41
12/18/2021 1:30:00 PM 7.77 45.986 0.408 8.21 3.69 13.48
12/18/2021 1:45:00 PM 7.79 46.022 0.408 8.23 3.54 13.56
12/18/2021 2:00:00 PM 7.79 46.022 0.408 8.23 3.54 13.53
12/18/2021 2:15:00 PM 7.79 46.022 0.408 8.23 3.49 13.45
12/18/2021 2:30:00 PM 7.79 46.022 0.408 8.21 3.54 13.36
12/18/2021 2:45:00 PM 7.78 46.004 0.408 8.2 3.6 13.25
12/18/2021 3:00:00 PM 7.77 45.986 0.408 8.19 3.78 13.14
12/18/2021 3:15:00 PM 7.77 45.986 0.408 8.18 3.66 13.1
12/18/2021 3:30:00 PM 7.76 45.968 0.408 8.17 3.77 13.03
12/18/2021 3:45:00 PM 7.75 45.95 0.408 8.17 3.55 12.98
12/18/2021 4:00:00 PM 7.75 45.95 0.408 8.16 3.52 12.9
12/18/2021 4:15:00 PM 7.74 45.932 0.408 8.14 3.93 12.79
12/18/2021 4:30:00 PM 7.73 45.914 0.408 8.12 5.66 12.62
12/18/2021 4:45:00 PM 7.72 45.896 0.408 8.09 10.05 12.42
12/18/2021 5:00:00 PM 7.71 45.878 0.409 8.06 4.81 12.22
12/18/2021 5:15:00 PM 7.71 45.878 0.409 8.03 3.84 12.01
12/18/2021 5:30:00 PM 7.7 45.86 0.409 8 3.81 11.82
12/18/2021 5:45:00 PM 7.7 45.86 0.409 7.98 3.79 11.66
12/18/2021 6:00:00 PM 7.7 45.86 0.41 7.96 4.33 11.5
12/18/2021 6:15:00 PM 7.7 45.86 0.409 7.95 4.11 11.4
12/18/2021 6:30:00 PM 7.7 45.86 0.41 7.93 4.46 11.33
12/18/2021 6:45:00 PM 7.71 45.878 0.409 7.93 3.84 11.25
12/18/2021 7:00:00 PM 7.71 45.878 0.409 7.92 4.3 11.18
12/18/2021 7:15:00 PM 7.72 45.896 0.41 7.92 3.76 11.17
12/18/2021 7:30:00 PM 7.73 45.914 0.409 7.91 3.8 11.13
12/18/2021 7:45:00 PM 7.73 45.914 0.409 7.91 3.7 11.09
12/18/2021 8:00:00 PM 7.73 45.914 0.409 7.91 5.53 11.05
12/18/2021 8:15:00 PM 7.72 45.896 0.409 7.9 3.65 11.03
12/18/2021 8:30:00 PM 7.71 45.878 0.409 7.9 3.79 10.97
12/18/2021 8:45:00 PM 7.68 45.824 0.409 7.89 3.73 10.93
12/18/2021 9:00:00 PM 7.66 45.788 0.409 7.88 3.74 10.89
12/18/2021 9:15:00 PM 7.63 45.734 0.409 7.88 3.65 10.85
12/18/2021 9:30:00 PM 7.6 45.68 0.41 7.87 3.57 10.8
12/18/2021 9:45:00 PM 7.59 45.662 0.41 7.86 3.72 10.73
12/18/2021 10:00:00 PM 7.57 45.626 0.41 7.85 3.78 10.68
12/18/2021 10:15:00 PM 7.57 45.626 0.408 7.85 3.7 10.63
12/18/2021 10:30:00 PM 7.58 45.644 0.41 7.84 3.72 10.57
12/18/2021 10:45:00 PM 7.59 45.662 0.398 7.83 3.66 10.52
12/18/2021 11:00:00 PM 7.6 45.68 0.409 7.82 3.64 10.48
12/18/2021 11:15:00 PM 7.61 45.698 0.41 7.82 3.76 10.43
12/18/2021 11:30:00 PM 7.62 45.716 0.41 7.81 3.65 10.37
12/18/2021 11:45:00 PM 7.62 45.716 0.409 7.8 3.94 10.33
12/19/2021 12:00:00 AM 7.63 45.734 0.409 7.8 4.19 10.29
12/19/2021 12:15:00 AM 7.63 45.734 0.409 7.79 3.84 10.25
12/19/2021 12:30:00 AM 7.63 45.734 0.409 7.78 3.84 10.22
12/19/2021 12:45:00 AM 7.63 45.734 0.409 7.78 3.59 10.18
12/19/2021 1:00:00 AM 7.63 45.734 0.41 7.78 3.62 10.16
12/19/2021 1:15:00 AM 7.62 45.716 0.41 7.77 3.63 10.14
12/19/2021 1:30:00 AM 7.62 45.716 0.41 7.77 3.72 10.12
12/19/2021 1:45:00 AM 7.61 45.698 0.41 7.77 3.55 10.1
12/19/2021 2:00:00 AM 7.6 45.68 0.411 7.77 3.64 10.09
12/19/2021 2:15:00 AM 7.6 45.68 0.411 7.76 3.73 10.09
12/19/2021 2:30:00 AM 7.59 45.662 0.411 7.76 3.9 10.07
12/19/2021 2:45:00 AM 7.58 45.644 0.411 7.76 3.78 10.06
12/19/2021 3:00:00 AM 7.58 45.644 0.411 7.76 4.18 10.06
12/19/2021 3:15:00 AM 7.58 45.644 0.411 7.76 3.67 10.04
12/19/2021 3:30:00 AM 7.57 45.626 0.411 7.76 3.73 10.03
12/19/2021 3:45:00 AM 7.55 45.59 0.411 7.76 3.59 10.04
12/19/2021 4:00:00 AM 7.53 45.554 0.411 7.76 3.76 10.03
12/19/2021 4:15:00 AM 7.52 45.536 0.411 7.75 3.67 10.03
12/19/2021 4:30:00 AM 7.49 45.482 0.412 7.76 3.47 10.02
12/19/2021 4:45:00 AM 7.46 45.428 0.412 7.76 3.66 10.03
12/19/2021 5:00:00 AM 7.43 45.374 0.412 7.76 3.52 10.03
12/19/2021 5:15:00 AM 7.4 45.32 0.412 7.76 3.76 10.03
12/19/2021 5:30:00 AM 7.38 45.284 0.412 7.76 3.85 10.01
12/19/2021 5:45:00 AM 7.34 45.212 0.412 7.75 3.46 10.01
12/19/2021 6:00:00 AM 7.31 45.158 0.411 7.75 3.6 10
12/19/2021 6:15:00 AM 7.27 45.086 0.411 7.75 3.64 10.03
12/19/2021 6:30:00 AM 7.23 45.014 0.411 7.76 3.76 10.05
12/19/2021 6:45:00 AM 7.19 44.942 0.412 7.75 3.62 10.04
12/19/2021 7:00:00 AM 7.16 44.888 0.412 7.75 3.56 10.04
12/19/2021 7:15:00 AM 7.14 44.852 0.412 7.75 3.48 10.05
12/19/2021 7:30:00 AM 7.11 44.798 0.412 7.75 3.65 10.05
12/19/2021 7:45:00 AM 7.08 44.744 0.412 7.75 3.62 10.08
12/19/2021 8:00:00 AM 7.06 44.708 0.412 7.76 3.55 10.14
12/19/2021 8:15:00 AM 7.05 44.69 0.412 7.77 3.38 10.21
12/19/2021 8:30:00 AM 7.05 44.69 0.411 7.78 3.46 10.34
12/19/2021 8:45:00 AM 7.05 44.69 0.411 7.79 3.56 10.5
12/19/2021 9:00:00 AM 7.06 44.708 0.412 7.81 3.5 10.73
12/19/2021 9:15:00 AM 7.08 44.744 0.411 7.84 3.49 11.04
12/19/2021 9:30:00 AM 7.11 44.798 0.41 7.88 3.7 11.42
12/19/2021 9:45:00 AM 7.12 44.816 0.41 7.91 3.58 11.73
12/19/2021 10:00:00 AM 7.11 44.798 0.41 7.95 3.55 11.98
12/19/2021 10:15:00 AM 7.09 44.762 0.41 7.97 3.78 12.15
12/19/2021 10:30:00 AM 7.08 44.744 0.409 8.01 6.29 12.39
12/19/2021 10:45:00 AM 7.09 44.762 0.409 8.04 4.37 12.56
12/19/2021 11:00:00 AM 7.1 44.78 0.409 8.07 3.5 12.77
12/19/2021 11:15:00 AM 7.13 44.834 0.408 8.11 4.03 13.03
12/19/2021 11:30:00 AM 7.15 44.87 0.409 8.14 3.48 13.2
12/19/2021 11:45:00 AM 7.18 44.924 0.408 8.17 3.51 13.38
12/19/2021 12:00:00 PM 7.17 44.906 0.408 8.19 3.51 13.45
12/19/2021 12:15:00 PM 7.19 44.942 0.408 8.22 3.6 13.57
12/19/2021 12:30:00 PM 7.2 44.96 0.407 8.24 4.07 13.7
12/19/2021 12:45:00 PM 7.2 44.96 0.407 8.26 4.12 13.78
12/19/2021 1:00:00 PM 7.22 44.996 0.407 8.28 3.8 13.9
12/19/2021 1:15:00 PM 7.22 44.996 0.407 8.31 3.23 13.99
12/19/2021 1:30:00 PM 7.21 44.978 0.407 8.32 3.45 14.05
12/19/2021 1:45:00 PM 7.21 44.978 0.407 8.33 3.28 14.12
12/19/2021 2:00:00 PM 7.17 44.906 0.406 8.34 3.67 14.14
12/19/2021 2:15:00 PM 7.15 44.87 0.4 8.35 3.49 14.16
12/19/2021 2:30:00 PM 7.13 44.834 0.406 8.36 5.3 14.17
12/19/2021 2:45:00 PM 7.09 44.762 0.406 8.36 3.54 14.16
12/19/2021 3:00:00 PM 7.04 44.672 0.406 8.36 3.54 14.12
12/19/2021 3:15:00 PM 6.98 44.564 0.407 8.34 7.71 14.03
12/19/2021 3:30:00 PM 6.93 44.474 0.407 8.33 3.53 13.94
12/19/2021 3:45:00 PM 6.87 44.366 0.407 8.32 3.53 13.83
12/19/2021 4:00:00 PM 6.82 44.276 0.407 8.29 6.23 13.69
12/19/2021 4:15:00 PM 6.76 44.168 0.408 8.27 3.65 13.53
12/19/2021 4:30:00 PM 6.71 44.078 0.408 8.24 4 13.36
12/19/2021 4:45:00 PM 6.66 43.988 0.408 8.21 3.45 13.17
12/19/2021 5:00:00 PM 6.61 43.898 0.409 8.18 3.71 12.96
12/19/2021 5:15:00 PM 6.56 43.808 0.409 8.15 3.75 12.74
12/19/2021 5:30:00 PM 6.51 43.718 0.41 8.11 3.32 12.55
12/19/2021 5:45:00 PM 6.46 43.628 0.41 8.09 3.61 12.38
12/19/2021 6:00:00 PM 6.41 43.538 0.41 8.06 3.56 12.22
12/19/2021 6:15:00 PM 6.37 43.466 0.41 8.04 3.62 12.1
12/19/2021 6:30:00 PM 6.32 43.376 0.41 8.03 3.54 12.02
12/19/2021 6:45:00 PM 6.27 43.286 0.41 8.02 3.53 11.95
12/19/2021 7:00:00 PM 6.23 43.214 0.41 8.02 3.44 11.89
12/19/2021 7:15:00 PM 6.19 43.142 0.41 8.01 3.72 11.84
12/19/2021 7:30:00 PM 6.15 43.07 0.411 8 3.56 11.74
12/19/2021 7:45:00 PM 6.12 43.016 0.411 8 3.47 11.79
12/19/2021 8:00:00 PM 6.08 42.944 0.411 8 3.78 11.76
12/19/2021 8:15:00 PM 6.03 42.854 0.411 7.99 3.61 11.73
12/19/2021 8:30:00 PM 5.98 42.764 0.411 7.99 3.46 11.69
12/19/2021 8:45:00 PM 5.93 42.674 0.411 7.98 3.61 11.67
12/19/2021 9:00:00 PM 5.87 42.566 0.411 7.97 3.64 11.61
12/19/2021 9:15:00 PM 5.82 42.476 0.412 7.96 3.75 11.57
12/19/2021 9:30:00 PM 5.75 42.35 0.412 7.95 4.17 11.54
12/19/2021 9:45:00 PM 5.69 42.242 0.412 7.94 3.85 11.51
12/19/2021 10:00:00 PM 5.63 42.134 0.412 7.93 3.7 11.44
12/19/2021 10:15:00 PM 5.56 42.008 0.413 7.92 3.63 11.42
12/19/2021 10:30:00 PM 5.5 41.9 0.413 7.91 3.62 11.38
12/19/2021 10:45:00 PM 5.44 41.792 0.414 7.9 3.6 11.33
12/19/2021 11:00:00 PM 5.37 41.666 0.414 7.89 4.24 11.3
12/19/2021 11:15:00 PM 5.3 41.54 0.414 7.89 3.54 11.29
12/19/2021 11:30:00 PM 5.24 41.432 0.414 7.88 3.64 11.22
12/19/2021 11:45:00 PM 5.18 41.324 0.415 7.87 3.65 11.24
12/20/2021 12:00:00 AM 5.11 41.198 0.415 7.87 3.67 11.21
12/20/2021 12:15:00 AM 5.04 41.072 0.415 7.86 3.76 11.16
12/20/2021 12:30:00 AM 4.99 40.982 0.415 7.85 3.7 11.15
12/20/2021 12:45:00 AM 4.94 40.892 0.416 7.85 3.6 11.14
12/20/2021 1:00:00 AM 4.89 40.802 0.416 7.84 3.53 11.16
12/20/2021 1:15:00 AM 4.83 40.694 0.416 7.84 3.61 11.12
12/20/2021 1:30:00 AM 4.77 40.586 0.417 7.84 3.65 11.16
12/20/2021 1:45:00 AM 4.71 40.478 0.417 7.83 3.58 11.14
12/20/2021 2:00:00 AM 4.66 40.388 0.417 7.83 3.6 11.13
12/20/2021 2:15:00 AM 4.61 40.298 0.417 7.82 4.03 11.14
12/20/2021 2:30:00 AM 4.56 40.208 0.417 7.82 3.72 11.12
12/20/2021 2:45:00 AM 4.5 40.1 0.418 7.82 5.19 11.12
12/20/2021 3:00:00 AM 4.45 40.01 0.418 7.82 4.03 11.17
12/20/2021 3:15:00 AM 4.39 39.902 0.418 7.81 3.76 11.17
12/20/2021 3:30:00 AM 4.33 39.794 0.418 7.81 3.6 11.16
12/20/2021 3:45:00 AM 4.27 39.686 0.418 7.81 3.69 11.16
12/20/2021 4:00:00 AM 4.21 39.578 0.418 7.81 4.04 11.14
12/20/2021 4:15:00 AM 4.16 39.488 0.418 7.81 3.74 11.18
12/20/2021 4:30:00 AM 4.1 39.38 0.418 7.8 3.56 11.19
12/20/2021 4:45:00 AM 4.05 39.29 0.419 7.8 3.61 11.15
12/20/2021 5:00:00 AM 3.99 39.182 0.418 7.8 3.63 11.21
12/20/2021 5:15:00 AM 3.94 39.092 0.418 7.8 3.63 11.23
12/20/2021 5:30:00 AM 3.89 39.002 0.419 7.8 3.65 11.18
12/20/2021 5:45:00 AM 3.84 38.912 0.419 7.79 3.66 11.25
12/20/2021 6:00:00 AM 3.78 38.804 0.419 7.79 3.76 11.23
12/20/2021 6:15:00 AM 3.73 38.714 0.419 7.79 3.63 11.24
12/20/2021 6:30:00 AM 3.68 38.624 0.419 7.79 3.7 11.28
12/20/2021 6:45:00 AM 3.63 38.534 0.42 7.79 3.61 11.27
12/20/2021 7:00:00 AM 3.58 38.444 0.42 7.79 6.33 11.34
12/20/2021 7:15:00 AM 3.54 38.372 0.42 7.79 15.21 11.35
12/20/2021 7:30:00 AM 3.49 38.282 0.42 7.79 5.65 11.36
12/20/2021 7:45:00 AM 3.45 38.21 0.42 7.79 3.82 11.35
12/20/2021 8:00:00 AM 3.41 38.138 0.42 7.79 3.71 11.42
12/20/2021 8:15:00 AM 3.38 38.084 0.42 7.8 3.6 11.57
12/20/2021 8:30:00 AM 3.35 38.03 0.421 7.82 3.47 11.73
12/20/2021 8:45:00 AM 3.35 38.03 0.42 7.83 3.72 11.92
12/20/2021 9:00:00 AM 3.36 38.048 0.42 7.85 3.64 12.13
12/20/2021 9:15:00 AM 3.38 38.084 0.419 7.88 3.57 12.35
12/20/2021 9:30:00 AM 3.42 38.156 0.419 7.9 3.61 12.61
12/20/2021 9:45:00 AM 3.46 38.228 0.42 7.93 3.63 12.88
12/20/2021 10:00:00 AM 3.51 38.318 0.419 7.95 3.63 13.09
12/20/2021 10:15:00 AM 3.59 38.462 0.418 7.99 3.65 13.36
12/20/2021 10:30:00 AM 3.67 38.606 0.418 8.02 3.67 13.59
12/20/2021 10:45:00 AM 3.76 38.768 0.418 8.04 3.6 13.78
12/20/2021 11:00:00 AM 3.85 38.93 0.418 8.07 3.68 13.98
12/20/2021 11:15:00 AM 3.96 39.128 0.417 8.09 3.55 14.11
12/20/2021 11:30:00 AM 4.07 39.326 0.417 8.12 3.69 14.24
12/20/2021 11:45:00 AM 4.18 39.524 0.416 8.14 3.65 14.38
12/20/2021 12:00:00 PM 4.28 39.704 0.416 8.16 3.61 14.52
12/20/2021 12:15:00 PM 4.37 39.866 0.416 8.17 3.53 14.6
12/20/2021 12:30:00 PM 4.46 40.028 0.416 8.19 3.8 14.66
12/20/2021 12:45:00 PM 4.53 40.154 0.416 8.2 3.66 14.69
12/20/2021 1:00:00 PM 4.59 40.262 0.416 8.21 3.58 14.76
12/20/2021 1:15:00 PM 4.63 40.334 0.416 8.22 3.53 14.83
12/20/2021 1:30:00 PM 4.66 40.388 0.416 8.23 3.54 14.84
12/20/2021 1:45:00 PM 4.67 40.406 0.415 8.24 3.49 14.87
12/20/2021 2:00:00 PM 4.66 40.388 0.416 8.24 4.24 14.84
12/20/2021 2:15:00 PM 4.64 40.352 0.415 8.25 3.59 14.83
12/20/2021 2:30:00 PM 4.61 40.298 0.416 8.25 3.98 14.86
12/20/2021 2:45:00 PM 4.57 40.226 0.415 8.25 3.9 14.85
12/20/2021 3:00:00 PM 4.53 40.154 0.415 8.25 7.94 14.82
12/20/2021 3:15:00 PM 4.49 40.082 0.415 8.24 3.78 14.75
12/20/2021 3:30:00 PM 4.45 40.01 0.415 8.23 4.54 14.62
12/20/2021 3:45:00 PM 4.41 39.938 0.415 8.22 4.09 14.58
12/20/2021 4:00:00 PM 4.37 39.866 0.415 8.21 4.04 14.48
12/20/2021 4:15:00 PM 4.34 39.812 0.415 8.19 3.68 14.36
12/20/2021 4:30:00 PM 4.3 39.74 0.416 8.17 3.68 14.21
12/20/2021 4:45:00 PM 4.27 39.686 0.416 8.15 3.88 14.06
12/20/2021 5:00:00 PM 4.23 39.614 0.416 8.12 3.65 13.86
12/20/2021 5:15:00 PM 4.19 39.542 0.417 8.09 3.73 13.65
12/20/2021 5:30:00 PM 4.15 39.47 0.417 8.06 3.71 13.46
12/20/2021 5:45:00 PM 4.12 39.416 0.417 8.04 3.75 13.29
12/20/2021 6:00:00 PM 4.08 39.344 0.418 8.02 3.71 13.11
12/20/2021 6:15:00 PM 4.04 39.272 0.418 8 3.56 12.99
12/20/2021 6:30:00 PM 4.01 39.218 0.418 7.98 3.58 12.85
12/20/2021 6:45:00 PM 3.98 39.164 0.418 7.97 3.64 12.8
12/20/2021 7:00:00 PM 3.94 39.092 0.418 7.96 3.84 12.7
12/20/2021 7:15:00 PM 3.92 39.056 0.418 7.95 3.84 12.66
12/20/2021 7:30:00 PM 3.89 39.002 0.418 7.95 3.64 12.62
12/20/2021 7:45:00 PM 3.86 38.948 0.418 7.94 3.54 12.6
12/20/2021 8:00:00 PM 3.83 38.894 0.419 7.94 3.62 12.57
12/20/2021 8:15:00 PM 3.81 38.858 0.419 7.94 3.55 12.53
12/20/2021 8:30:00 PM 3.77 38.786 0.418 7.94 3.54 12.49
12/20/2021 8:45:00 PM 3.74 38.732 0.418 7.93 3.64 12.4
12/20/2021 9:00:00 PM 3.71 38.678 0.419 7.93 3.69 12.39
12/20/2021 9:15:00 PM 3.68 38.624 0.419 7.92 3.83 12.42
12/20/2021 9:30:00 PM 3.64 38.552 0.419 7.92 3.87 12.41
12/20/2021 9:45:00 PM 3.6 38.48 0.419 7.91 3.7 12.36
12/20/2021 10:00:00 PM 3.56 38.408 0.419 7.91 3.68 12.33
12/20/2021 10:15:00 PM 3.51 38.318 0.419 7.9 3.71 12.29
12/20/2021 10:30:00 PM 3.47 38.246 0.42 7.89 3.82 12.23
12/20/2021 10:45:00 PM 3.42 38.156 0.419 7.89 3.7 12.21
12/20/2021 11:00:00 PM 3.37 38.066 0.42 7.88 3.78 12.17
12/20/2021 11:15:00 PM 3.32 37.976 0.42 7.87 3.79 12.14
12/20/2021 11:30:00 PM 3.28 37.904 0.42 7.87 3.84 12.1
12/20/2021 11:45:00 PM 3.22 37.796 0.421 7.86 3.7 12.08
12/21/2021 12:00:00 AM 3.17 37.706 0.421 7.86 3.66 12.08
12/21/2021 12:15:00 AM 3.13 37.634 0.421 7.85 3.46 12.06
12/21/2021 12:30:00 AM 3.08 37.544 0.422 7.85 3.49 12.04
12/21/2021 12:45:00 AM 3.03 37.454 0.421 7.84 3.65 12.02
12/21/2021 1:00:00 AM 2.99 37.382 0.421 7.84 3.57 11.99
12/21/2021 1:15:00 AM 2.95 37.31 0.422 7.83 3.76 12
12/21/2021 1:30:00 AM 2.91 37.238 0.422 7.83 3.68 11.97
12/21/2021 1:45:00 AM 2.87 37.166 0.422 7.83 3.63 11.98
12/21/2021 2:00:00 AM 2.84 37.112 0.422 7.82 3.7 11.95
12/21/2021 2:15:00 AM 2.8 37.04 0.422 7.82 3.64 11.96
12/21/2021 2:30:00 AM 2.76 36.968 0.422 7.82 3.67 11.95
12/21/2021 2:45:00 AM 2.73 36.914 0.422 7.81 3.61 11.96
12/21/2021 3:00:00 AM 2.7 36.86 0.422 7.81 3.62 11.93
12/21/2021 3:15:00 AM 2.67 36.806 0.422 7.81 3.66 11.94
12/21/2021 3:30:00 AM 2.64 36.752 0.422 7.81 3.65 11.92
12/21/2021 3:45:00 AM 2.62 36.716 0.422 7.81 3.6 11.93
12/21/2021 4:00:00 AM 2.59 36.662 0.423 7.8 3.65 11.92
12/21/2021 4:15:00 AM 2.56 36.608 0.422 7.8 3.76 11.94
12/21/2021 4:30:00 AM 2.53 36.554 0.423 7.8 3.67 11.94
12/21/2021 4:45:00 AM 2.49 36.482 0.423 7.8 4.25 11.94
12/21/2021 5:00:00 AM 2.45 36.41 0.424 7.8 3.62 11.94
12/21/2021 5:15:00 AM 2.42 36.356 0.423 7.8 4.34 11.95
12/21/2021 5:30:00 AM 2.39 36.302 0.423 7.8 3.73 11.95
12/21/2021 5:45:00 AM 2.36 36.248 0.423 7.79 3.77 11.95
12/21/2021 6:00:00 AM 2.32 36.176 0.424 7.79 3.67 11.96
12/21/2021 6:15:00 AM 2.29 36.122 0.424 7.79 3.58 11.96
12/21/2021 6:30:00 AM 2.26 36.068 0.424 7.79 3.52 11.97
12/21/2021 6:45:00 AM 2.23 36.014 0.424 7.79 3.68 11.94
12/21/2021 7:00:00 AM 2.2 35.96 0.424 7.79 3.64 11.97
12/21/2021 7:15:00 AM 2.17 35.906 0.424 7.79 3.66 11.94
12/21/2021 7:30:00 AM 2.15 35.87 0.424 7.79 4.49 11.95
12/21/2021 7:45:00 AM 2.13 35.834 0.424 7.79 3.82 11.96
12/21/2021 8:00:00 AM 2.12 35.816 0.424 7.8 3.72 12.09
12/21/2021 8:15:00 AM 2.13 35.834 0.421 7.8 4.21 12.17
12/21/2021 8:30:00 AM 2.14 35.852 0.424 7.82 3.73 12.37
12/21/2021 8:45:00 AM 2.16 35.888 0.42 7.84 4.08 12.6
12/21/2021 9:00:00 AM 2.19 35.942 0.424 7.86 3.74 12.84
12/21/2021 9:15:00 AM 2.23 36.014 0.424 7.89 3.63 13.12
12/21/2021 9:30:00 AM 2.29 36.122 0.423 7.92 3.77 13.4
12/21/2021 9:45:00 AM 2.36 36.248 0.423 7.95 3.78 13.71
12/21/2021 10:00:00 AM 2.44 36.392 0.421 7.99 4.55 13.86
12/21/2021 10:15:00 AM 2.51 36.518 0.423 8.02 3.64 14.2
12/21/2021 10:30:00 AM 2.6 36.68 0.422 8.05 3.63 14.42
12/21/2021 10:45:00 AM 2.67 36.806 0.421 8.08 3.5 14.61
12/21/2021 11:00:00 AM 2.76 36.968 0.421 8.11 3.6 14.78
12/21/2021 11:15:00 AM 2.83 37.094 0.421 8.13 3.6 14.91
12/21/2021 11:30:00 AM 2.92 37.256 0.421 8.15 3.53 15.03
12/21/2021 11:45:00 AM 2.99 37.382 0.42 8.17 3.67 15.11
12/21/2021 12:00:00 PM 3.05 37.49 0.42 8.18 3.72 15.19
12/21/2021 12:15:00 PM 3.12 37.616 0.415 8.2 3.86 15.26
12/21/2021 12:30:00 PM 3.18 37.724 0.419 8.21 3.75 15.3
12/21/2021 12:45:00 PM 3.24 37.832 0.419 8.22 3.64 15.34
12/21/2021 1:00:00 PM 3.29 37.922 0.419 8.24 3.56 15.43
12/21/2021 1:15:00 PM 3.36 38.048 0.413 8.25 3.85 15.48
12/21/2021 1:30:00 PM 3.41 38.138 0.415 8.26 4.18 15.55
12/21/2021 1:45:00 PM 3.45 38.21 0.418 8.27 4.02 15.57
12/21/2021 2:00:00 PM 3.48 38.264 0.418 8.29 3.81 15.56
12/21/2021 2:15:00 PM 3.52 38.336 0.418 8.29 4.69 15.6
12/21/2021 2:30:00 PM 3.54 38.372 0.418 8.31 3.95 15.64
12/21/2021 2:45:00 PM 3.55 38.39 0.418 8.31 4.77 15.68
12/21/2021 3:00:00 PM 3.54 38.372 0.417 8.31 3.76 15.68
12/21/2021 3:15:00 PM 3.55 38.39 0.417 8.31 3.74 15.63
12/21/2021 3:30:00 PM 3.55 38.39 0.417 8.31 3.67 15.61
12/21/2021 3:45:00 PM 3.54 38.372 0.418 8.3 3.89 15.51
12/21/2021 4:00:00 PM 3.53 38.354 0.418 8.29 3.77 15.34
12/21/2021 4:15:00 PM 3.52 38.336 0.418 8.27 3.69 15.22
12/21/2021 4:30:00 PM 3.51 38.318 0.418 8.24 4.04 15.01
12/21/2021 4:45:00 PM 3.49 38.282 0.419 8.21 4.33 14.78
12/21/2021 5:00:00 PM 3.47 38.246 0.42 8.17 4.31 14.49
12/21/2021 5:15:00 PM 3.44 38.192 0.419 8.14 3.84 14.27
12/21/2021 5:30:00 PM 3.43 38.174 0.42 8.1 3.91 14.04
12/21/2021 5:45:00 PM 3.42 38.156 0.42 8.07 3.77 13.81
12/21/2021 6:00:00 PM 3.42 38.156 0.42 8.05 4.38 13.64
12/21/2021 6:15:00 PM 3.43 38.174 0.42 8.02 3.67 13.47
12/21/2021 6:30:00 PM 3.45 38.21 0.42 8.01 3.73 13.34
12/21/2021 6:45:00 PM 3.47 38.246 0.42 8 3.61 13.24
12/21/2021 7:00:00 PM 3.5 38.3 0.42 7.98 3.71 13.14
12/21/2021 7:15:00 PM 3.53 38.354 0.42 7.98 3.63 13.07
12/21/2021 7:30:00 PM 3.57 38.426 0.42 7.97 3.63 13.04
12/21/2021 7:45:00 PM 3.6 38.48 0.42 7.97 3.98 12.97
12/21/2021 8:00:00 PM 3.63 38.534 0.42 7.96 3.78 12.92
12/21/2021 8:15:00 PM 3.65 38.57 0.42 7.96 3.84 12.87
12/21/2021 8:30:00 PM 3.67 38.606 0.42 7.96 3.72 12.83
12/21/2021 8:45:00 PM 3.7 38.66 0.42 7.96 3.74 12.8
12/21/2021 9:00:00 PM 3.71 38.678 0.42 7.95 3.68 12.73
12/21/2021 9:15:00 PM 3.73 38.714 0.421 7.95 3.63 12.7
12/21/2021 9:30:00 PM 3.74 38.732 0.42 7.94 3.81 12.63
12/21/2021 9:45:00 PM 3.74 38.732 0.42 7.94 3.8 12.58
12/21/2021 10:00:00 PM 3.74 38.732 0.42 7.93 3.86 12.53
12/21/2021 10:15:00 PM 3.75 38.75 0.42 7.92 3.94 12.44
12/21/2021 10:30:00 PM 3.75 38.75 0.42 7.91 4.03 12.33
12/21/2021 10:45:00 PM 3.75 38.75 0.42 7.91 3.87 12.33
12/21/2021 11:00:00 PM 3.75 38.75 0.402 7.89 3.24 12.24
12/21/2021 11:15:00 PM 3.76 38.768 0.419 7.89 4.56 12.22
12/21/2021 11:30:00 PM 3.76 38.768 0.421 7.88 3.33 12.11
12/21/2021 11:45:00 PM 3.76 38.768 0.421 7.88 2.39 12.12
12/22/2021 12:00:00 AM 3.76 38.768 0.421 7.87 2.34 12.1
12/22/2021 12:15:00 AM 3.76 38.768 0.421 7.86 2.31 12.01
12/22/2021 12:30:00 AM 3.77 38.786 0.421 7.86 2.24 11.98
12/22/2021 12:45:00 AM 3.77 38.786 0.421 7.85 2.27 11.95
12/22/2021 1:00:00 AM 3.77 38.786 0.421 7.85 2.32 11.91
12/22/2021 1:15:00 AM 3.77 38.786 0.421 7.84 2.32 11.84
12/22/2021 1:30:00 AM 3.77 38.786 0.421 7.84 2.4 11.84
12/22/2021 1:45:00 AM 3.78 38.804 0.421 7.83 2.35 11.81
12/22/2021 2:00:00 AM 3.79 38.822 0.421 7.83 2.54 11.74
12/22/2021 2:15:00 AM 3.79 38.822 0.421 7.82 2.42 11.75
12/22/2021 2:30:00 AM 3.8 38.84 0.421 7.82 2.29 11.68
12/22/2021 2:45:00 AM 3.81 38.858 0.421 7.82 2.43 11.69
12/22/2021 3:00:00 AM 3.82 38.876 0.421 7.81 2.42 11.64
12/22/2021 3:15:00 AM 3.83 38.894 0.421 7.81 2.38 11.63
12/22/2021 3:30:00 AM 3.83 38.894 0.421 7.81 2.41 11.61
12/22/2021 3:45:00 AM 3.82 38.876 0.422 7.8 2.22 11.6
12/22/2021 4:00:00 AM 3.82 38.876 0.421 7.8 2.45 11.57
12/22/2021 4:15:00 AM 3.82 38.876 0.421 7.8 2.39 11.56
12/22/2021 4:30:00 AM 3.82 38.876 0.421 7.8 2.24 11.53
12/22/2021 4:45:00 AM 3.82 38.876 0.422 7.8 2.57 11.53
12/22/2021 5:00:00 AM 3.82 38.876 0.422 7.79 2.42 11.45
12/22/2021 5:15:00 AM 3.82 38.876 0.422 7.79 2.36 11.48
12/22/2021 5:30:00 AM 3.82 38.876 0.421 7.79 2.48 11.48
12/22/2021 5:45:00 AM 3.82 38.876 0.422 7.79 2.42 11.45
12/22/2021 6:00:00 AM 3.81 38.858 0.422 7.79 2.38 11.42
12/22/2021 6:15:00 AM 3.81 38.858 0.422 7.79 2.34 11.44
12/22/2021 6:30:00 AM 3.81 38.858 0.422 7.79 2.36 11.39
12/22/2021 6:45:00 AM 3.8 38.84 0.422 7.79 2.47 11.4
12/22/2021 7:00:00 AM 3.79 38.822 0.422 7.79 2.45 11.39
12/22/2021 7:15:00 AM 3.77 38.786 0.422 7.79 2.4 11.4
12/22/2021 7:30:00 AM 3.77 38.786 0.423 7.79 2.59 11.36
12/22/2021 7:45:00 AM 3.75 38.75 0.422 7.79 2.44 11.38
12/22/2021 8:00:00 AM 3.73 38.714 0.422 7.79 3.27 11.38
12/22/2021 8:15:00 AM 3.73 38.714 0.421 7.8 2.68 11.49
12/22/2021 8:30:00 AM 3.73 38.714 0.422 7.81 4.31 11.63
12/22/2021 8:45:00 AM 3.73 38.714 0.421 7.83 2.47 11.81
12/22/2021 9:00:00 AM 3.77 38.786 0.421 7.86 3.14 12.1
12/22/2021 9:15:00 AM 3.78 38.804 0.421 7.88 2.38 12.34
12/22/2021 9:30:00 AM 3.81 38.858 0.42 7.92 2.44 12.65
12/22/2021 9:45:00 AM 3.86 38.948 0.42 7.95 2.26 12.97
12/22/2021 10:00:00 AM 3.92 39.056 0.419 7.98 2.3 13.17
12/22/2021 10:15:00 AM 4.01 39.218 0.419 8.02 2.51 13.49
12/22/2021 10:30:00 AM 4.12 39.416 0.418 8.06 2.4 13.73
12/22/2021 10:45:00 AM 4.24 39.632 0.418 8.1 2.49 14
12/22/2021 11:00:00 AM 4.36 39.848 0.417 8.14 2.36 14.22
12/22/2021 11:15:00 AM 4.52 40.136 0.416 8.17 2.71 14.38
12/22/2021 11:30:00 AM 4.54 40.172 0.416 8.19 2.44 14.49
12/22/2021 11:45:00 AM 4.65 40.37 0.415 8.21 2.5 14.5
12/22/2021 12:00:00 PM 4.71 40.478 0.416 8.23 2.78 14.65
12/22/2021 12:15:00 PM 4.74 40.532 0.415 8.24 2.94 14.66
12/22/2021 12:30:00 PM 4.72 40.496 0.416 8.25 2.57 14.61
12/22/2021 12:45:00 PM 4.74 40.532 0.415 8.25 3.68 14.61
12/22/2021 1:00:00 PM 4.78 40.604 0.415 8.27 2.44 14.66
12/22/2021 1:15:00 PM 4.79 40.622 0.415 8.27 2.36 14.66
12/22/2021 1:30:00 PM 4.78 40.604 0.415 8.28 2.62 14.67
12/22/2021 1:45:00 PM 4.77 40.586 0.415 8.29 2.36 14.67
12/22/2021 2:00:00 PM 4.78 40.604 0.415 8.3 2.51 14.75
12/22/2021 2:15:00 PM 4.78 40.604 0.415 8.32 2.38 14.73
12/22/2021 2:30:00 PM 4.75 40.55 0.414 8.32 2.37 14.69
12/22/2021 2:45:00 PM 4.73 40.514 0.415 8.33 2.57 14.67
12/22/2021 3:00:00 PM 4.7 40.46 0.415 8.33 2.42 14.73
12/22/2021 3:15:00 PM 4.64 40.352 0.414 8.33 3.21 14.68
12/22/2021 3:30:00 PM 4.6 40.28 0.414 8.32 2.61 14.61
12/22/2021 3:45:00 PM 4.55 40.19 0.415 8.31 2.71 14.51
12/22/2021 4:00:00 PM 4.49 40.082 0.415 8.29 2.9 14.42
12/22/2021 4:15:00 PM 4.43 39.974 0.416 8.28 2.51 14.31
12/22/2021 4:30:00 PM 4.37 39.866 0.415 8.25 2.41 14.16
12/22/2021 4:45:00 PM 4.31 39.758 0.416 8.23 2.43 13.99
12/22/2021 5:00:00 PM 4.27 39.686 0.416 8.2 2.42 13.78
12/22/2021 5:15:00 PM 4.23 39.614 0.417 8.17 2.53 13.54
12/22/2021 5:30:00 PM 4.19 39.542 0.417 8.14 2.43 13.39
12/22/2021 5:45:00 PM 4.16 39.488 0.417 8.11 2.38 13.19
12/22/2021 6:00:00 PM 4.14 39.452 0.417 8.09 2.47 13.03
12/22/2021 6:15:00 PM 4.12 39.416 0.417 8.06 2.43 12.9
12/22/2021 6:30:00 PM 4.09 39.362 0.418 8.05 3.4 12.79
12/22/2021 6:45:00 PM 4.06 39.308 0.417 8.03 3.54 12.69
12/22/2021 7:00:00 PM 4.03 39.254 0.418 8.02 2.55 12.59
12/22/2021 7:15:00 PM 4.01 39.218 0.417 8.02 2.68 12.56
12/22/2021 7:30:00 PM 3.98 39.164 0.417 8.01 2.37 12.51
12/22/2021 7:45:00 PM 3.94 39.092 0.418 8.01 2.57 12.5
12/22/2021 8:00:00 PM 3.91 39.038 0.417 8.01 3.61 12.46
12/22/2021 8:15:00 PM 3.87 38.966 0.417 8 2.57 12.45
12/22/2021 8:30:00 PM 3.83 38.894 0.417 8 2.5 12.41
12/22/2021 8:45:00 PM 3.8 38.84 0.417 8 2.48 12.4
12/22/2021 9:00:00 PM 3.76 38.768 0.417 7.99 2.41 12.38
12/22/2021 9:15:00 PM 3.73 38.714 0.417 7.99 2.44 12.36
12/22/2021 9:30:00 PM 3.69 38.642 0.418 7.98 2.54 12.32
12/22/2021 9:45:00 PM 3.64 38.552 0.418 7.97 2.36 12.28
12/22/2021 10:00:00 PM 3.61 38.498 0.418 7.96 2.57 12.25
12/22/2021 10:15:00 PM 3.57 38.426 0.418 7.96 2.63 12.19
12/22/2021 10:30:00 PM 3.54 38.372 0.418 7.95 2.64 12.18
12/22/2021 10:45:00 PM 3.5 38.3 0.418 7.94 2.61 12.12
12/22/2021 11:00:00 PM 3.47 38.246 0.419 7.93 2.53 12.1
12/22/2021 11:15:00 PM 3.43 38.174 0.419 7.92 2.58 12.06
12/22/2021 11:30:00 PM 3.39 38.102 0.42 7.92 2.51 12.03
12/22/2021 11:45:00 PM 3.35 38.03 0.42 7.91 2.62 12.01
12/23/2021 12:00:00 AM 3.31 37.958 0.42 7.9 2.61 11.98
12/23/2021 12:15:00 AM 3.27 37.886 0.42 7.9 2.53 11.95
12/23/2021 12:30:00 AM 3.23 37.814 0.42 7.89 2.49 11.94
12/23/2021 12:45:00 AM 3.19 37.742 0.421 7.88 2.46 11.91
12/23/2021 1:00:00 AM 3.15 37.67 0.421 7.88 2.42 11.89
12/23/2021 1:15:00 AM 3.12 37.616 0.421 7.87 2.39 11.88
12/23/2021 1:30:00 AM 3.09 37.562 0.421 7.87 2.44 11.88
12/23/2021 1:45:00 AM 3.05 37.49 0.421 7.86 2.39 11.85
12/23/2021 2:00:00 AM 3.02 37.436 0.422 7.86 2.38 11.85
12/23/2021 2:15:00 AM 2.99 37.382 0.421 7.85 2.42 11.83
12/23/2021 2:30:00 AM 2.97 37.346 0.421 7.85 2.5 11.83
12/23/2021 2:45:00 AM 2.94 37.292 0.422 7.84 2.52 11.82
12/23/2021 3:00:00 AM 2.92 37.256 0.422 7.84 2.35 11.81
12/23/2021 3:15:00 AM 2.89 37.202 0.422 7.84 2.72 11.8
12/23/2021 3:30:00 AM 2.87 37.166 0.422 7.84 2.38 11.8
12/23/2021 3:45:00 AM 2.85 37.13 0.423 7.83 2.28 11.79
12/23/2021 4:00:00 AM 2.83 37.094 0.423 7.83 2.54 11.78
12/23/2021 4:15:00 AM 2.81 37.058 0.423 7.83 2.39 11.79
12/23/2021 4:30:00 AM 2.78 37.004 0.423 7.83 2.35 11.75
12/23/2021 4:45:00 AM 2.75 36.95 0.423 7.82 2.35 11.76
12/23/2021 5:00:00 AM 2.72 36.896 0.423 7.82 2.36 11.75
12/23/2021 5:15:00 AM 2.7 36.86 0.423 7.82 2.4 11.75
12/23/2021 5:30:00 AM 2.67 36.806 0.423 7.82 2.35 11.77
12/23/2021 5:45:00 AM 2.64 36.752 0.424 7.82 2.47 11.78
12/23/2021 6:00:00 AM 2.61 36.698 0.424 7.81 2.47 11.77
12/23/2021 6:15:00 AM 2.58 36.644 0.386 7.81 2.05 11.79
12/23/2021 6:30:00 AM 2.55 36.59 0.424 7.81 2.79 11.77
12/23/2021 6:45:00 AM 2.53 36.554 0.424 7.81 2.45 11.73
12/23/2021 7:00:00 AM 2.51 36.518 0.424 7.81 2.41 11.79
12/23/2021 7:15:00 AM 2.47 36.446 0.424 7.81 2.42 11.8
12/23/2021 7:30:00 AM 2.43 36.374 0.424 7.81 2.43 11.82
12/23/2021 7:45:00 AM 2.4 36.32 0.424 7.81 2.86 11.86
12/23/2021 8:00:00 AM 2.38 36.284 0.424 7.82 2.3 11.94
12/23/2021 8:15:00 AM 2.36 36.248 0.424 7.83 2.28 12.04
12/23/2021 8:30:00 AM 2.36 36.248 0.424 7.84 2.32 12.16
12/23/2021 8:45:00 AM 2.36 36.248 0.424 7.85 2.71 12.3
12/23/2021 9:00:00 AM 2.38 36.284 0.424 7.88 2.22 12.5
12/23/2021 9:15:00 AM 2.4 36.32 0.424 7.9 2.33 12.81
12/23/2021 9:30:00 AM 2.44 36.392 0.423 7.93 2.31 12.98
12/23/2021 9:45:00 AM 2.48 36.464 0.423 7.96 2.33 13.27
12/23/2021 10:00:00 AM 2.52 36.536 0.423 7.98 2.42 13.51
12/23/2021 10:15:00 AM 2.61 36.698 0.423 8.01 2.36 13.77
12/23/2021 10:30:00 AM 2.68 36.824 0.422 8.04 2.23 13.95
12/23/2021 10:45:00 AM 2.77 36.986 0.422 8.07 2.33 14.21
12/23/2021 11:00:00 AM 2.88 37.184 0.422 8.09 2.99 14.4
12/23/2021 11:15:00 AM 2.98 37.364 0.421 8.12 3.24 14.56
12/23/2021 11:30:00 AM 3.07 37.526 0.42 8.15 2.97 14.69
12/23/2021 11:45:00 AM 3.2 37.76 0.42 8.17 3.04 14.83
12/23/2021 12:00:00 PM 3.31 37.958 0.419 8.19 2.34 14.95
12/23/2021 12:15:00 PM 3.38 38.084 0.419 8.22 2.54 15.11
12/23/2021 12:30:00 PM 3.46 38.228 0.418 8.24 2.32 15.24
12/23/2021 12:45:00 PM 3.55 38.39 0.418 8.26 2.52 15.3
12/23/2021 1:00:00 PM 3.61 38.498 0.418 8.28 2.46 15.42
12/23/2021 1:15:00 PM 3.63 38.534 0.419 8.28 2.45 15.43
12/23/2021 1:30:00 PM 3.63 38.534 0.418 8.29 2.46 15.49
12/23/2021 1:45:00 PM 3.65 38.57 0.418 8.3 2.66 15.48
12/23/2021 2:00:00 PM 3.64 38.552 0.418 8.3 2.52 15.49
12/23/2021 2:15:00 PM 3.6 38.48 0.417 8.3 2.34 15.44
12/23/2021 2:30:00 PM 3.58 38.444 0.418 8.3 2.49 15.47
12/23/2021 2:45:00 PM 3.56 38.408 0.418 8.3 2.55 15.42
12/23/2021 3:00:00 PM 3.54 38.372 0.418 8.29 2.52 15.41
12/23/2021 3:15:00 PM 3.55 38.39 0.418 8.3 2.61 15.43
12/23/2021 3:30:00 PM 3.51 38.318 0.419 8.29 3.96 15.37
12/23/2021 3:45:00 PM 3.48 38.264 0.419 8.28 2.93 15.27
12/23/2021 4:00:00 PM 3.45 38.21 0.419 8.27 2.88 15.18
12/23/2021 4:15:00 PM 3.43 38.174 0.419 8.26 2.64 15.09
12/23/2021 4:30:00 PM 3.41 38.138 0.419 8.24 2.67 14.94
12/23/2021 4:45:00 PM 3.37 38.066 0.419 8.21 2.46 14.76
12/23/2021 5:00:00 PM 3.34 38.012 0.42 8.18 2.32 14.56
12/23/2021 5:15:00 PM 3.3 37.94 0.419 8.15 2.27 14.36
12/23/2021 5:30:00 PM 3.26 37.868 0.42 8.12 2.47 14.15
12/23/2021 5:45:00 PM 3.21 37.778 0.42 8.09 2.27 13.91
12/23/2021 6:00:00 PM 3.17 37.706 0.421 8.06 2.26 13.72
12/23/2021 6:15:00 PM 3.14 37.652 0.421 8.04 2.2 13.57
12/23/2021 6:30:00 PM 3.11 37.598 0.421 8.02 2.36 13.42
12/23/2021 6:45:00 PM 3.1 37.58 0.421 8 2.29 13.32
12/23/2021 7:00:00 PM 3.09 37.562 0.421 7.99 2.36 13.19
12/23/2021 7:15:00 PM 3.08 37.544 0.421 7.98 2.26 13.12
12/23/2021 7:30:00 PM 3.08 37.544 0.421 7.97 2.35 13.07
12/23/2021 7:45:00 PM 3.09 37.562 0.421 7.97 2.31 12.97
12/23/2021 8:00:00 PM 3.11 37.598 0.421 7.96 2.36 13
12/23/2021 8:15:00 PM 3.12 37.616 0.422 7.96 2.39 12.94
12/23/2021 8:30:00 PM 3.13 37.634 0.422 7.96 2.34 12.94
12/23/2021 8:45:00 PM 3.14 37.652 0.421 7.95 2.37 12.9
12/23/2021 9:00:00 PM 3.14 37.652 0.422 7.95 2.35 12.85
12/23/2021 9:15:00 PM 3.15 37.67 0.422 7.94 2.47 12.83
12/23/2021 9:30:00 PM 3.15 37.67 0.422 7.94 2.57 12.79
12/23/2021 9:45:00 PM 3.15 37.67 0.421 7.94 2.41 12.72
12/23/2021 10:00:00 PM 3.14 37.652 0.422 7.93 2.53 12.71
12/23/2021 10:15:00 PM 3.13 37.634 0.422 7.93 2.34 12.64
12/23/2021 10:30:00 PM 3.12 37.616 0.422 7.92 2.39 12.61
12/23/2021 10:45:00 PM 3.11 37.598 0.422 7.92 2.39 12.57
12/23/2021 11:00:00 PM 3.1 37.58 0.422 7.91 2.4 12.52
12/23/2021 11:15:00 PM 3.09 37.562 0.422 7.9 2.41 12.46
12/23/2021 11:30:00 PM 3.09 37.562 0.422 7.9 2.55 12.4
12/23/2021 11:45:00 PM 3.08 37.544 0.423 7.89 2.37 12.35
12/24/2021 12:00:00 AM 3.08 37.544 0.422 7.89 2.34 12.35
12/24/2021 12:15:00 AM 3.08 37.544 0.423 7.88 2.47 12.25
12/24/2021 12:30:00 AM 3.08 37.544 0.423 7.87 2.44 12.25
12/24/2021 12:45:00 AM 3.08 37.544 0.423 7.87 2.31 12.25
12/24/2021 1:00:00 AM 3.08 37.544 0.423 7.86 2.3 12.18
12/24/2021 1:15:00 AM 3.08 37.544 0.423 7.86 2.36 12.17
12/24/2021 1:30:00 AM 3.09 37.562 0.423 7.85 2.25 12.11
12/24/2021 1:45:00 AM 3.09 37.562 0.423 7.85 2.31 12.12
12/24/2021 2:00:00 AM 3.08 37.544 0.424 7.84 2.41 12.08
12/24/2021 2:15:00 AM 3.08 37.544 0.424 7.84 2.29 12.02
12/24/2021 2:30:00 AM 3.08 37.544 0.424 7.83 2.24 12.01
12/24/2021 2:45:00 AM 3.07 37.526 0.424 7.83 2.39 12.02
12/24/2021 3:00:00 AM 3.07 37.526 0.424 7.83 2.21 11.99
12/24/2021 3:15:00 AM 3.07 37.526 0.424 7.82 2.38 11.9
12/24/2021 3:30:00 AM 3.06 37.508 0.425 7.82 2.27 11.91
12/24/2021 3:45:00 AM 3.05 37.49 0.424 7.82 2.36 11.92
12/24/2021 4:00:00 AM 3.03 37.454 0.424 7.81 2.4 11.92
12/24/2021 4:15:00 AM 3.03 37.454 0.424 7.81 2.42 11.89
12/24/2021 4:30:00 AM 3.03 37.454 0.424 7.81 2.32 11.89
12/24/2021 4:45:00 AM 3.03 37.454 0.424 7.81 2.42 11.87
12/24/2021 5:00:00 AM 3.04 37.472 0.425 7.8 2.37 11.79
12/24/2021 5:15:00 AM 3.05 37.49 0.425 7.8 2.58 11.84
12/24/2021 5:30:00 AM 3.06 37.508 0.425 7.8 2.35 11.81
12/24/2021 5:45:00 AM 3.06 37.508 0.425 7.8 2.27 11.81
12/24/2021 6:00:00 AM 3.07 37.526 0.424 7.8 2.27 11.78
12/24/2021 6:15:00 AM 3.07 37.526 0.424 7.8 2.22 11.8
12/24/2021 6:30:00 AM 3.05 37.49 0.425 7.8 2.43 11.74
12/24/2021 6:45:00 AM 3.03 37.454 0.424 7.8 2.73 11.78
12/24/2021 7:00:00 AM 3 37.4 0.425 7.79 2.16 11.72
12/24/2021 7:15:00 AM 2.96 37.328 0.425 7.79 2.18 11.75
12/24/2021 7:30:00 AM 2.92 37.256 0.425 7.79 3.95 11.8
12/24/2021 7:45:00 AM 2.89 37.202 0.424 7.8 2.59 11.79
12/24/2021 8:00:00 AM 2.85 37.13 0.425 7.8 2.71 11.85
12/24/2021 8:15:00 AM 2.84 37.112 0.425 7.81 2.44 11.98
12/24/2021 8:30:00 AM 2.83 37.094 0.425 7.83 2.34 12.09
12/24/2021 8:45:00 AM 2.84 37.112 0.425 7.84 2.38 12.29
12/24/2021 9:00:00 AM 2.86 37.148 0.424 7.86 2.42 12.54
12/24/2021 9:15:00 AM 2.9 37.22 0.424 7.89 6.5 12.8
12/24/2021 9:30:00 AM 2.95 37.31 0.423 7.92 2.81 13.07
12/24/2021 9:45:00 AM 3.02 37.436 0.424 7.95 2.47 13.32
12/24/2021 10:00:00 AM 3.09 37.562 0.423 7.98 2.36 13.55
12/24/2021 10:15:00 AM 3.18 37.724 0.423 8.01 2.28 13.76
12/24/2021 10:30:00 AM 3.3 37.94 0.422 8.04 2.25 13.99
12/24/2021 10:45:00 AM 3.41 38.138 0.422 8.07 2.31 14.16
12/24/2021 11:00:00 AM 3.53 38.354 0.421 8.1 2.21 14.34
12/24/2021 11:15:00 AM 3.67 38.606 0.421 8.12 2.36 14.46
12/24/2021 11:30:00 AM 3.8 38.84 0.42 8.14 2.17 14.55
12/24/2021 11:45:00 AM 3.93 39.074 0.42 8.16 2.24 14.61
12/24/2021 12:00:00 PM 4.04 39.272 0.42 8.18 2.27 14.74
12/24/2021 12:15:00 PM 4.15 39.47 0.419 8.2 2.34 14.83
12/24/2021 12:30:00 PM 4.26 39.668 0.419 8.22 2.34 14.9
12/24/2021 12:45:00 PM 4.34 39.812 0.418 8.23 2.37 14.94
12/24/2021 1:00:00 PM 4.39 39.902 0.418 8.24 2.13 14.97
12/24/2021 1:15:00 PM 4.44 39.992 0.417 8.26 2.24 15.06
12/24/2021 1:30:00 PM 4.48 40.064 0.417 8.27 2.32 15.09
12/24/2021 1:45:00 PM 4.51 40.118 0.416 8.28 2.18 15.12
12/24/2021 2:00:00 PM 4.52 40.136 0.415 8.29 2.5 15.19
12/24/2021 2:15:00 PM 4.52 40.136 0.416 8.31 2.27 15.19
12/24/2021 2:30:00 PM 4.53 40.154 0.415 8.31 3.98 15.26
12/24/2021 2:45:00 PM 4.53 40.154 0.415 8.32 3.07 15.23
12/24/2021 3:00:00 PM 4.53 40.154 0.415 8.32 2.24 15.27
12/24/2021 3:15:00 PM 4.51 40.118 0.416 8.32 2.35 15.19
12/24/2021 3:30:00 PM 4.5 40.1 0.415 8.31 2.45 15.15
12/24/2021 3:45:00 PM 4.49 40.082 0.416 8.3 2.59 15
12/24/2021 4:00:00 PM 4.47 40.046 0.416 8.29 2.37 14.89
12/24/2021 4:15:00 PM 4.47 40.046 0.416 8.27 2.35 14.76
12/24/2021 4:30:00 PM 4.45 40.01 0.417 8.24 2.39 14.56
12/24/2021 4:45:00 PM 4.44 39.992 0.417 8.2 2.28 14.32
12/24/2021 5:00:00 PM 4.43 39.974 0.418 8.17 2.28 14.09
12/24/2021 5:15:00 PM 4.43 39.974 0.418 8.13 2.31 13.83
12/24/2021 5:30:00 PM 4.43 39.974 0.419 8.1 3.14 13.58
12/24/2021 5:45:00 PM 4.43 39.974 0.419 8.06 2.27 13.38
12/24/2021 6:00:00 PM 4.44 39.992 0.419 8.04 2.24 13.19
12/24/2021 6:15:00 PM 4.45 40.01 0.419 8.02 2.18 12.98
12/24/2021 6:30:00 PM 4.47 40.046 0.42 8 2.32 12.81
12/24/2021 6:45:00 PM 4.48 40.064 0.419 7.99 2.24 12.68
12/24/2021 7:00:00 PM 4.5 40.1 0.419 7.98 2.3 12.66
12/24/2021 7:15:00 PM 4.51 40.118 0.419 7.97 2.26 12.59
12/24/2021 7:30:00 PM 4.52 40.136 0.419 7.96 2.17 12.54
12/24/2021 7:45:00 PM 4.53 40.154 0.419 7.96 2.33 12.47
12/24/2021 8:00:00 PM 4.53 40.154 0.419 7.96 2.22 12.49
12/24/2021 8:15:00 PM 4.54 40.172 0.419 7.96 2.35 12.46
12/24/2021 8:30:00 PM 4.54 40.172 0.419 7.95 2.27 12.4
12/24/2021 8:45:00 PM 4.53 40.154 0.419 7.95 2.3 12.34
12/24/2021 9:00:00 PM 4.52 40.136 0.419 7.95 2.29 12.31
12/24/2021 9:15:00 PM 4.53 40.154 0.42 7.94 2.37 12.26
12/24/2021 9:30:00 PM 4.53 40.154 0.419 7.94 2.35 12.24
12/24/2021 9:45:00 PM 4.54 40.172 0.419 7.93 2.27 12.17
12/24/2021 10:00:00 PM 4.55 40.19 0.42 7.93 2.27 12.15
12/24/2021 10:15:00 PM 4.57 40.226 0.42 7.92 2.19 12.1
12/24/2021 10:30:00 PM 4.59 40.262 0.419 7.91 2.19 12.02
12/24/2021 10:45:00 PM 4.61 40.298 0.42 7.91 2.16 11.98
12/24/2021 11:00:00 PM 4.63 40.334 0.419 7.9 2.18 11.92
12/24/2021 11:15:00 PM 4.64 40.352 0.42 7.89 2.19 11.87
12/24/2021 11:30:00 PM 4.66 40.388 0.42 7.89 2.37 11.79
12/24/2021 11:45:00 PM 4.67 40.406 0.42 7.88 2.26 11.75
12/25/2021 12:00:00 AM 4.68 40.424 0.42 7.88 2.22 11.7
12/25/2021 12:15:00 AM 4.69 40.442 0.421 7.87 2.18 11.66
12/25/2021 12:30:00 AM 4.69 40.442 0.421 7.86 2.23 11.59
12/25/2021 12:45:00 AM 4.69 40.442 0.421 7.86 2.29 11.57
12/25/2021 1:00:00 AM 4.68 40.424 0.421 7.85 2.15 11.52
12/25/2021 1:15:00 AM 4.68 40.424 0.421 7.84 2.31 11.48
12/25/2021 1:30:00 AM 4.68 40.424 0.421 7.84 2.39 11.44
12/25/2021 1:45:00 AM 4.67 40.406 0.421 7.83 2.35 11.4
12/25/2021 2:00:00 AM 4.67 40.406 0.421 7.83 2.26 11.38
12/25/2021 2:15:00 AM 4.67 40.406 0.422 7.82 2.17 11.33
12/25/2021 2:30:00 AM 4.68 40.424 0.422 7.82 2.42 11.33
12/25/2021 2:45:00 AM 4.69 40.442 0.422 7.82 2.35 11.28
12/25/2021 3:00:00 AM 4.7 40.46 0.422 7.81 2.23 11.27
12/25/2021 3:15:00 AM 4.71 40.478 0.421 7.81 2.35 11.25
12/25/2021 3:30:00 AM 4.73 40.514 0.422 7.81 2.44 11.24
12/25/2021 3:45:00 AM 4.74 40.532 0.422 7.81 2.42 11.18
12/25/2021 4:00:00 AM 4.76 40.568 0.422 7.8 2.44 11.19
12/25/2021 4:15:00 AM 4.78 40.604 0.422 7.8 2.4 11.14
12/25/2021 4:30:00 AM 4.8 40.64 0.422 7.8 2.32 11.1
12/25/2021 4:45:00 AM 4.81 40.658 0.422 7.8 2.55 11.11
12/25/2021 5:00:00 AM 4.83 40.694 0.422 7.79 2.41 11.05
12/25/2021 5:15:00 AM 4.84 40.712 0.422 7.79 2.42 11.06
12/25/2021 5:30:00 AM 4.86 40.748 0.422 7.79 2.34 10.95
12/25/2021 5:45:00 AM 4.87 40.766 0.422 7.79 2.43 11.02
12/25/2021 6:00:00 AM 4.88 40.784 0.422 7.78 2.59 10.94
12/25/2021 6:15:00 AM 4.9 40.82 0.423 7.78 2.46 10.95
12/25/2021 6:30:00 AM 4.91 40.838 0.422 7.78 2.41 10.89
12/25/2021 6:45:00 AM 4.92 40.856 0.422 7.78 2.54 10.84
12/25/2021 7:00:00 AM 4.94 40.892 0.423 7.78 2.32 10.85
12/25/2021 7:15:00 AM 4.95 40.91 0.422 7.78 2.48 10.88
12/25/2021 7:30:00 AM 4.97 40.946 0.422 7.78 2.34 10.81
12/25/2021 7:45:00 AM 4.98 40.964 0.422 7.78 2.2 10.86
12/25/2021 8:00:00 AM 4.99 40.982 0.422 7.78 4.46 10.87
12/25/2021 8:15:00 AM 5.01 41.018 0.422 7.78 2.67 10.88
12/25/2021 8:30:00 AM 5.03 41.054 0.422 7.78 2.73 10.93
12/25/2021 8:45:00 AM 5.05 41.09 0.422 7.79 2.57 10.95
12/25/2021 9:00:00 AM 5.07 41.126 0.422 7.79 2.32 11.05
12/25/2021 9:15:00 AM 5.1 41.18 0.421 7.81 2.55 11.11
12/25/2021 9:30:00 AM 5.14 41.252 0.421 7.82 2.23 11.27
12/25/2021 9:45:00 AM 5.18 41.324 0.421 7.85 2.48 11.59
12/25/2021 10:00:00 AM 5.22 41.396 0.42 7.87 2.46 11.8
12/25/2021 10:15:00 AM 5.28 41.504 0.42 7.9 2.37 12.06
12/25/2021 10:30:00 AM 5.32 41.576 0.42 7.93 2.63 12.32
12/25/2021 10:45:00 AM 5.37 41.666 0.42 7.95 2.35 12.48
12/25/2021 11:00:00 AM 5.41 41.738 0.419 7.97 2.42 12.62
12/25/2021 11:15:00 AM 5.45 41.81 0.419 7.99 2.48 12.75
12/25/2021 11:30:00 AM 5.5 41.9 0.418 8.02 2.43 12.85
12/25/2021 11:45:00 AM 5.55 41.99 0.419 8.04 2.22 13.1
12/25/2021 12:00:00 PM 5.6 42.08 0.418 8.07 2.2 13.18
12/25/2021 12:15:00 PM 5.63 42.134 0.418 8.07 2.34 13.24
12/25/2021 12:30:00 PM 5.67 42.206 0.419 8.08 2.36 13.26
12/25/2021 12:45:00 PM 5.74 42.332 0.418 8.12 2.16 13.45
12/25/2021 1:00:00 PM 5.8 42.44 0.418 8.13 2.21 13.53
12/25/2021 1:15:00 PM 5.88 42.584 0.417 8.15 2.26 13.65
12/25/2021 1:30:00 PM 5.97 42.746 0.417 8.19 8.74 13.85
12/25/2021 1:45:00 PM 6.03 42.854 0.416 8.2 4.3 13.97
12/25/2021 2:00:00 PM 6.1 42.98 0.416 8.23 2.82 14.03
12/25/2021 2:15:00 PM 6.19 43.142 0.415 8.26 4.84 14.17
12/25/2021 2:30:00 PM 6.25 43.25 0.415 8.25 17.59 14.18
12/25/2021 2:45:00 PM 6.29 43.322 0.415 8.26 13.54 14.17
12/25/2021 3:00:00 PM 6.32 43.376 0.415 8.26 5.4 14.13
12/25/2021 3:15:00 PM 6.34 43.412 0.415 8.25 4.22 14.03
12/25/2021 3:30:00 PM 6.35 43.43 0.415 8.23 3.31 13.9
12/25/2021 3:45:00 PM 6.36 43.448 0.415 8.21 2.9 13.74
12/25/2021 4:00:00 PM 6.35 43.43 0.416 8.17 2.65 13.49
12/25/2021 4:15:00 PM 6.34 43.412 0.416 8.14 2.62 13.3
12/25/2021 4:30:00 PM 6.33 43.394 0.416 8.11 2.74 13.06
12/25/2021 4:45:00 PM 6.32 43.376 0.416 8.07 2.63 12.8
12/25/2021 5:00:00 PM 6.32 43.376 0.416 8.04 3.39 12.55
12/25/2021 5:15:00 PM 6.33 43.394 0.417 8.01 3.11 12.31
12/25/2021 5:30:00 PM 6.39 43.502 0.412 7.98 5.45 12.1
12/25/2021 5:45:00 PM 6.44 43.592 0.409 7.96 4.92 11.89
12/25/2021 6:00:00 PM 6.46 43.628 0.41 7.94 4.74 11.78
12/25/2021 6:15:00 PM 6.49 43.682 0.409 7.93 3.5 11.67
12/25/2021 6:30:00 PM 6.54 43.772 0.408 7.92 3.69 11.6
12/25/2021 6:45:00 PM 6.56 43.808 0.409 7.91 3.62 11.54
12/25/2021 7:00:00 PM 6.59 43.862 0.409 7.91 4.04 11.51
12/25/2021 7:15:00 PM 6.62 43.916 0.409 7.9 3.18 11.42
12/25/2021 7:30:00 PM 6.64 43.952 0.408 7.9 2.96 11.44
12/25/2021 7:45:00 PM 6.67 44.006 0.408 7.9 3.11 11.42
12/25/2021 8:00:00 PM 6.68 44.024 0.409 7.9 3.17 11.41
12/25/2021 8:15:00 PM 6.68 44.024 0.409 7.89 2.72 11.37
12/25/2021 8:30:00 PM 6.68 44.024 0.409 7.89 2.88 11.3
12/25/2021 8:45:00 PM 6.67 44.006 0.409 7.89 3.12 11.26
12/25/2021 9:00:00 PM 6.67 44.006 0.409 7.89 2.73 11.22
12/25/2021 9:15:00 PM 6.66 43.988 0.409 7.88 2.88 11.16
12/25/2021 9:30:00 PM 6.65 43.97 0.409 7.87 3.3 11.09
12/25/2021 9:45:00 PM 6.65 43.97 0.409 7.86 3.62 11.04
12/25/2021 10:00:00 PM 6.64 43.952 0.409 7.86 3.72 10.92
12/25/2021 10:15:00 PM 6.62 43.916 0.408 7.85 4.05 10.85
12/25/2021 10:30:00 PM 6.61 43.898 0.406 7.85 3.76 10.86
12/25/2021 10:45:00 PM 6.6 43.88 0.405 7.85 4.56 10.88
12/25/2021 11:00:00 PM 6.57 43.826 0.402 7.85 4.54 10.82
12/25/2021 11:15:00 PM 6.56 43.808 0.4 7.85 4.36 10.76
12/25/2021 11:30:00 PM 6.56 43.808 0.4 7.85 4.47 10.72
12/25/2021 11:45:00 PM 6.57 43.826 0.4 7.84 4.21 10.63
12/26/2021 12:00:00 AM 6.58 43.844 0.4 7.84 3.59 10.66
12/26/2021 12:15:00 AM 6.59 43.862 0.4 7.83 3.29 10.61
12/26/2021 12:30:00 AM 6.58 43.844 0.401 7.82 3.18 10.51
12/26/2021 12:45:00 AM 6.57 43.826 0.402 7.81 3.12 10.53
12/26/2021 1:00:00 AM 6.55 43.79 0.402 7.81 2.87 10.45
12/26/2021 1:15:00 AM 6.53 43.754 0.403 7.8 3.34 10.44
12/26/2021 1:30:00 AM 6.5 43.7 0.404 7.8 3.09 10.42
12/26/2021 1:45:00 AM 6.47 43.646 0.404 7.8 3.19 10.42
12/26/2021 2:00:00 AM 6.45 43.61 0.404 7.79 3.09 10.39
12/26/2021 2:15:00 AM 6.43 43.574 0.405 7.79 3.1 10.32
12/26/2021 2:30:00 AM 6.41 43.538 0.405 7.79 3.11 10.3
12/26/2021 2:45:00 AM 6.4 43.52 0.406 7.78 3.25 10.35
12/26/2021 3:00:00 AM 6.39 43.502 0.406 7.78 3.31 10.28
12/26/2021 3:15:00 AM 6.37 43.466 0.406 7.78 3.49 10.23
12/26/2021 3:30:00 AM 6.35 43.43 0.406 7.77 3.32 10.27
12/26/2021 3:45:00 AM 6.33 43.394 0.406 7.77 3.79 10.28
12/26/2021 4:00:00 AM 6.33 43.394 0.406 7.77 3.39 10.25
12/26/2021 4:15:00 AM 6.32 43.376 0.406 7.77 3.34 10.14
12/26/2021 4:30:00 AM 6.3 43.34 0.406 7.77 3.24 10.23
12/26/2021 4:45:00 AM 6.3 43.34 0.405 7.77 3.27 10.24
12/26/2021 5:00:00 AM 6.29 43.322 0.405 7.77 3.6 10.25
12/26/2021 5:15:00 AM 6.28 43.304 0.405 7.76 3.86 10.23
12/26/2021 5:30:00 AM 6.26 43.268 0.405 7.76 2.97 10.21
12/26/2021 5:45:00 AM 6.23 43.214 0.405 7.76 3.28 10.26
12/26/2021 6:00:00 AM 6.21 43.178 0.404 7.76 3.66 10.16
12/26/2021 6:15:00 AM 6.17 43.106 0.404 7.76 3.03 10.28
12/26/2021 6:30:00 AM 6.14 43.052 0.404 7.76 3.09 10.27
12/26/2021 6:45:00 AM 6.11 42.998 0.404 7.76 3.28 10.23
12/26/2021 7:00:00 AM 6.07 42.926 0.404 7.76 3.2 10.19
12/26/2021 7:15:00 AM 6.03 42.854 0.404 7.75 4.61 10.3
12/26/2021 7:30:00 AM 5.99 42.782 0.404 7.76 4.1 10.26
12/26/2021 7:45:00 AM 5.96 42.728 0.404 7.76 3.51 10.34
12/26/2021 8:00:00 AM 5.93 42.674 0.404 7.76 3.23 10.32
12/26/2021 8:15:00 AM 5.91 42.638 0.402 7.77 3.06 10.41
12/26/2021 8:30:00 AM 5.89 42.602 0.402 7.78 3.34 10.62
12/26/2021 8:45:00 AM 5.9 42.62 0.402 7.8 3.39 10.77
12/26/2021 9:00:00 AM 5.92 42.656 0.402 7.82 3.24 10.98
12/26/2021 9:15:00 AM 5.96 42.728 0.402 7.84 3.18 11.22
12/26/2021 9:30:00 AM 6 42.8 0.402 7.86 3.19 11.39
12/26/2021 9:45:00 AM 6.05 42.89 0.402 7.89 3.15 11.61
12/26/2021 10:00:00 AM 6.1 42.98 0.401 7.92 3.19 11.88
12/26/2021 10:15:00 AM 6.17 43.106 0.401 7.95 3.1 12.1
12/26/2021 10:30:00 AM 6.25 43.25 0.401 7.98 3.1 12.31
12/26/2021 10:45:00 AM 6.34 43.412 0.401 8.01 3.1 12.56
12/26/2021 11:00:00 AM 6.43 43.574 0.4 8.03 3.64 12.7
12/26/2021 11:15:00 AM 6.52 43.736 0.4 8.07 3.21 12.92
12/26/2021 11:30:00 AM 6.63 43.934 0.4 8.1 3.04 13.13
12/26/2021 11:45:00 AM 6.73 44.114 0.4 8.13 3.45 13.29
12/26/2021 12:00:00 PM 6.82 44.276 0.4 8.16 4.03 13.45
12/26/2021 12:15:00 PM 6.9 44.42 0.4 8.18 3 13.53
12/26/2021 12:30:00 PM 6.97 44.546 0.4 8.2 3.55 13.6
12/26/2021 12:45:00 PM 7.03 44.654 0.399 8.22 3.08 13.72
12/26/2021 1:00:00 PM 7.08 44.744 0.399 8.24 3.05 13.76
12/26/2021 1:15:00 PM 7.12 44.816 0.399 8.25 3.02 13.83
12/26/2021 1:30:00 PM 7.16 44.888 0.399 8.26 3.01 13.86
12/26/2021 1:45:00 PM 7.18 44.924 0.399 8.28 5.15 13.91
12/26/2021 2:00:00 PM 7.19 44.942 0.4 8.28 3.31 13.9
12/26/2021 2:15:00 PM 7.19 44.942 0.399 8.29 3.33 13.92
12/26/2021 2:30:00 PM 7.17 44.906 0.4 8.29 2.98 13.91
12/26/2021 2:45:00 PM 7.15 44.87 0.4 8.29 3.75 13.86
12/26/2021 3:00:00 PM 7.12 44.816 0.4 8.29 3.06 13.86
12/26/2021 3:15:00 PM 7.08 44.744 0.4 8.28 2.7 13.75
12/26/2021 3:30:00 PM 7.05 44.69 0.401 8.27 2.7 13.67
12/26/2021 3:45:00 PM 7.01 44.618 0.401 8.26 2.98 13.59
12/26/2021 4:00:00 PM 6.97 44.546 0.402 8.24 2.64 13.47
12/26/2021 4:15:00 PM 6.94 44.492 0.402 8.23 3.22 13.36
12/26/2021 4:30:00 PM 6.92 44.456 0.402 8.21 3.9 13.21
12/26/2021 4:45:00 PM 6.88 44.384 0.402 8.19 3.15 13.1
12/26/2021 5:00:00 PM 6.85 44.33 0.403 8.16 2.75 12.92
12/26/2021 5:15:00 PM 6.81 44.258 0.403 8.13 2.6 12.72
12/26/2021 5:30:00 PM 6.77 44.186 0.404 8.1 2.76 12.48
12/26/2021 5:45:00 PM 6.73 44.114 0.404 8.07 3.05 12.29
12/26/2021 6:00:00 PM 6.69 44.042 0.404 8.04 2.59 12.13
12/26/2021 6:15:00 PM 6.66 43.988 0.404 8.02 2.5 11.98
12/26/2021 6:30:00 PM 6.63 43.934 0.404 8 2.9 11.8
12/26/2021 6:45:00 PM 6.6 43.88 0.405 7.99 2.93 11.73
12/26/2021 7:00:00 PM 6.57 43.826 0.405 7.98 2.66 11.67
12/26/2021 7:15:00 PM 6.53 43.754 0.405 7.97 2.53 11.61
12/26/2021 7:30:00 PM 6.5 43.7 0.405 7.96 2.67 11.58
12/26/2021 7:45:00 PM 6.47 43.646 0.405 7.96 2.65 11.5
12/26/2021 8:00:00 PM 6.43 43.574 0.405 7.95 2.88 11.5
12/26/2021 8:15:00 PM 6.4 43.52 0.405 7.95 2.44 11.4
12/26/2021 8:30:00 PM 6.37 43.466 0.406 7.94 2.54 11.42
12/26/2021 8:45:00 PM 6.34 43.412 0.406 7.93 3 11.36
12/26/2021 9:00:00 PM 6.3 43.34 0.406 7.93 2.79 11.35
12/26/2021 9:15:00 PM 6.26 43.268 0.406 7.92 2.55 11.31
12/26/2021 9:30:00 PM 6.22 43.196 0.407 7.92 2.53 11.29
12/26/2021 9:45:00 PM 6.18 43.124 0.407 7.91 2.56 11.25
12/26/2021 10:00:00 PM 6.13 43.034 0.407 7.9 2.61 11.18
12/26/2021 10:15:00 PM 6.08 42.944 0.407 7.89 2.64 11.15
12/26/2021 10:30:00 PM 6.02 42.836 0.408 7.88 2.46 11.13
12/26/2021 10:45:00 PM 5.97 42.746 0.408 7.88 2.62 11.06
12/26/2021 11:00:00 PM 5.91 42.638 0.408 7.87 2.48 11
12/26/2021 11:15:00 PM 5.85 42.53 0.409 7.86 2.56 10.97
12/26/2021 11:30:00 PM 5.79 42.422 0.409 7.85 2.88 10.95
12/26/2021 11:45:00 PM 5.73 42.314 0.409 7.85 2.54 10.94
12/27/2021 12:00:00 AM 5.67 42.206 0.409 7.84 2.41 10.94
12/27/2021 12:15:00 AM 5.62 42.116 0.409 7.84 2.41 10.92
12/27/2021 12:30:00 AM 5.56 42.008 0.41 7.83 2.39 10.91
12/27/2021 12:45:00 AM 5.5 41.9 0.41 7.83 2.47 10.87
12/27/2021 1:00:00 AM 5.45 41.81 0.41 7.82 2.4 10.85
12/27/2021 1:15:00 AM 5.39 41.702 0.411 7.82 2.55 10.86
12/27/2021 1:30:00 AM 5.34 41.612 0.411 7.81 2.45 10.86
12/27/2021 1:45:00 AM 5.29 41.522 0.411 7.81 2.53 10.81
12/27/2021 2:00:00 AM 5.24 41.432 0.412 7.81 2.5 10.82
12/27/2021 2:15:00 AM 5.2 41.36 0.412 7.8 2.47 10.83
12/27/2021 2:30:00 AM 5.15 41.27 0.412 7.8 2.42 10.8
12/27/2021 2:45:00 AM 5.12 41.216 0.412 7.8 2.61 10.8
12/27/2021 3:00:00 AM 5.09 41.162 0.413 7.8 2.37 10.75
12/27/2021 3:15:00 AM 5.07 41.126 0.413 7.79 2.39 10.78
12/27/2021 3:30:00 AM 5.05 41.09 0.413 7.79 2.49 10.78
12/27/2021 3:45:00 AM 5.03 41.054 0.413 7.79 2.36 10.78
12/27/2021 4:00:00 AM 5.03 41.054 0.413 7.79 2.74 10.77
12/27/2021 4:15:00 AM 5.01 41.018 0.414 7.79 2.46 10.79
12/27/2021 4:30:00 AM 4.99 40.982 0.414 7.78 2.37 10.78
12/27/2021 4:45:00 AM 4.98 40.964 0.414 7.78 3.19 10.74
12/27/2021 5:00:00 AM 4.97 40.946 0.414 7.78 2.36 10.76
12/27/2021 5:15:00 AM 4.96 40.928 0.414 7.78 2.4 10.73
12/27/2021 5:30:00 AM 4.95 40.91 0.415 7.77 2.24 10.7
12/27/2021 5:45:00 AM 4.94 40.892 0.415 7.77 2.3 10.7
12/27/2021 6:00:00 AM 4.93 40.874 0.415 7.77 2.22 10.72
12/27/2021 6:15:00 AM 4.92 40.856 0.415 7.77 2.4 10.72
12/27/2021 6:30:00 AM 4.9 40.82 0.416 7.77 2.3 10.77
12/27/2021 6:45:00 AM 4.89 40.802 0.415 7.77 2.39 10.75
12/27/2021 7:00:00 AM 4.88 40.784 0.415 7.77 2.4 10.69
12/27/2021 7:15:00 AM 4.87 40.766 0.416 7.77 2.26 10.72
12/27/2021 7:30:00 AM 4.86 40.748 0.416 7.76 2.35 10.68
12/27/2021 7:45:00 AM 4.85 40.73 0.416 7.76 2.38 10.77
12/27/2021 8:00:00 AM 4.84 40.712 0.416 7.76 2.35 10.75
12/27/2021 8:15:00 AM 4.84 40.712 0.416 7.77 2.68 10.79
12/27/2021 8:30:00 AM 4.83 40.694 0.415 7.77 2.19 10.87
12/27/2021 8:45:00 AM 4.83 40.694 0.416 7.78 2.48 10.93
12/27/2021 9:00:00 AM 4.83 40.694 0.416 7.78 2.33 10.99
12/27/2021 9:15:00 AM 4.85 40.73 0.416 7.8 2.29 11.15
12/27/2021 9:30:00 AM 4.88 40.784 0.416 7.82 2.33 11.43
12/27/2021 9:45:00 AM 4.91 40.838 0.416 7.85 2.43 11.71
12/27/2021 10:00:00 AM 4.92 40.856 0.415 7.86 2.34 11.81
12/27/2021 10:15:00 AM 4.94 40.892 0.415 7.88 2.51 11.97
12/27/2021 10:30:00 AM 4.95 40.91 0.415 7.9 2.63 12.2
12/27/2021 10:45:00 AM 4.91 40.838 0.415 7.91 2.28 12.18
12/27/2021 11:00:00 AM 4.88 40.784 0.415 7.91 2.36 12.21
12/27/2021 11:15:00 AM 4.75 40.55 0.414 7.93 2.41 12.29
12/27/2021 11:30:00 AM 4.69 40.442 0.414 7.94 2.7 12.38
12/27/2021 11:45:00 AM 4.62 40.316 0.413 7.96 2.27 12.38
12/27/2021 12:00:00 PM 4.43 39.974 0.413 7.97 2.31 12.61
12/27/2021 12:15:00 PM 4.38 39.884 0.412 8 2.28 12.76
12/27/2021 12:30:00 PM 4.38 39.884 0.411 8.02 2.28 12.98
12/27/2021 12:45:00 PM 4.32 39.776 0.411 8.04 2.29 13.16
12/27/2021 1:00:00 PM 4.35 39.83 0.411 8.06 2.28 13.24
12/27/2021 1:15:00 PM 4.4 39.92 0.411 8.08 2.88 13.38
12/27/2021 1:30:00 PM 4.47 40.046 0.411 8.1 2.55 13.48
12/27/2021 1:45:00 PM 4.53 40.154 0.412 8.12 2.25 13.58
12/27/2021 2:00:00 PM 4.6 40.28 0.412 8.13 2.28 13.66
12/27/2021 2:15:00 PM 4.65 40.37 0.412 8.14 2.24 13.73
12/27/2021 2:30:00 PM 4.7 40.46 0.412 8.15 2.29 13.7
12/27/2021 2:45:00 PM 4.76 40.568 0.412 8.15 2.37 13.75
12/27/2021 3:00:00 PM 4.79 40.622 0.412 8.16 3.01 13.73
12/27/2021 3:15:00 PM 4.81 40.658 0.412 8.15 2.54 13.69
12/27/2021 3:30:00 PM 4.82 40.676 0.412 8.14 2.6 13.66
12/27/2021 3:45:00 PM 4.81 40.658 0.412 8.13 2.27 13.55
12/27/2021 4:00:00 PM 4.8 40.64 0.412 8.11 2.59 13.42
12/27/2021 4:15:00 PM 4.78 40.604 0.412 8.09 2.36 13.3
12/27/2021 4:30:00 PM 4.76 40.568 0.412 8.07 2.16 13.17
12/27/2021 4:45:00 PM 4.73 40.514 0.412 8.05 2.28 12.99
12/27/2021 5:00:00 PM 4.7 40.46 0.412 8.03 2.23 12.84
12/27/2021 5:15:00 PM 4.68 40.424 0.412 8.01 2.29 12.67
12/27/2021 5:30:00 PM 4.66 40.388 0.412 7.99 2.24 12.53
12/27/2021 5:45:00 PM 4.64 40.352 0.412 7.97 2.23 12.41
12/27/2021 6:00:00 PM 4.62 40.316 0.412 7.95 2.26 12.28
12/27/2021 6:15:00 PM 4.61 40.298 0.412 7.94 2.28 12.16
12/27/2021 6:30:00 PM 4.61 40.298 0.412 7.93 2.25 12.12
12/27/2021 6:45:00 PM 4.6 40.28 0.412 7.93 2.19 12.1
12/27/2021 7:00:00 PM 4.6 40.28 0.412 7.92 2.14 12.05
12/27/2021 7:15:00 PM 4.6 40.28 0.412 7.92 2.36 12
12/27/2021 7:30:00 PM 4.6 40.28 0.411 7.91 2.29 12.02
12/27/2021 7:45:00 PM 4.6 40.28 0.411 7.91 2.24 11.98
12/27/2021 8:00:00 PM 4.6 40.28 0.411 7.91 2.14 11.89
12/27/2021 8:15:00 PM 4.61 40.298 0.412 7.91 2.34 11.89
12/27/2021 8:30:00 PM 4.61 40.298 0.412 7.9 2.29 11.88
12/27/2021 8:45:00 PM 4.61 40.298 0.412 7.9 2.33 11.82
12/27/2021 9:00:00 PM 4.61 40.298 0.412 7.89 2.17 11.8
12/27/2021 9:15:00 PM 4.61 40.298 0.412 7.89 2.39 11.79
12/27/2021 9:30:00 PM 4.61 40.298 0.411 7.89 2.21 11.73
12/27/2021 9:45:00 PM 4.62 40.316 0.412 7.88 2.38 11.63
12/27/2021 10:00:00 PM 4.62 40.316 0.412 7.88 2.36 11.68
12/27/2021 10:15:00 PM 4.62 40.316 0.411 7.87 2.22 11.63
12/27/2021 10:30:00 PM 4.61 40.298 0.411 7.87 2.43 11.63
12/27/2021 10:45:00 PM 4.61 40.298 0.411 7.86 2.55 11.57
12/27/2021 11:00:00 PM 4.62 40.316 0.411 7.85 2.45 11.52
12/27/2021 11:15:00 PM 4.62 40.316 0.411 7.85 2.48 11.48
12/27/2021 11:30:00 PM 4.62 40.316 0.411 7.84 2.32 11.43
12/27/2021 11:45:00 PM 4.62 40.316 0.411 7.84 2.35 11.42
12/28/2021 12:00:00 AM 4.62 40.316 0.411 7.83 2.66 11.37
12/28/2021 12:15:00 AM 4.62 40.316 0.411 7.83 3.82 11.33
12/28/2021 12:30:00 AM 4.62 40.316 0.412 7.82 2.39 11.29
12/28/2021 12:45:00 AM 4.62 40.316 0.412 7.82 2.32 11.31
12/28/2021 1:00:00 AM 4.63 40.334 0.412 7.82 2.46 11.27
12/28/2021 1:15:00 AM 4.62 40.316 0.412 7.81 2.43 11.2
12/28/2021 1:30:00 AM 4.61 40.298 0.411 7.81 2.41 11.23
12/28/2021 1:45:00 AM 4.6 40.28 0.412 7.81 2.34 11.21
12/28/2021 2:00:00 AM 4.59 40.262 0.412 7.81 2.46 11.18
12/28/2021 2:15:00 AM 4.59 40.262 0.412 7.8 3.64 11.17
12/28/2021 2:30:00 AM 4.58 40.244 0.412 7.8 2.55 11.18
12/28/2021 2:45:00 AM 4.57 40.226 0.412 7.8 2.63 11.09
12/28/2021 3:00:00 AM 4.57 40.226 0.412 7.8 2.46 11.08
12/28/2021 3:15:00 AM 4.58 40.244 0.412 7.8 2.34 11.03
12/28/2021 3:30:00 AM 4.58 40.244 0.412 7.79 2.42 11.05
12/28/2021 3:45:00 AM 4.59 40.262 0.412 7.79 2.47 11.14
12/28/2021 4:00:00 AM 4.59 40.262 0.412 7.79 2.5 11.05
12/28/2021 4:15:00 AM 4.58 40.244 0.412 7.79 2.59 11.09
12/28/2021 4:30:00 AM 4.55 40.19 0.411 7.79 2.47 11.08
12/28/2021 4:45:00 AM 4.52 40.136 0.412 7.79 3.53 11.07
12/28/2021 5:00:00 AM 4.49 40.082 0.412 7.79 2.54 11.04
12/28/2021 5:15:00 AM 4.46 40.028 0.412 7.79 2.28 11.09
12/28/2021 5:30:00 AM 4.43 39.974 0.412 7.79 2.37 11.07
12/28/2021 5:45:00 AM 4.39 39.902 0.412 7.79 2.47 11.1
12/28/2021 6:00:00 AM 4.35 39.83 0.412 7.79 2.41 11.11
12/28/2021 6:15:00 AM 4.32 39.776 0.412 7.79 2.35 11.08
12/28/2021 6:30:00 AM 4.3 39.74 0.412 7.78 2.32 11.1
12/28/2021 6:45:00 AM 4.28 39.704 0.413 7.78 2.36 11.08
12/28/2021 7:00:00 AM 4.26 39.668 0.413 7.79 2.31 11.13
12/28/2021 7:15:00 AM 4.26 39.668 0.413 7.78 2.31 11.11
12/28/2021 7:30:00 AM 4.26 39.668 0.413 7.78 4.35 11.14
12/28/2021 7:45:00 AM 4.27 39.686 0.412 7.79 2.49 11.16
12/28/2021 8:00:00 AM 4.28 39.704 0.412 7.79 2.33 11.19
12/28/2021 8:15:00 AM 4.3 39.74 0.413 7.8 2.36 11.29
12/28/2021 8:30:00 AM 4.31 39.758 0.413 7.81 2.24 11.4
12/28/2021 8:45:00 AM 4.32 39.776 0.412 7.82 2.35 11.52
12/28/2021 9:00:00 AM 4.33 39.794 0.412 7.84 2.32 11.7
12/28/2021 9:15:00 AM 4.33 39.794 0.412 7.86 2.6 11.85
12/28/2021 9:30:00 AM 4.32 39.776 0.411 7.88 2.36 12.04
12/28/2021 9:45:00 AM 4.32 39.776 0.411 7.9 2.51 12.25
12/28/2021 10:00:00 AM 4.36 39.848 0.411 7.93 2.66 12.49
12/28/2021 10:15:00 AM 4.39 39.902 0.411 7.96 2.5 12.76
12/28/2021 10:30:00 AM 4.43 39.974 0.411 7.99 2.52 13.04
12/28/2021 10:45:00 AM 4.47 40.046 0.411 8.02 2.28 13.23
12/28/2021 11:00:00 AM 4.5 40.1 0.41 8.04 2.47 13.31
12/28/2021 11:15:00 AM 4.53 40.154 0.41 8.06 2.38 13.41
12/28/2021 11:30:00 AM 4.55 40.19 0.41 8.07 2.38 13.45
12/28/2021 11:45:00 AM 4.57 40.226 0.41 8.08 2.92 13.46
12/28/2021 12:00:00 PM 4.59 40.262 0.41 8.08 3.36 13.46
12/28/2021 12:15:00 PM 4.61 40.298 0.41 8.09 2.58 13.47
12/28/2021 12:30:00 PM 4.63 40.334 0.41 8.09 2.39 13.51
12/28/2021 12:45:00 PM 4.66 40.388 0.41 8.1 2.51 13.5
12/28/2021 1:00:00 PM 4.69 40.442 0.41 8.12 2.59 13.65
12/28/2021 1:15:00 PM 4.71 40.478 0.409 8.13 2.51 13.69
12/28/2021 1:30:00 PM 4.72 40.496 0.41 8.14 2.44 13.72
12/28/2021 1:45:00 PM 4.74 40.532 0.41 8.13 2.47 13.68
12/28/2021 2:00:00 PM 4.76 40.568 0.409 8.13 2.48 13.62
12/28/2021 2:15:00 PM 4.77 40.586 0.41 8.12 2.61 13.58
12/28/2021 2:30:00 PM 4.79 40.622 0.41 8.12 2.57 13.53
12/28/2021 2:45:00 PM 4.8 40.64 0.41 8.11 2.57 13.47
12/28/2021 3:00:00 PM 4.82 40.676 0.41 8.1 2.42 13.43
12/28/2021 3:15:00 PM 4.83 40.694 0.41 8.09 2.65 13.34
12/28/2021 3:30:00 PM 4.84 40.712 0.41 8.08 2.54 13.21
12/28/2021 3:45:00 PM 4.85 40.73 0.41 8.07 2.47 13.15
12/28/2021 4:00:00 PM 4.86 40.748 0.41 8.05 2.37 13.04
12/28/2021 4:15:00 PM 4.86 40.748 0.41 8.04 2.55 12.9
12/28/2021 4:30:00 PM 4.87 40.766 0.41 8.02 2.46 12.74
12/28/2021 4:45:00 PM 4.88 40.784 0.41 8.01 2.28 12.54
12/28/2021 5:00:00 PM 4.88 40.784 0.41 7.99 2.46 12.58
12/28/2021 5:15:00 PM 4.89 40.802 0.41 7.98 2.67 12.46
12/28/2021 5:30:00 PM 4.9 40.82 0.41 7.97 2.43 12.3
12/28/2021 5:45:00 PM 4.91 40.838 0.41 7.96 2.42 12.29
12/28/2021 6:00:00 PM 4.92 40.856 0.41 7.95 2.28 12.23
12/28/2021 6:15:00 PM 4.93 40.874 0.41 7.94 2.25 12.14
12/28/2021 6:30:00 PM 4.94 40.892 0.41 7.93 2.4 12.06
12/28/2021 6:45:00 PM 4.95 40.91 0.41 7.93 2.39 12.02
12/28/2021 7:00:00 PM 4.97 40.946 0.41 7.92 2.52 12.01
12/28/2021 7:15:00 PM 4.98 40.964 0.41 7.92 2.43 11.95
12/28/2021 7:30:00 PM 5 41 0.41 7.91 2.46 11.92
12/28/2021 7:45:00 PM 5.01 41.018 0.41 7.91 2.53 11.89
12/28/2021 8:00:00 PM 5.02 41.036 0.41 7.9 2.78 11.84
12/28/2021 8:15:00 PM 5.03 41.054 0.41 7.9 2.78 11.79
12/28/2021 8:30:00 PM 5.04 41.072 0.41 7.89 2.49 11.72
12/28/2021 8:45:00 PM 5.05 41.09 0.41 7.89 2.66 11.69
12/28/2021 9:00:00 PM 5.06 41.108 0.41 7.88 2.47 11.67
12/28/2021 9:15:00 PM 5.08 41.144 0.411 7.88 2.81 11.63
12/28/2021 9:30:00 PM 5.09 41.162 0.411 7.87 2.59 11.55
12/28/2021 9:45:00 PM 5.1 41.18 0.411 7.86 2.53 11.5
12/28/2021 10:00:00 PM 5.1 41.18 0.411 7.86 2.49 11.48
12/28/2021 10:15:00 PM 5.11 41.198 0.412 7.86 2.44 11.43
12/28/2021 10:30:00 PM 5.12 41.216 0.411 7.85 2.8 11.37
12/28/2021 10:45:00 PM 5.12 41.216 0.412 7.84 2.44 11.31
12/28/2021 11:00:00 PM 5.13 41.234 0.411 7.84 2.47 11.26
12/28/2021 11:15:00 PM 5.13 41.234 0.411 7.84 2.46 11.23
12/28/2021 11:30:00 PM 5.13 41.234 0.412 7.83 2.46 11.23
12/28/2021 11:45:00 PM 5.14 41.252 0.412 7.83 2.46 11.15
12/29/2021 12:00:00 AM 5.14 41.252 0.412 7.83 2.49 11.06
12/29/2021 12:15:00 AM 5.14 41.252 0.412 7.82 2.55 11.09
12/29/2021 12:30:00 AM 5.15 41.27 0.412 7.82 2.8 11.09
12/29/2021 12:45:00 AM 5.15 41.27 0.412 7.82 2.94 11.05
12/29/2021 1:00:00 AM 5.16 41.288 0.413 7.81 2.43 11.06
12/29/2021 1:15:00 AM 5.16 41.288 0.413 7.81 2.29 11.05
12/29/2021 1:30:00 AM 5.17 41.306 0.413 7.81 2.33 11.04
12/29/2021 1:45:00 AM 5.17 41.306 0.413 7.81 2.29 11
12/29/2021 2:00:00 AM 5.18 41.324 0.413 7.81 2.52 11.01
12/29/2021 2:15:00 AM 5.19 41.342 0.412 7.8 2.37 10.99
12/29/2021 2:30:00 AM 5.19 41.342 0.413 7.8 2.53 10.74
12/29/2021 2:45:00 AM 5.2 41.36 0.413 7.8 2.78 10.83
12/29/2021 3:00:00 AM 5.21 41.378 0.413 7.8 2.3 10.87
12/29/2021 3:15:00 AM 5.22 41.396 0.413 7.79 2.55 10.71
12/29/2021 3:30:00 AM 5.23 41.414 0.413 7.79 2.56 10.88
12/29/2021 3:45:00 AM 5.24 41.432 0.413 7.79 2.48 10.88
12/29/2021 4:00:00 AM 5.25 41.45 0.413 7.79 2.43 10.88
12/29/2021 4:15:00 AM 5.26 41.468 0.413 7.79 2.47 10.85
12/29/2021 4:30:00 AM 5.27 41.486 0.414 7.79 2.51 10.8
12/29/2021 4:45:00 AM 5.27 41.486 0.414 7.78 2.56 10.83
12/29/2021 5:00:00 AM 5.28 41.504 0.414 7.78 2.54 10.78
12/29/2021 5:15:00 AM 5.29 41.522 0.415 7.78 2.39 10.82
12/29/2021 5:30:00 AM 5.29 41.522 0.415 7.78 2.47 10.72
12/29/2021 5:45:00 AM 5.3 41.54 0.414 7.78 2.36 10.7
12/29/2021 6:00:00 AM 5.3 41.54 0.414 7.78 2.42 10.48
12/29/2021 6:15:00 AM 5.3 41.54 0.414 7.78 2.24 10.74
12/29/2021 6:30:00 AM 5.3 41.54 0.414 7.77 2.4 10.7
12/29/2021 6:45:00 AM 5.3 41.54 0.414 7.77 2.44 10.65
12/29/2021 7:00:00 AM 5.3 41.54 0.415 7.77 2.27 10.76
12/29/2021 7:15:00 AM 5.31 41.558 0.415 7.77 2.31 10.71
12/29/2021 7:30:00 AM 5.32 41.576 0.414 7.77 2.55 10.74
12/29/2021 7:45:00 AM 5.33 41.594 0.415 7.77 2.17 10.73
12/29/2021 8:00:00 AM 5.34 41.612 0.415 7.77 2.3 10.73
12/29/2021 8:15:00 AM 5.37 41.666 0.414 7.78 2.33 10.82
12/29/2021 8:30:00 AM 5.39 41.702 0.414 7.79 2.34 10.92
12/29/2021 8:45:00 AM 5.43 41.774 0.414 7.81 2.14 11.09
12/29/2021 9:00:00 AM 5.46 41.828 0.413 7.82 2.36 11.24
12/29/2021 9:15:00 AM 5.5 41.9 0.414 7.84 2.18 11.42
12/29/2021 9:30:00 AM 5.53 41.954 0.414 7.86 2.82 11.6
12/29/2021 9:45:00 AM 5.58 42.044 0.413 7.89 2.5 11.81
12/29/2021 10:00:00 AM 5.62 42.116 0.413 7.92 2.16 12.04
12/29/2021 10:15:00 AM 5.67 42.206 0.413 7.94 2.22 12.22
12/29/2021 10:30:00 AM 5.72 42.296 0.413 7.98 2.16 12.44
12/29/2021 10:45:00 AM 5.76 42.368 0.412 8.01 2.18 12.74
12/29/2021 11:00:00 AM 5.82 42.476 0.412 8.04 2.04 12.94
12/29/2021 11:15:00 AM 5.88 42.584 0.412 8.08 2.2 13.18
12/29/2021 11:30:00 AM 5.94 42.692 0.411 8.11 2.49 13.34
12/29/2021 11:45:00 AM 5.99 42.782 0.411 8.14 2.26 13.55
12/29/2021 12:00:00 PM 6.09 42.962 0.411 8.17 2.8 13.68
12/29/2021 12:15:00 PM 6.19 43.142 0.41 8.2 2.83 13.85
12/29/2021 12:30:00 PM 6.25 43.25 0.41 8.23 2.41 14.01
12/29/2021 12:45:00 PM 6.37 43.466 0.41 8.26 2.37 14.09
12/29/2021 1:00:00 PM 6.45 43.61 0.409 8.27 2.31 14.1
12/29/2021 1:15:00 PM 6.54 43.772 0.409 8.29 2.16 14.2
12/29/2021 1:30:00 PM 6.62 43.916 0.409 8.31 2.36 14.29
12/29/2021 1:45:00 PM 6.63 43.934 0.409 8.31 2.19 14.27
12/29/2021 2:00:00 PM 6.68 44.024 0.409 8.33 2.19 14.32
12/29/2021 2:15:00 PM 6.73 44.114 0.408 8.34 2.26 14.37
12/29/2021 2:30:00 PM 6.74 44.132 0.408 8.35 2.24 14.39
12/29/2021 2:45:00 PM 6.73 44.114 0.408 8.36 2.38 14.4
12/29/2021 3:00:00 PM 6.73 44.114 0.409 8.37 2.37 14.42
12/29/2021 3:15:00 PM 6.75 44.15 0.408 8.38 10.41 14.48
12/29/2021 3:30:00 PM 6.74 44.132 0.408 8.38 4.28 14.41
12/29/2021 3:45:00 PM 6.73 44.114 0.408 8.38 4.01 14.37
12/29/2021 4:00:00 PM 6.71 44.078 0.408 8.37 9.23 14.28
12/29/2021 4:15:00 PM 6.7 44.06 0.408 8.35 2.5 14.18
12/29/2021 4:30:00 PM 6.68 44.024 0.408 8.32 2.67 13.96
12/29/2021 4:45:00 PM 6.66 43.988 0.409 8.29 2.68 13.73
12/29/2021 5:00:00 PM 6.64 43.952 0.409 8.25 2.41 13.49
12/29/2021 5:15:00 PM 6.62 43.916 0.41 8.21 2.48 13.19
12/29/2021 5:30:00 PM 6.62 43.916 0.41 8.16 2.55 12.89
12/29/2021 5:45:00 PM 6.6 43.88 0.411 8.12 2.47 12.68
12/29/2021 6:00:00 PM 6.59 43.862 0.41 8.09 2.59 12.45
12/29/2021 6:15:00 PM 6.59 43.862 0.411 8.07 2.24 12.27
12/29/2021 6:30:00 PM 6.59 43.862 0.411 8.04 2.56 12.14
12/29/2021 6:45:00 PM 6.59 43.862 0.41 8.03 2.26 12.01
12/29/2021 7:00:00 PM 6.6 43.88 0.411 8.01 2.68 11.92
12/29/2021 7:15:00 PM 6.6 43.88 0.41 8 2.5 11.85
12/29/2021 7:30:00 PM 6.61 43.898 0.41 8 2.4 11.79
12/29/2021 7:45:00 PM 6.61 43.898 0.411 7.99 2.32 11.57
12/29/2021 8:00:00 PM 6.62 43.916 0.41 7.99 2.17 11.47
12/29/2021 8:15:00 PM 6.62 43.916 0.411 7.98 2.28 11.61
12/29/2021 8:30:00 PM 6.63 43.934 0.411 7.98 2.39 11.63
12/29/2021 8:45:00 PM 6.63 43.934 0.411 7.97 2.37 11.56
12/29/2021 9:00:00 PM 6.64 43.952 0.411 7.97 2.4 11.42
12/29/2021 9:15:00 PM 6.64 43.952 0.411 7.96 2.6 11.34
12/29/2021 9:30:00 PM 6.64 43.952 0.411 7.95 2.36 11.17
12/29/2021 9:45:00 PM 6.63 43.934 0.411 7.94 2.45 11.34
12/29/2021 10:00:00 PM 6.63 43.934 0.411 7.93 2.33 11.14
12/29/2021 10:15:00 PM 6.63 43.934 0.412 7.92 2.24 11.17
12/29/2021 10:30:00 PM 6.63 43.934 0.412 7.91 2.25 10.99
12/29/2021 10:45:00 PM 6.63 43.934 0.412 7.9 2.45 10.84
12/29/2021 11:00:00 PM 6.63 43.934 0.412 7.89 2.41 10.83
12/29/2021 11:15:00 PM 6.63 43.934 0.412 7.89 2.53 10.62
12/29/2021 11:30:00 PM 6.63 43.934 0.412 7.87 2.34 10.65
12/29/2021 11:45:00 PM 6.63 43.934 0.413 7.87 2.23 10.7
12/30/2021 12:00:00 AM 6.63 43.934 0.413 7.86 2.41 10.65
12/30/2021 12:15:00 AM 6.63 43.934 0.413 7.85 2.3 10.49
12/30/2021 12:30:00 AM 6.63 43.934 0.412 7.85 2.53 10.6
12/30/2021 12:45:00 AM 6.63 43.934 0.412 7.84 2.48 10.51
12/30/2021 1:00:00 AM 6.63 43.934 0.412 7.83 2.4 10.59
12/30/2021 1:15:00 AM 6.63 43.934 0.412 7.83 2.33 10.57
12/30/2021 1:30:00 AM 6.63 43.934 0.412 7.82 2.41 10.52
12/30/2021 1:45:00 AM 6.63 43.934 0.412 7.82 2.31 10.53
12/30/2021 2:00:00 AM 6.63 43.934 0.412 7.81 2.33 10.54
12/30/2021 2:15:00 AM 6.64 43.952 0.412 7.81 2.37 10.42
12/30/2021 2:30:00 AM 6.64 43.952 0.411 7.8 2.57 10.52
12/30/2021 2:45:00 AM 6.64 43.952 0.411 7.8 2.42 10.45
12/30/2021 3:00:00 AM 6.65 43.97 0.412 7.79 2.37 10.42
12/30/2021 3:15:00 AM 6.65 43.97 0.412 7.79 2.36 10.37
12/30/2021 3:30:00 AM 6.66 43.988 0.412 7.78 2.5 10.38
12/30/2021 3:45:00 AM 6.67 44.006 0.412 7.78 2.47 10.34
12/30/2021 4:00:00 AM 6.67 44.006 0.412 7.78 2.52 10.2
12/30/2021 4:15:00 AM 6.68 44.024 0.413 7.77 2.42 10.17
12/30/2021 4:30:00 AM 6.69 44.042 0.413 7.77 2.62 10.28
12/30/2021 4:45:00 AM 6.7 44.06 0.413 7.77 2.55 10.22
12/30/2021 5:00:00 AM 6.71 44.078 0.413 7.77 2.52 10.19
12/30/2021 5:15:00 AM 6.72 44.096 0.413 7.77 2.44 10.2
12/30/2021 5:30:00 AM 6.73 44.114 0.413 7.76 2.78 10.15
12/30/2021 5:45:00 AM 6.74 44.132 0.413 7.76 2.34 10.12
12/30/2021 6:00:00 AM 6.75 44.15 0.414 7.76 2.22 10.1
12/30/2021 6:15:00 AM 6.77 44.186 0.414 7.76 2.44 10.04
12/30/2021 6:30:00 AM 6.78 44.204 0.413 7.76 2.37 10.09
12/30/2021 6:45:00 AM 6.79 44.222 0.413 7.75 2.31 10.13
12/30/2021 7:00:00 AM 6.8 44.24 0.413 7.75 2.53 10.16
12/30/2021 7:15:00 AM 6.81 44.258 0.413 7.75 2.67 10.14
12/30/2021 7:30:00 AM 6.82 44.276 0.413 7.75 2.46 10.07
12/30/2021 7:45:00 AM 6.83 44.294 0.413 7.75 5.89 10.11
12/30/2021 8:00:00 AM 6.84 44.312 0.413 7.75 2.48 9.99
12/30/2021 8:15:00 AM 6.85 44.33 0.413 7.75 3.79 10.13
12/30/2021 8:30:00 AM 6.87 44.366 0.413 7.76 2.38 10.25
12/30/2021 8:45:00 AM 6.89 44.402 0.413 7.77 2.24 10.26
12/30/2021 9:00:00 AM 6.92 44.456 0.412 7.79 2.78 10.48
12/30/2021 9:15:00 AM 6.95 44.51 0.412 7.81 2.9 10.66
12/30/2021 9:30:00 AM 6.99 44.582 0.412 7.83 2.86 10.87
12/30/2021 9:45:00 AM 7.01 44.618 0.412 7.86 3.98 11.18
12/30/2021 10:00:00 AM 7.04 44.672 0.412 7.88 2.53 11.28
12/30/2021 10:15:00 AM 7.08 44.744 0.411 7.9 2.48 11.55
12/30/2021 10:30:00 AM 7.11 44.798 0.411 7.92 2.4 11.61
12/30/2021 10:45:00 AM 7.15 44.87 0.411 7.95 2.61 11.86
12/30/2021 11:00:00 AM 7.2 44.96 0.411 7.98 2.39 12.04
12/30/2021 11:15:00 AM 7.24 45.032 0.41 8.01 2.77 12.33
12/30/2021 11:30:00 AM 7.3 45.14 0.41 8.04 2.23 12.57
12/30/2021 11:45:00 AM 7.39 45.302 0.41 8.08 2.57 12.79
12/30/2021 12:00:00 PM 7.49 45.482 0.41 8.12 2.96 13
12/30/2021 12:15:00 PM 7.57 45.626 0.409 8.16 2.76 13.25
12/30/2021 12:30:00 PM 7.65 45.77 0.409 8.2 2.34 13.19
12/30/2021 12:45:00 PM 7.71 45.878 0.408 8.22 2.42 13.38
12/30/2021 1:00:00 PM 7.78 46.004 0.408 8.25 2.78 13.62
12/30/2021 1:15:00 PM 7.82 46.076 0.407 8.26 2.6 13.54
12/30/2021 1:30:00 PM 7.85 46.13 0.408 8.28 2.62 13.72
12/30/2021 1:45:00 PM 7.85 46.13 0.408 8.27 2.31 13.53
12/30/2021 2:00:00 PM 7.86 46.148 0.407 8.26 2.4 13.54
12/30/2021 2:15:00 PM 7.86 46.148 0.408 8.25 2.36 13.4
12/30/2021 2:30:00 PM 7.84 46.112 0.408 8.23 2.37 13.29
12/30/2021 2:45:00 PM 7.82 46.076 0.408 8.2 2.26 13.05
12/30/2021 3:00:00 PM 7.81 46.058 0.409 8.18 2.58 12.95
12/30/2021 3:15:00 PM 7.79 46.022 0.409 8.15 2.51 12.73
12/30/2021 3:30:00 PM 7.78 46.004 0.408 8.12 2.49 12.53
12/30/2021 3:45:00 PM 7.77 45.986 0.409 8.1 2.35 12.4
12/30/2021 4:00:00 PM 7.78 46.004 0.409 8.08 2.37 12.25
12/30/2021 4:15:00 PM 7.79 46.022 0.409 8.06 2.3 12.15
12/30/2021 4:30:00 PM 7.81 46.058 0.409 8.04 2.28 12.01
12/30/2021 4:45:00 PM 7.82 46.076 0.409 8.03 2.49 11.93
12/30/2021 5:00:00 PM 7.84 46.112 0.409 8.01 2.44 11.77
12/30/2021 5:15:00 PM 7.86 46.148 0.409 8 2.41 11.63
12/30/2021 5:30:00 PM 7.87 46.166 0.409 7.98 2.95 11.55
12/30/2021 5:45:00 PM 7.89 46.202 0.409 7.97 2.81 11.47
12/30/2021 6:00:00 PM 7.91 46.238 0.409 7.96 2.49 11.27
12/30/2021 6:15:00 PM 7.93 46.274 0.408 7.95 2.74 11.27
12/30/2021 6:30:00 PM 7.94 46.292 0.408 7.95 2.4 11.24
12/30/2021 6:45:00 PM 7.95 46.31 0.408 7.94 2.49 11.17
12/30/2021 7:00:00 PM 7.96 46.328 0.409 7.93 2.55 11.07
12/30/2021 7:15:00 PM 7.97 46.346 0.409 7.93 2.56 11
12/30/2021 7:30:00 PM 7.98 46.364 0.409 7.92 2.36 10.92
12/30/2021 7:45:00 PM 7.99 46.382 0.408 7.91 2.66 10.94
12/30/2021 8:00:00 PM 8 46.4 0.408 7.91 2.78 10.8
12/30/2021 8:15:00 PM 8 46.4 0.408 7.9 2.71 10.79
12/30/2021 8:30:00 PM 8.01 46.418 0.409 7.89 2.77 10.75
12/30/2021 8:45:00 PM 8.01 46.418 0.409 7.88 2.43 10.69
12/30/2021 9:00:00 PM 8.01 46.418 0.408 7.88 2.92 10.61
12/30/2021 9:15:00 PM 8.01 46.418 0.409 7.87 2.8 10.57
12/30/2021 9:30:00 PM 8.02 46.436 0.409 7.86 3.06 10.47
12/30/2021 9:45:00 PM 8.02 46.436 0.409 7.85 2.61 10.34
12/30/2021 10:00:00 PM 8.02 46.436 0.409 7.84 2.63 10.37
12/30/2021 10:15:00 PM 8.02 46.436 0.409 7.84 2.65 10.37
12/30/2021 10:30:00 PM 8.02 46.436 0.41 7.83 3.16 10.33
12/30/2021 10:45:00 PM 8.02 46.436 0.41 7.82 2.52 10.3
12/30/2021 11:00:00 PM 8.02 46.436 0.41 7.82 2.56 10.25
12/30/2021 11:15:00 PM 8.02 46.436 0.41 7.81 2.66 10.2
12/30/2021 11:30:00 PM 8.02 46.436 0.41 7.8 2.51 10.16
12/30/2021 11:45:00 PM 8.02 46.436 0.41 7.8 2.59 10.12
12/31/2021 12:00:00 AM 8.03 46.454 0.41 7.8 2.52 10.05
12/31/2021 12:15:00 AM 8.03 46.454 0.411 7.79 2.49 9.98
12/31/2021 12:30:00 AM 8.03 46.454 0.411 7.79 2.53 9.99
12/31/2021 12:45:00 AM 8.02 46.436 0.411 7.79 2.61 9.95
12/31/2021 1:00:00 AM 8 46.4 0.411 7.78 2.51 9.97
12/31/2021 1:15:00 AM 7.97 46.346 0.411 7.78 2.8 9.82
12/31/2021 1:30:00 AM 7.94 46.292 0.411 7.78 2.67 9.92
12/31/2021 1:45:00 AM 7.9 46.22 0.412 7.77 2.64 9.91
12/31/2021 2:00:00 AM 7.87 46.166 0.412 7.77 2.82 9.9
12/31/2021 2:15:00 AM 7.84 46.112 0.412 7.77 2.54 9.88
12/31/2021 2:30:00 AM 7.82 46.076 0.412 7.77 2.53 9.87
12/31/2021 2:45:00 AM 7.81 46.058 0.412 7.76 2.54 9.84
12/31/2021 3:00:00 AM 7.81 46.058 0.413 7.76 2.44 9.85
12/31/2021 3:15:00 AM 7.81 46.058 0.412 7.76 2.64 9.75
12/31/2021 3:30:00 AM 7.82 46.076 0.412 7.76 2.51 9.8
12/31/2021 3:45:00 AM 7.84 46.112 0.413 7.75 2.63 9.68
12/31/2021 4:00:00 AM 7.86 46.148 0.413 7.75 2.54 9.71
12/31/2021 4:15:00 AM 7.88 46.184 0.413 7.75 2.54 9.72
12/31/2021 4:30:00 AM 7.9 46.22 0.413 7.75 2.46 9.71
12/31/2021 4:45:00 AM 7.92 46.256 0.413 7.75 2.5 9.77
12/31/2021 5:00:00 AM 7.93 46.274 0.413 7.75 2.42 9.74
12/31/2021 5:15:00 AM 7.95 46.31 0.413 7.74 2.53 9.64
12/31/2021 5:30:00 AM 7.96 46.328 0.413 7.74 2.56 9.69
12/31/2021 5:45:00 AM 7.96 46.328 0.414 7.74 2.84 9.74
12/31/2021 6:00:00 AM 7.96 46.328 0.414 7.74 2.61 9.65
12/31/2021 6:15:00 AM 7.96 46.328 0.413 7.74 2.49 9.68
12/31/2021 6:30:00 AM 7.96 46.328 0.414 7.74 2.62 9.72
12/31/2021 6:45:00 AM 7.96 46.328 0.414 7.74 3.09 9.66
12/31/2021 7:00:00 AM 7.96 46.328 0.414 7.74 2.69 9.65
12/31/2021 7:15:00 AM 7.96 46.328 0.414 7.74 2.58 9.61
12/31/2021 7:30:00 AM 7.96 46.328 0.414 7.74 2.69 9.64
12/31/2021 7:45:00 AM 7.97 46.346 0.414 7.74 2.75 9.65
12/31/2021 8:00:00 AM 7.97 46.346 0.415 7.74 2.49 9.74
12/31/2021 8:15:00 AM 7.98 46.364 0.415 7.74 2.61 9.73
12/31/2021 8:30:00 AM 7.99 46.382 0.415 7.75 2.58 9.81
12/31/2021 8:45:00 AM 8.01 46.418 0.415 7.76 2.6 9.84
12/31/2021 9:00:00 AM 8.02 46.436 0.414 7.77 3.69 9.9
12/31/2021 9:15:00 AM 8.04 46.472 0.414 7.78 4.5 9.96
12/31/2021 9:30:00 AM 8.05 46.49 0.414 7.79 2.81 10.15
12/31/2021 9:45:00 AM 8.08 46.544 0.414 7.81 6.37 10.13
12/31/2021 10:00:00 AM 8.09 46.562 0.414 7.82 2.49 10.29
12/31/2021 10:15:00 AM 8.12 46.616 0.415 7.83 2.79 10.65
12/31/2021 10:30:00 AM 8.15 46.67 0.414 7.85 2.64 10.75
12/31/2021 10:45:00 AM 8.17 46.706 0.414 7.87 4.08 10.91
12/31/2021 11:00:00 AM 8.21 46.778 0.414 7.89 3.01 11.09
12/31/2021 11:15:00 AM 8.24 46.832 0.414 7.91 2.61 11.19
12/31/2021 11:30:00 AM 8.26 46.868 0.413 7.92 2.47 11.27
12/31/2021 11:45:00 AM 8.28 46.904 0.413 7.94 2.89 11.34
12/31/2021 12:00:00 PM 8.31 46.958 0.414 7.95 4.43 11.38
12/31/2021 12:15:00 PM 8.33 46.994 0.413 7.97 3.07 11.48
12/31/2021 12:30:00 PM 8.35 47.03 0.413 7.98 2.55 11.6
12/31/2021 12:45:00 PM 8.39 47.102 0.413 8 2.46 11.73
12/31/2021 1:00:00 PM 8.41 47.138 0.413 8.01 2.8 11.9
12/31/2021 1:15:00 PM 8.45 47.21 0.412 8.03 2.53 11.99
12/31/2021 1:30:00 PM 8.47 47.246 0.412 8.05 4.79 12.11
12/31/2021 1:45:00 PM 8.5 47.3 0.412 8.06 3.27 12.07
12/31/2021 2:00:00 PM 8.52 47.336 0.412 8.07 2.43 12.23
12/31/2021 2:15:00 PM 8.55 47.39 0.412 8.09 2.7 12.3
12/31/2021 2:30:00 PM 8.58 47.444 0.412 8.1 2.4 12.34
12/31/2021 2:45:00 PM 8.61 47.498 0.412 8.11 2.57 12.42
12/31/2021 3:00:00 PM 8.63 47.534 0.412 8.13 2.62 12.42
12/31/2021 3:15:00 PM 8.68 47.624 0.412 8.15 2.48 12.65
12/31/2021 3:30:00 PM 8.71 47.678 0.412 8.17 2.53 12.62
12/31/2021 3:45:00 PM 8.73 47.714 0.412 8.18 2.58 12.71
12/31/2021 4:00:00 PM 8.76 47.768 0.412 8.2 2.53 12.69
12/31/2021 4:15:00 PM 8.78 47.804 0.411 8.21 2.53 12.77
12/31/2021 4:30:00 PM 8.78 47.804 0.411 8.2 2.5 12.7
12/31/2021 4:45:00 PM 8.78 47.804 0.412 8.18 2.38 12.51
12/31/2021 5:00:00 PM 8.77 47.786 0.412 8.14 2.45 12.28
12/31/2021 5:15:00 PM 8.76 47.768 0.412 8.11 2.48 12.09
12/31/2021 5:30:00 PM 8.75 47.75 0.413 8.07 2.43 11.77
12/31/2021 5:45:00 PM 8.73 47.714 0.413 8.02 5.99 11.47
12/31/2021 6:00:00 PM 8.73 47.714 0.414 7.99 3.12 11.24
12/31/2021 6:15:00 PM 8.72 47.696 0.414 7.97 2.54 10.99
12/31/2021 6:30:00 PM 8.72 47.696 0.415 7.94 2.59 10.89
12/31/2021 6:45:00 PM 8.72 47.696 0.414 7.92 2.47 10.83
12/31/2021 7:00:00 PM 8.72 47.696 0.415 7.91 2.28 10.75
12/31/2021 7:15:00 PM 8.72 47.696 0.414 7.9 3.43 10.63
12/31/2021 7:30:00 PM 8.72 47.696 0.414 7.9 2.62 10.67
12/31/2021 7:45:00 PM 8.73 47.714 0.414 7.89 2.39 10.58
12/31/2021 8:00:00 PM 8.74 47.732 0.415 7.89 2.31 10.56
12/31/2021 8:15:00 PM 8.76 47.768 0.414 7.89 2.59 10.61
12/31/2021 8:30:00 PM 8.77 47.786 0.414 7.89 2.41 10.44
12/31/2021 8:45:00 PM 8.78 47.804 0.415 7.88 2.41 10.53
12/31/2021 9:00:00 PM 8.8 47.84 0.415 7.88 2.47 10.41
12/31/2021 9:15:00 PM 8.8 47.84 0.415 7.88 3.78 10.46
12/31/2021 9:30:00 PM 8.81 47.858 0.415 7.87 2.34 10.31
12/31/2021 9:45:00 PM 8.82 47.876 0.415 7.87 2.14 10.29
12/31/2021 10:00:00 PM 8.83 47.894 0.415 7.86 1.96 10.22
12/31/2021 10:15:00 PM 8.83 47.894 0.415 7.86 2.05 10.19
12/31/2021 10:30:00 PM 8.84 47.912 0.415 7.85 2.1 10.15
12/31/2021 10:45:00 PM 8.84 47.912 0.416 7.85 1.99 10.1
12/31/2021 11:00:00 PM 8.84 47.912 0.416 7.84 1.9 10.07
12/31/2021 11:15:00 PM 8.84 47.912 0.416 7.83 2.03 9.95
12/31/2021 11:30:00 PM 8.85 47.93 0.416 7.83 2.01 9.85
12/31/2021 11:45:00 PM 8.85 47.93 0.417 7.82 2.04 9.91
1/1/2022 12:00:00 AM 8.85 47.93 0.417 7.82 1.98 9.8
1/1/2022 12:15:00 AM 8.84 47.912 0.417 7.81 2 9.77
1/1/2022 12:30:00 AM 8.84 47.912 0.417 7.81 2.04 9.78
1/1/2022 12:45:00 AM 8.84 47.912 0.417 7.8 1.96 9.8
1/1/2022 1:00:00 AM 8.84 47.912 0.417 7.79 2.04 9.61
1/1/2022 1:15:00 AM 8.84 47.912 0.418 7.79 1.9 9.71
1/1/2022 1:30:00 AM 8.84 47.912 0.417 7.79 1.95 9.62
1/1/2022 1:45:00 AM 8.84 47.912 0.417 7.78 2.36 9.64
1/1/2022 2:00:00 AM 8.85 47.93 0.418 7.78 2.16 9.62
1/1/2022 2:15:00 AM 8.85 47.93 0.418 7.78 1.99 9.5
1/1/2022 2:30:00 AM 8.85 47.93 0.418 7.77 1.88 9.58
1/1/2022 2:45:00 AM 8.85 47.93 0.418 7.77 2.11 9.51
1/1/2022 3:00:00 AM 8.86 47.948 0.418 7.77 2.19 9.54
1/1/2022 3:15:00 AM 8.86 47.948 0.418 7.77 2.09 9.36
1/1/2022 3:30:00 AM 8.87 47.966 0.418 7.76 1.93 9.51
1/1/2022 3:45:00 AM 8.87 47.966 0.418 7.76 2.32 9.44
1/1/2022 4:00:00 AM 8.87 47.966 0.419 7.76 1.96 9.46
1/1/2022 4:15:00 AM 8.88 47.984 0.419 7.76 2.02 9.39
1/1/2022 4:30:00 AM 8.88 47.984 0.419 7.76 2.05 9.37
1/1/2022 4:45:00 AM 8.89 48.002 0.419 7.75 2.04 9.46
1/1/2022 5:00:00 AM 8.89 48.002 0.419 7.75 2.15 9.36
1/1/2022 5:15:00 AM 8.89 48.002 0.419 7.75 2.3 9.4
1/1/2022 5:30:00 AM 8.9 48.02 0.419 7.74 2.4 9.39
1/1/2022 5:45:00 AM 8.9 48.02 0.419 7.75 2.25 9.36
1/1/2022 6:00:00 AM 8.91 48.038 0.419 7.74 2.21 9.3
1/1/2022 6:15:00 AM 8.91 48.038 0.42 7.74 2.12 9.25
1/1/2022 6:30:00 AM 8.91 48.038 0.419 7.74 2.06 9.22
1/1/2022 6:45:00 AM 8.92 48.056 0.419 7.74 2.44 9.24
1/1/2022 7:00:00 AM 8.92 48.056 0.419 7.74 2.32 9.18
1/1/2022 7:15:00 AM 8.92 48.056 0.419 7.73 2.19 9.23
1/1/2022 7:30:00 AM 8.92 48.056 0.419 7.73 2.28 9.17
1/1/2022 7:45:00 AM 8.93 48.074 0.42 7.73 4.84 9.26
1/1/2022 8:00:00 AM 8.93 48.074 0.42 7.73 2.36 9.23
1/1/2022 8:15:00 AM 8.94 48.092 0.42 7.74 2.72 9.26
1/1/2022 8:30:00 AM 8.95 48.11 0.419 7.74 2.1 9.2
1/1/2022 8:45:00 AM 8.96 48.128 0.419 7.74 2.08 9.27
1/1/2022 9:00:00 AM 8.97 48.146 0.419 7.74 5.14 9.37
1/1/2022 9:15:00 AM 8.99 48.182 0.419 7.75 9.86 9.49
1/1/2022 9:30:00 AM 9 48.2 0.419 7.76 2.51 9.66
1/1/2022 9:45:00 AM 9.02 48.236 0.419 7.77 2.35 9.74
1/1/2022 10:00:00 AM 9.04 48.272 0.418 7.78 5.02 9.88
1/1/2022 10:15:00 AM 9.07 48.326 0.418 7.8 1.82 10.03
1/1/2022 10:30:00 AM 9.1 48.38 0.419 7.82 1.93 10.29
1/1/2022 10:45:00 AM 9.12 48.416 0.419 7.83 2.12 10.39
1/1/2022 11:00:00 AM 9.15 48.47 0.419 7.84 1.82 10.44
1/1/2022 11:15:00 AM 9.18 48.524 0.419 7.87 1.74 10.61
1/1/2022 11:30:00 AM 9.2 48.56 0.419 7.89 1.89 10.63
1/1/2022 11:45:00 AM 9.22 48.596 0.419 7.9 3.02 11
1/1/2022 12:00:00 PM 9.24 48.632 0.418 7.91 2.56 10.97
1/1/2022 12:15:00 PM 9.26 48.668 0.417 7.92 2.11 11.05
1/1/2022 12:30:00 PM 9.26 48.668 0.415 7.93 2.58 10.97
1/1/2022 12:45:00 PM 9.27 48.686 0.414 7.94 1.97 11.09
1/1/2022 1:00:00 PM 9.28 48.704 0.412 7.95 2.12 10.91
1/1/2022 1:15:00 PM 9.28 48.704 0.41 7.96 2.13 11.06
1/1/2022 1:30:00 PM 9.29 48.722 0.41 7.98 2.08 11.2
1/1/2022 1:45:00 PM 9.31 48.758 0.409 7.99 2.21 11.24
1/1/2022 2:00:00 PM 9.33 48.794 0.41 8 2.06 11.27
1/1/2022 2:15:00 PM 9.36 48.848 0.41 8 2.27 11.27
1/1/2022 2:30:00 PM 9.39 48.902 0.411 8.02 1.9 11.31
1/1/2022 2:45:00 PM 9.42 48.956 0.411 8.03 2.6 11.54
1/1/2022 3:00:00 PM 9.44 48.992 0.412 8.03 2.3 11.56
1/1/2022 3:15:00 PM 9.46 49.028 0.412 8.02 4.84 11.53
1/1/2022 3:30:00 PM 9.48 49.064 0.412 8.03 3.3 11.52
1/1/2022 3:45:00 PM 9.49 49.082 0.412 8.02 2.34 11.46
1/1/2022 4:00:00 PM 9.5 49.1 0.413 8 2.18 11.26
1/1/2022 4:15:00 PM 9.51 49.118 0.413 7.98 2.48 11.17
1/1/2022 4:30:00 PM 9.51 49.118 0.412 7.96 2.2 10.99
1/1/2022 4:45:00 PM 9.52 49.136 0.412 7.94 2.23 10.84
1/1/2022 5:00:00 PM 9.52 49.136 0.411 7.92 2.28 10.7
1/1/2022 5:15:00 PM 9.53 49.154 0.41 7.9 2.43 10.56
1/1/2022 5:30:00 PM 9.53 49.154 0.41 7.89 2.27 10.4
1/1/2022 5:45:00 PM 9.53 49.154 0.409 7.87 2.36 10.33
1/1/2022 6:00:00 PM 9.54 49.172 0.409 7.87 2.5 10.28
1/1/2022 6:15:00 PM 9.54 49.172 0.408 7.86 2.44 10.19
1/1/2022 6:30:00 PM 9.54 49.172 0.408 7.85 2.87 10.17
1/1/2022 6:45:00 PM 9.56 49.208 0.407 7.85 2.99 10.14
1/1/2022 7:00:00 PM 9.57 49.226 0.407 7.85 2.54 10.11
1/1/2022 7:15:00 PM 9.6 49.28 0.407 7.85 2.62 10.07
1/1/2022 7:30:00 PM 9.61 49.298 0.406 7.85 2.71 10.04
1/1/2022 7:45:00 PM 9.64 49.352 0.403 7.85 4.43 9.99
1/1/2022 8:00:00 PM 9.67 49.406 0.4 7.85 5.25 10.05
1/1/2022 8:15:00 PM 9.69 49.442 0.397 7.86 4.6 9.99
1/1/2022 8:30:00 PM 9.7 49.46 0.396 7.85 4.64 9.95
1/1/2022 8:45:00 PM 9.71 49.478 0.394 7.85 4.82 9.84
1/1/2022 9:00:00 PM 9.7 49.46 0.394 7.84 5.14 9.82
1/1/2022 9:15:00 PM 9.69 49.442 0.394 7.83 5.57 9.75
1/1/2022 9:30:00 PM 9.68 49.424 0.394 7.82 5.34 9.62
1/1/2022 9:45:00 PM 9.66 49.388 0.394 7.81 5.36 9.59
1/1/2022 10:00:00 PM 9.64 49.352 0.394 7.79 6.86 9.66
1/1/2022 10:15:00 PM 9.62 49.316 0.393 7.78 7.98 9.64
1/1/2022 10:30:00 PM 9.61 49.298 0.393 7.78 9.04 9.62
1/1/2022 10:45:00 PM 9.6 49.28 0.393 7.77 8.39 9.6
1/1/2022 11:00:00 PM 9.58 49.244 0.392 7.77 9.5 9.58
1/1/2022 11:15:00 PM 9.57 49.226 0.391 7.77 8.35 9.6
1/1/2022 11:30:00 PM 9.56 49.208 0.389 7.77 8.19 9.54
1/1/2022 11:45:00 PM 9.54 49.172 0.384 7.77 9.03 9.6
1/2/2022 12:00:00 AM 9.52 49.136 0.379 7.78 11.44 9.62
1/2/2022 12:15:00 AM 9.51 49.118 0.375 7.78 31.4 9.66
1/2/2022 12:30:00 AM 9.48 49.064 0.372 7.78 15.19 9.71
1/2/2022 12:45:00 AM 9.46 49.028 0.371 7.79 18.67 9.72
1/2/2022 1:00:00 AM 9.44 48.992 0.37 7.78 16.44 9.77
1/2/2022 1:15:00 AM 9.43 48.974 0.368 7.78 22.81 9.82
1/2/2022 1:30:00 AM 9.42 48.956 0.366 7.78 24.6 9.85
1/2/2022 1:45:00 AM 9.43 48.974 0.365 7.78 20.87 9.86
1/2/2022 2:00:00 AM 9.45 49.01 0.364 7.78 33.06 9.85
1/2/2022 2:15:00 AM 9.47 49.046 0.361 7.77 32.76 9.83
1/2/2022 2:30:00 AM 9.47 49.046 0.352 7.77 33.24 9.84
1/2/2022 2:45:00 AM 9.47 49.046 0.355 7.76 26.48 9.84
1/2/2022 3:00:00 AM 9.47 49.046 0.356 7.76 50.74 9.85
1/2/2022 3:15:00 AM 9.47 49.046 0.355 7.76 30 9.86
1/2/2022 3:30:00 AM 9.48 49.064 0.353 7.75 72.3 9.86
1/2/2022 3:45:00 AM 9.48 49.064 0.351 7.75 20.22 9.85
1/2/2022 4:00:00 AM 9.49 49.082 0.348 7.75 27.19 9.82
1/2/2022 4:15:00 AM 9.5 49.1 0.345 7.75 40.55 9.79
1/2/2022 4:30:00 AM 9.51 49.118 0.34 7.75 41.08 9.74
1/2/2022 4:45:00 AM 9.51 49.118 0.337 7.74 43.06 9.73
1/2/2022 5:00:00 AM 9.51 49.118 0.332 7.73 41.78 9.71
1/2/2022 5:15:00 AM 9.51 49.118 0.329 7.73 43.96 9.72
1/2/2022 5:30:00 AM 9.51 49.118 0.326 7.73 41.06 9.72
1/2/2022 5:45:00 AM 9.51 49.118 0.325 7.72 43.64 9.75
1/2/2022 6:00:00 AM 9.5 49.1 0.324 7.72 33.82 9.75
1/2/2022 6:15:00 AM 9.5 49.1 0.324 7.72 37.55 9.77
1/2/2022 6:30:00 AM 9.49 49.082 0.324 7.71 37.89 9.78
1/2/2022 6:45:00 AM 9.49 49.082 0.324 7.71 37.96 9.78
1/2/2022 7:00:00 AM 9.49 49.082 0.323 7.7 35.93 9.77
1/2/2022 7:15:00 AM 9.48 49.064 0.322 7.71 30.23 9.77
1/2/2022 7:30:00 AM 9.47 49.046 0.321 7.69 30.61 9.75
1/2/2022 7:45:00 AM 9.46 49.028 0.321 7.68 35.19 9.75
1/2/2022 8:00:00 AM 9.44 48.992 0.32 7.69 35.23 9.72
1/2/2022 8:15:00 AM 9.44 48.992 0.32 7.68 31.93 9.71
1/2/2022 8:30:00 AM 9.44 48.992 0.321 7.68 38.16 9.7
1/2/2022 8:45:00 AM 9.45 49.01 0.321 7.69 32.67 9.7
1/2/2022 9:00:00 AM 9.46 49.028 0.322 7.67 29.69 9.71
1/2/2022 9:15:00 AM 9.47 49.046 0.323 7.68 29.38 9.7
1/2/2022 9:30:00 AM 9.48 49.064 0.324 7.68 28.22 9.73
1/2/2022 9:45:00 AM 9.5 49.1 0.324 7.68 30.47 9.74
1/2/2022 10:00:00 AM 9.53 49.154 0.324 7.68 30.3 9.77
1/2/2022 10:15:00 AM 9.56 49.208 0.325 7.69 26.82 9.79
1/2/2022 10:30:00 AM 9.61 49.298 0.325 7.69 29.23 9.85
1/2/2022 10:45:00 AM 9.64 49.352 0.325 7.7 29.66 9.87
1/2/2022 11:00:00 AM 9.67 49.406 0.326 7.7 27.96 9.9
1/2/2022 11:15:00 AM 9.69 49.442 0.326 7.71 27.68 9.94
1/2/2022 11:30:00 AM 9.72 49.496 0.327 7.71 28.64 9.97
1/2/2022 11:45:00 AM 9.74 49.532 0.327 7.72 24.91 9.98
1/2/2022 12:00:00 PM 9.77 49.586 0.328 7.72 55.94 9.95
1/2/2022 12:15:00 PM 9.84 49.712 0.329 7.73 36.77 10.04
1/2/2022 12:30:00 PM 9.9 49.82 0.329 7.74 39.03 10.06
1/2/2022 12:45:00 PM 9.96 49.928 0.33 7.74 27.46 10.05
1/2/2022 1:00:00 PM 10.02 50.036 0.332 7.75 24 10.1
1/2/2022 1:15:00 PM 10.07 50.126 0.333 7.76 23.75 10.03
1/2/2022 1:30:00 PM 10.12 50.216 0.334 7.77 24.84 10.12
1/2/2022 1:45:00 PM 10.15 50.27 0.335 7.77 25.2 10.17
1/2/2022 2:00:00 PM 10.18 50.324 0.336 7.78 21.69 10.19
1/2/2022 2:15:00 PM 10.21 50.378 0.337 7.78 40.19 10.13
1/2/2022 2:30:00 PM 10.22 50.396 0.338 7.78 20.99 10.07
1/2/2022 2:45:00 PM 10.24 50.432 0.339 7.78 22.78 10.12
1/2/2022 3:00:00 PM 10.25 50.45 0.341 7.77 31.65 10.1
1/2/2022 3:15:00 PM 10.27 50.486 0.342 7.76 21.47 9.95
1/2/2022 3:30:00 PM 10.27 50.486 0.343 7.77 21.72 9.92
1/2/2022 3:45:00 PM 10.28 50.504 0.344 7.76 21.74 9.91
1/2/2022 4:00:00 PM 10.28 50.504 0.345 7.76 45.46 9.85
1/2/2022 4:15:00 PM 10.28 50.504 0.346 7.75 20.52 9.79
1/2/2022 4:30:00 PM 10.28 50.504 0.347 7.75 18.35 9.77
1/2/2022 4:45:00 PM 10.27 50.486 0.348 7.74 21.66 9.73
1/2/2022 5:00:00 PM 10.25 50.45 0.348 7.74 18.1 9.68
1/2/2022 5:15:00 PM 10.24 50.432 0.349 7.74 17.29 9.58
1/2/2022 5:30:00 PM 10.22 50.396 0.349 7.73 18.17 9.52
1/2/2022 5:45:00 PM 10.19 50.342 0.35 7.73 18.51 9.61
1/2/2022 6:00:00 PM 10.17 50.306 0.35 7.72 17.41 9.51
1/2/2022 6:15:00 PM 10.13 50.234 0.35 7.72 18.93 9.57
1/2/2022 6:30:00 PM 10.09 50.162 0.351 7.72 20.52 9.46
1/2/2022 6:45:00 PM 10.04 50.072 0.351 7.72 19.03 9.49
1/2/2022 7:00:00 PM 9.99 49.982 0.351 7.71 18.76 9.47
1/2/2022 7:15:00 PM 9.94 49.892 0.351 7.71 17.27 9.25
1/2/2022 7:30:00 PM 9.89 49.802 0.352 7.71 16.93 9.4
1/2/2022 7:45:00 PM 9.85 49.73 0.352 7.71 20.08 9.42
1/2/2022 8:00:00 PM 9.79 49.622 0.352 7.7 19.97 9.3
1/2/2022 8:15:00 PM 9.74 49.532 0.352 7.7 16.63 9.38
1/2/2022 8:30:00 PM 9.69 49.442 0.353 7.7 17.26 9.24
1/2/2022 8:45:00 PM 9.66 49.388 0.353 7.7 16.42 9.38
1/2/2022 9:00:00 PM 9.61 49.298 0.353 7.7 15.67 9.28
1/2/2022 9:15:00 PM 9.57 49.226 0.354 7.7 17.26 9.28
1/2/2022 9:30:00 PM 9.52 49.136 0.354 7.7 14.07 9.4
1/2/2022 9:45:00 PM 9.47 49.046 0.355 7.7 16.94 9.47
1/2/2022 10:00:00 PM 9.4 48.92 0.355 7.7 14.03 9.35
1/2/2022 10:15:00 PM 9.33 48.794 0.355 7.7 14.36 9.4
1/2/2022 10:30:00 PM 9.26 48.668 0.356 7.7 14.65 9.38
1/2/2022 10:45:00 PM 9.21 48.578 0.357 7.69 16.52 9.37
1/2/2022 11:00:00 PM 9.14 48.452 0.357 7.69 13.95 9.33
1/2/2022 11:15:00 PM 9.08 48.344 0.357 7.7 12.85 9.32
1/2/2022 11:30:00 PM 9.02 48.236 0.358 7.69 13.5 9.48
1/2/2022 11:45:00 PM 8.97 48.146 0.358 7.7 15.45 9.37
1/3/2022 12:00:00 AM 8.91 48.038 0.358 7.69 13.46 9.43
1/3/2022 12:15:00 AM 8.86 47.948 0.359 7.69 12.42 9.49
1/3/2022 12:30:00 AM 8.81 47.858 0.36 7.69 13.58 9.45
1/3/2022 12:45:00 AM 8.77 47.786 0.36 7.69 12.26 9.3
1/3/2022 1:00:00 AM 8.73 47.714 0.361 7.69 12.94 9.48
1/3/2022 1:15:00 AM 8.68 47.624 0.361 7.69 12.11 9.5
1/3/2022 1:30:00 AM 8.62 47.516 0.362 7.69 13.02 9.54
1/3/2022 1:45:00 AM 8.57 47.426 0.362 7.69 13.38 9.54
1/3/2022 2:00:00 AM 8.52 47.336 0.363 7.69 12.13 9.16
1/3/2022 2:15:00 AM 8.45 47.21 0.363 7.69 11.88 9.56
1/3/2022 2:30:00 AM 8.39 47.102 0.363 7.69 12 9.41
1/3/2022 2:45:00 AM 8.34 47.012 0.364 7.68 11.95 9.56
1/3/2022 3:00:00 AM 8.28 46.904 0.365 7.68 11.87 9.66
1/3/2022 3:15:00 AM 8.23 46.814 0.365 7.69 11.51 9.63
1/3/2022 3:30:00 AM 8.18 46.724 0.366 7.69 10.96 9.48
1/3/2022 3:45:00 AM 8.13 46.634 0.366 7.69 11.19 9.59
1/3/2022 4:00:00 AM 8.08 46.544 0.367 7.69 10.48 9.57
1/3/2022 4:15:00 AM 8.02 46.436 0.368 7.69 10.36 9.69
1/3/2022 4:30:00 AM 7.97 46.346 0.368 7.69 10.36 9.72
1/3/2022 4:45:00 AM 7.92 46.256 0.369 7.69 10.64 9.49
1/3/2022 5:00:00 AM 7.88 46.184 0.369 7.69 10.48 9.54
1/3/2022 5:15:00 AM 7.83 46.094 0.37 7.69 10.92 9.41
1/3/2022 5:30:00 AM 7.79 46.022 0.37 7.69 9.98 9.66
1/3/2022 5:45:00 AM 7.73 45.914 0.371 7.69 9.84 9.54
1/3/2022 6:00:00 AM 7.69 45.842 0.372 7.69 9.61 9.76
1/3/2022 6:15:00 AM 7.64 45.752 0.372 7.69 9.47 9.44
1/3/2022 6:30:00 AM 7.57 45.626 0.373 7.69 9.37 9.82
1/3/2022 6:45:00 AM 7.52 45.536 0.374 7.69 9.89 9.64
1/3/2022 7:00:00 AM 7.45 45.41 0.374 7.69 9.81 9.86
1/3/2022 7:15:00 AM 7.39 45.302 0.375 7.69 9.95 9.92
1/3/2022 7:30:00 AM 7.34 45.212 0.375 7.69 19.63 9.89
1/3/2022 7:45:00 AM 7.28 45.104 0.376 7.69 12.49 9.8
1/3/2022 8:00:00 AM 7.21 44.978 0.377 7.69 10.56 9.95
1/3/2022 8:15:00 AM 7.15 44.87 0.378 7.69 60.51 10
1/3/2022 8:30:00 AM 7.12 44.816 0.378 7.69 129.89 10.02
1/3/2022 8:45:00 AM 7.05 44.69 0.379 7.7 41.41 10
1/3/2022 9:00:00 AM 6.99 44.582 0.379 7.7 8.35 10.09
1/3/2022 9:15:00 AM 6.93 44.474 0.38 7.7 10.48 10.14
1/3/2022 9:30:00 AM 6.88 44.384 0.38 7.7 9.18 10.2
1/3/2022 9:45:00 AM 6.82 44.276 0.381 7.71 13.19 10.25
1/3/2022 10:00:00 AM 6.76 44.168 0.382 7.71 10.89 10.32
1/3/2022 10:15:00 AM 6.72 44.096 0.382 7.72 9.58 10.38
1/3/2022 10:30:00 AM 6.67 44.006 0.382 7.72 13.82 10.44
1/3/2022 10:45:00 AM 6.62 43.916 0.383 7.73 53.75 10.47
1/3/2022 11:00:00 AM 6.59 43.862 0.383 7.73 13.18 10.53
1/3/2022 11:15:00 AM 6.54 43.772 0.384 7.74 10.66 10.59
1/3/2022 11:30:00 AM 6.48 43.664 0.384 7.75 12.46 10.42
1/3/2022 11:45:00 AM 6.44 43.592 0.384 7.75 8.7 10.74
1/3/2022 12:00:00 PM 6.39 43.502 0.385 7.76 12.46 10.68
1/3/2022 12:15:00 PM 6.32 43.376 0.385 7.75 9.74 10.83
1/3/2022 12:30:00 PM 6.28 43.304 0.386 7.77 8.31 10.89
1/3/2022 12:45:00 PM 6.22 43.196 0.386 7.77 8.4 10.87
1/3/2022 1:00:00 PM 6.17 43.106 0.386 7.78 7.59 10.95
1/3/2022 1:15:00 PM 6.11 42.998 0.386 7.78 6.98 10.98
1/3/2022 1:30:00 PM 6.1 42.98 0.387 7.79 10.72 11.08
1/3/2022 1:45:00 PM 6.06 42.908 0.387 7.8 9.12 11.16
1/3/2022 2:00:00 PM 6.03 42.854 0.387 7.81 9.11 11.27
1/3/2022 2:15:00 PM 5.99 42.782 0.388 7.82 8.92 11.09
1/3/2022 2:30:00 PM 5.96 42.728 0.387 7.83 7.43 11.41
1/3/2022 2:45:00 PM 5.94 42.692 0.388 7.84 7.91 11.52
1/3/2022 3:00:00 PM 5.92 42.656 0.389 7.85 6.97 11.53
1/3/2022 3:15:00 PM 5.89 42.602 0.388 7.86 6.98 11.66
1/3/2022 3:30:00 PM 5.87 42.566 0.388 7.86 6.74 11.69
1/3/2022 3:45:00 PM 5.82 42.476 0.389 7.86 7.95 11.72
1/3/2022 4:00:00 PM 5.76 42.368 0.389 7.87 10.91 11.69
1/3/2022 4:15:00 PM 5.71 42.278 0.389 7.87 7.54 11.69
1/3/2022 4:30:00 PM 5.63 42.134 0.389 7.86 7.29 11.6
1/3/2022 4:45:00 PM 5.54 41.972 0.39 7.85 6.92 11.66
1/3/2022 5:00:00 PM 5.46 41.828 0.39 7.85 7.21 11.6
1/3/2022 5:15:00 PM 5.38 41.684 0.39 7.84 7.48 11.53
1/3/2022 5:30:00 PM 5.3 41.54 0.39 7.83 6.36 11.29
1/3/2022 5:45:00 PM 5.22 41.396 0.391 7.82 6.29 11.45
1/3/2022 6:00:00 PM 5.17 41.306 0.391 7.82 6.39 11.4
1/3/2022 6:15:00 PM 5.12 41.216 0.391 7.81 6.59 11.32
1/3/2022 6:30:00 PM 5.07 41.126 0.392 7.81 6.37 11.33
1/3/2022 6:45:00 PM 5.03 41.054 0.392 7.81 6.4 11.11
1/3/2022 7:00:00 PM 4.98 40.964 0.392 7.81 6.13 11.04
1/3/2022 7:15:00 PM 4.93 40.874 0.392 7.81 7.03 11.43
1/3/2022 7:30:00 PM 4.89 40.802 0.392 7.81 7.02 11.43
1/3/2022 7:45:00 PM 4.85 40.73 0.393 7.81 6.78 11.35
1/3/2022 8:00:00 PM 4.81 40.658 0.393 7.8 7.14 11.23
1/3/2022 8:15:00 PM 4.74 40.532 0.393 7.8 7.09 11.39
1/3/2022 8:30:00 PM 4.7 40.46 0.393 7.8 9.29 11.33
1/3/2022 8:45:00 PM 4.65 40.37 0.394 7.8 7.69 11.16
1/3/2022 9:00:00 PM 4.59 40.262 0.394 7.8 7.3 11.38
1/3/2022 9:15:00 PM 4.55 40.19 0.394 7.79 6.37 11.27
1/3/2022 9:30:00 PM 4.5 40.1 0.394 7.79 8.02 11.27
1/3/2022 9:45:00 PM 4.44 39.992 0.395 7.79 7.67 11.2
1/3/2022 10:00:00 PM 4.37 39.866 0.395 7.79 8.28 11.16
1/3/2022 10:15:00 PM 4.32 39.776 0.395 7.78 11.26 11.26
1/3/2022 10:30:00 PM 4.25 39.65 0.395 7.77 7.48 11.04
1/3/2022 10:45:00 PM 4.2 39.56 0.396 7.78 7.3 10.89
1/3/2022 11:00:00 PM 4.13 39.434 0.396 7.78 7.48 8.21
1/3/2022 11:15:00 PM 4.08 39.344 0.396 7.78 8.88 8.77
1/3/2022 11:30:00 PM 4.01 39.218 0.397 7.77 8.88 8.85
1/3/2022 11:45:00 PM 3.96 39.128 0.397 7.77 6.67 9.36
1/4/2022 12:00:00 AM 3.91 39.038 0.397 7.77 7.57 8.99
1/4/2022 12:15:00 AM 3.86 38.948 0.397 7.77 7.93 8.91
1/4/2022 12:30:00 AM 3.8 38.84 0.397 7.77 6.63 8.9
1/4/2022 12:45:00 AM 3.75 38.75 0.398 7.77 7.18 8.81
1/4/2022 1:00:00 AM 3.7 38.66 0.398 7.77 6.88 8.92
1/4/2022 1:15:00 AM 3.65 38.57 0.398 7.77 6.06 8.99
1/4/2022 1:30:00 AM 3.6 38.48 0.398 7.77 7.81 9.37
1/4/2022 1:45:00 AM 3.55 38.39 0.399 7.77 6.08 9.1
1/4/2022 2:00:00 AM 3.49 38.282 0.398 7.77 5.78 9.11
1/4/2022 2:15:00 AM 3.45 38.21 0.399 7.77 6.18 9.24
1/4/2022 2:30:00 AM 3.4 38.12 0.399 7.77 5.71 9.27
1/4/2022 2:45:00 AM 3.35 38.03 0.399 7.77 7.01 9.34
1/4/2022 3:00:00 AM 3.29 37.922 0.399 7.77 6.76 9.32
1/4/2022 3:15:00 AM 3.25 37.85 0.399 7.77 6.2 9.21
1/4/2022 3:30:00 AM 3.21 37.778 0.399 7.77 7.02 9.38
1/4/2022 3:45:00 AM 3.16 37.688 0.4 7.77 6.81 9.49
1/4/2022 4:00:00 AM 3.11 37.598 0.4 7.77 5.61 9.48
1/4/2022 4:15:00 AM 3.07 37.526 0.4 7.77 5.7 9.72
1/4/2022 4:30:00 AM 3.02 37.436 0.4 7.77 5.99 9.67
1/4/2022 4:45:00 AM 2.98 37.364 0.4 7.77 5.82 9.72
1/4/2022 5:00:00 AM 2.94 37.292 0.4 7.77 6.99 9.81
1/4/2022 5:15:00 AM 2.89 37.202 0.401 7.77 6.76 9.79
1/4/2022 5:30:00 AM 2.86 37.148 0.401 7.77 37.49 9.73
1/4/2022 5:45:00 AM 2.81 37.058 0.401 7.76 9.27 9.98
1/4/2022 6:00:00 AM 2.77 36.986 0.401 7.76 13.6 10.24
1/4/2022 6:15:00 AM 2.74 36.932 0.394 7.77 6.96 9.89
1/4/2022 6:30:00 AM 2.69 36.842 0.402 7.77 6.82 9.85
1/4/2022 6:45:00 AM 2.65 36.77 0.402 7.76 6.04 9.93
1/4/2022 7:00:00 AM 2.61 36.698 0.402 7.77 6.68 9.97
1/4/2022 7:15:00 AM 2.57 36.626 0.402 7.76 11.06 9.94
1/4/2022 7:30:00 AM 2.54 36.572 0.402 7.76 23.6 9.87
1/4/2022 7:45:00 AM 2.5 36.5 0.403 7.76 19.14 10.05
1/4/2022 8:00:00 AM 2.46 36.428 0.403 7.76 16.09 10
1/4/2022 8:15:00 AM 2.43 36.374 0.403 7.77 9.55 9.97
1/4/2022 8:30:00 AM 2.42 36.356 0.403 7.77 8.06 10.11
1/4/2022 8:45:00 AM 2.42 36.356 0.403 7.78 8.3 10.1
1/4/2022 9:00:00 AM 2.43 36.374 0.403 7.79 7.59 10.22
1/4/2022 9:15:00 AM 2.44 36.392 0.403 7.8 7.19 10.29
1/4/2022 9:30:00 AM 2.47 36.446 0.403 7.81 11